<?xml version="1.0" encoding="UTF-8" standalone="no" ?>
<gpx xmlns="http://www.topografix.com/GPX/1/1" xmlns:xsi="http://www.w3.org/2001/XMLSchema-instance" xsi:schemaLocation="http://www.topografix.com/GPX/1/1 http://www.topografix.com/GPX/1/1/gpx.xsd" version="1.1" creator="VisuGPX - https://www.visugpx.com">
  <metadata>
    <name>Rando Rignac 2017</name>
    <desc><![CDATA[Petite rando familiale réalisée lors de la fête de Rignac 2017]]></desc>
  </metadata>
  <trk>
    <name><![CDATA[46500 Rignac, France]]></name>
    <trkseg>
      <trkpt lat="44.80498" lon="1.69489">
        <ele>260</ele>
        <time>2017-07-08T06:14:17Z</time>
      </trkpt>
      <trkpt lat="44.80498" lon="1.69489">
        <ele>260</ele>
        <time>2017-07-08T06:14:18Z</time>
      </trkpt>
      <trkpt lat="44.80416" lon="1.69571">
        <ele>295</ele>
        <time>2017-07-08T06:25:49Z</time>
      </trkpt>
      <trkpt lat="44.80413" lon="1.6958">
        <ele>292</ele>
        <time>2017-07-08T06:25:53Z</time>
      </trkpt>
      <trkpt lat="44.80415" lon="1.69587">
        <ele>289</ele>
        <time>2017-07-08T06:26:08Z</time>
      </trkpt>
      <trkpt lat="44.80418" lon="1.69593">
        <ele>287</ele>
        <time>2017-07-08T06:26:20Z</time>
      </trkpt>
      <trkpt lat="44.80418" lon="1.69593">
        <ele>285</ele>
        <time>2017-07-08T06:26:44Z</time>
      </trkpt>
      <trkpt lat="44.80418" lon="1.69593">
        <ele>282</ele>
        <time>2017-07-08T06:26:46Z</time>
      </trkpt>
      <trkpt lat="44.80418" lon="1.69593">
        <ele>281</ele>
        <time>2017-07-08T06:27:14Z</time>
      </trkpt>
      <trkpt lat="44.80418" lon="1.69593">
        <ele>281</ele>
        <time>2017-07-08T06:27:16Z</time>
      </trkpt>
      <trkpt lat="44.80418" lon="1.69593">
        <ele>281</ele>
        <time>2017-07-08T06:27:44Z</time>
      </trkpt>
      <trkpt lat="44.80418" lon="1.69593">
        <ele>281</ele>
        <time>2017-07-08T06:27:46Z</time>
      </trkpt>
      <trkpt lat="44.80418" lon="1.69593">
        <ele>281</ele>
        <time>2017-07-08T06:28:14Z</time>
      </trkpt>
      <trkpt lat="44.80418" lon="1.69593">
        <ele>281</ele>
        <time>2017-07-08T06:28:16Z</time>
      </trkpt>
      <trkpt lat="44.80418" lon="1.69593">
        <ele>281</ele>
        <time>2017-07-08T06:28:44Z</time>
      </trkpt>
      <trkpt lat="44.80418" lon="1.69593">
        <ele>281</ele>
        <time>2017-07-08T06:28:46Z</time>
      </trkpt>
      <trkpt lat="44.80418" lon="1.69593">
        <ele>281</ele>
        <time>2017-07-08T06:29:14Z</time>
      </trkpt>
      <trkpt lat="44.80418" lon="1.69593">
        <ele>281</ele>
        <time>2017-07-08T06:29:16Z</time>
      </trkpt>
      <trkpt lat="44.80418" lon="1.69593">
        <ele>281</ele>
        <time>2017-07-08T06:29:44Z</time>
      </trkpt>
      <trkpt lat="44.80418" lon="1.69593">
        <ele>280</ele>
        <time>2017-07-08T06:29:46Z</time>
      </trkpt>
      <trkpt lat="44.80418" lon="1.69593">
        <ele>280</ele>
        <time>2017-07-08T06:30:14Z</time>
      </trkpt>
      <trkpt lat="44.80418" lon="1.69593">
        <ele>280</ele>
        <time>2017-07-08T06:30:16Z</time>
      </trkpt>
      <trkpt lat="44.80418" lon="1.69593">
        <ele>280</ele>
        <time>2017-07-08T06:30:44Z</time>
      </trkpt>
      <trkpt lat="44.80418" lon="1.69593">
        <ele>279</ele>
        <time>2017-07-08T06:30:46Z</time>
      </trkpt>
      <trkpt lat="44.80421" lon="1.69593">
        <ele>279</ele>
        <time>2017-07-08T06:31:14Z</time>
      </trkpt>
      <trkpt lat="44.80421" lon="1.69593">
        <ele>279</ele>
        <time>2017-07-08T06:31:16Z</time>
      </trkpt>
      <trkpt lat="44.80423" lon="1.69592">
        <ele>279</ele>
        <time>2017-07-08T06:31:44Z</time>
      </trkpt>
      <trkpt lat="44.80423" lon="1.69592">
        <ele>279</ele>
        <time>2017-07-08T06:31:46Z</time>
      </trkpt>
      <trkpt lat="44.8042" lon="1.6959">
        <ele>279</ele>
        <time>2017-07-08T06:32:14Z</time>
      </trkpt>
      <trkpt lat="44.8042" lon="1.6959">
        <ele>279</ele>
        <time>2017-07-08T06:32:16Z</time>
      </trkpt>
      <trkpt lat="44.80422" lon="1.69591">
        <ele>279</ele>
        <time>2017-07-08T06:32:44Z</time>
      </trkpt>
      <trkpt lat="44.80422" lon="1.69591">
        <ele>279</ele>
        <time>2017-07-08T06:32:46Z</time>
      </trkpt>
      <trkpt lat="44.8042" lon="1.69589">
        <ele>280</ele>
        <time>2017-07-08T06:33:14Z</time>
      </trkpt>
      <trkpt lat="44.8042" lon="1.69589">
        <ele>280</ele>
        <time>2017-07-08T06:33:16Z</time>
      </trkpt>
      <trkpt lat="44.80424" lon="1.69594">
        <ele>279</ele>
        <time>2017-07-08T06:33:36Z</time>
      </trkpt>
      <trkpt lat="44.80423" lon="1.69593">
        <ele>279</ele>
        <time>2017-07-08T06:33:59Z</time>
      </trkpt>
      <trkpt lat="44.80423" lon="1.69593">
        <ele>279</ele>
        <time>2017-07-08T06:34:01Z</time>
      </trkpt>
      <trkpt lat="44.80426" lon="1.6959">
        <ele>278</ele>
        <time>2017-07-08T06:34:29Z</time>
      </trkpt>
      <trkpt lat="44.80427" lon="1.6959">
        <ele>278</ele>
        <time>2017-07-08T06:34:31Z</time>
      </trkpt>
      <trkpt lat="44.80426" lon="1.69587">
        <ele>278</ele>
        <time>2017-07-08T06:34:59Z</time>
      </trkpt>
      <trkpt lat="44.80425" lon="1.69587">
        <ele>278</ele>
        <time>2017-07-08T06:35:01Z</time>
      </trkpt>
      <trkpt lat="44.80422" lon="1.69587">
        <ele>278</ele>
        <time>2017-07-08T06:35:29Z</time>
      </trkpt>
      <trkpt lat="44.80422" lon="1.69587">
        <ele>278</ele>
        <time>2017-07-08T06:35:31Z</time>
      </trkpt>
      <trkpt lat="44.80423" lon="1.69587">
        <ele>278</ele>
        <time>2017-07-08T06:36:00Z</time>
      </trkpt>
      <trkpt lat="44.80423" lon="1.69587">
        <ele>278</ele>
        <time>2017-07-08T06:36:01Z</time>
      </trkpt>
      <trkpt lat="44.80422" lon="1.69587">
        <ele>279</ele>
        <time>2017-07-08T06:36:30Z</time>
      </trkpt>
      <trkpt lat="44.80422" lon="1.69587">
        <ele>279</ele>
        <time>2017-07-08T06:36:31Z</time>
      </trkpt>
      <trkpt lat="44.80426" lon="1.69585">
        <ele>279</ele>
        <time>2017-07-08T06:37:00Z</time>
      </trkpt>
      <trkpt lat="44.80426" lon="1.69585">
        <ele>279</ele>
        <time>2017-07-08T06:37:01Z</time>
      </trkpt>
      <trkpt lat="44.80423" lon="1.69584">
        <ele>280</ele>
        <time>2017-07-08T06:37:30Z</time>
      </trkpt>
      <trkpt lat="44.80423" lon="1.69584">
        <ele>280</ele>
        <time>2017-07-08T06:37:31Z</time>
      </trkpt>
      <trkpt lat="44.80424" lon="1.69585">
        <ele>280</ele>
        <time>2017-07-08T06:38:00Z</time>
      </trkpt>
      <trkpt lat="44.80424" lon="1.69585">
        <ele>280</ele>
        <time>2017-07-08T06:38:01Z</time>
      </trkpt>
      <trkpt lat="44.80426" lon="1.69586">
        <ele>280</ele>
        <time>2017-07-08T06:38:30Z</time>
      </trkpt>
      <trkpt lat="44.80426" lon="1.69586">
        <ele>280</ele>
        <time>2017-07-08T06:38:31Z</time>
      </trkpt>
      <trkpt lat="44.80427" lon="1.69586">
        <ele>280</ele>
        <time>2017-07-08T06:39:00Z</time>
      </trkpt>
      <trkpt lat="44.80426" lon="1.69586">
        <ele>280</ele>
        <time>2017-07-08T06:39:01Z</time>
      </trkpt>
      <trkpt lat="44.80422" lon="1.69586">
        <ele>281</ele>
        <time>2017-07-08T06:39:28Z</time>
      </trkpt>
      <trkpt lat="44.8042" lon="1.69586">
        <ele>281</ele>
        <time>2017-07-08T06:39:45Z</time>
      </trkpt>
      <trkpt lat="44.8042" lon="1.69586">
        <ele>281</ele>
        <time>2017-07-08T06:39:46Z</time>
      </trkpt>
      <trkpt lat="44.8042" lon="1.69587">
        <ele>281</ele>
        <time>2017-07-08T06:40:15Z</time>
      </trkpt>
      <trkpt lat="44.8042" lon="1.69587">
        <ele>281</ele>
        <time>2017-07-08T06:40:16Z</time>
      </trkpt>
      <trkpt lat="44.80422" lon="1.69587">
        <ele>281</ele>
        <time>2017-07-08T06:40:45Z</time>
      </trkpt>
      <trkpt lat="44.80422" lon="1.69587">
        <ele>281</ele>
        <time>2017-07-08T06:40:46Z</time>
      </trkpt>
      <trkpt lat="44.80424" lon="1.69585">
        <ele>281</ele>
        <time>2017-07-08T06:41:15Z</time>
      </trkpt>
      <trkpt lat="44.80424" lon="1.69585">
        <ele>281</ele>
        <time>2017-07-08T06:41:16Z</time>
      </trkpt>
      <trkpt lat="44.80424" lon="1.69586">
        <ele>281</ele>
        <time>2017-07-08T06:41:45Z</time>
      </trkpt>
      <trkpt lat="44.80424" lon="1.69586">
        <ele>281</ele>
        <time>2017-07-08T06:41:46Z</time>
      </trkpt>
      <trkpt lat="44.80423" lon="1.69584">
        <ele>281</ele>
        <time>2017-07-08T06:42:15Z</time>
      </trkpt>
      <trkpt lat="44.80423" lon="1.69585">
        <ele>281</ele>
        <time>2017-07-08T06:42:16Z</time>
      </trkpt>
      <trkpt lat="44.80423" lon="1.69585">
        <ele>281</ele>
        <time>2017-07-08T06:42:44Z</time>
      </trkpt>
      <trkpt lat="44.80423" lon="1.69585">
        <ele>281</ele>
        <time>2017-07-08T06:42:45Z</time>
      </trkpt>
      <trkpt lat="44.8042" lon="1.69588">
        <ele>281</ele>
        <time>2017-07-08T06:43:14Z</time>
      </trkpt>
      <trkpt lat="44.8042" lon="1.69588">
        <ele>281</ele>
        <time>2017-07-08T06:43:15Z</time>
      </trkpt>
      <trkpt lat="44.80422" lon="1.69587">
        <ele>281</ele>
        <time>2017-07-08T06:43:44Z</time>
      </trkpt>
      <trkpt lat="44.80422" lon="1.69586">
        <ele>280</ele>
        <time>2017-07-08T06:43:45Z</time>
      </trkpt>
      <trkpt lat="44.80428" lon="1.69587">
        <ele>280</ele>
        <time>2017-07-08T06:43:53Z</time>
      </trkpt>
      <trkpt lat="44.80433" lon="1.69587">
        <ele>280</ele>
        <time>2017-07-08T06:43:57Z</time>
      </trkpt>
      <trkpt lat="44.80437" lon="1.6959">
        <ele>279</ele>
        <time>2017-07-08T06:44:03Z</time>
      </trkpt>
      <trkpt lat="44.80443" lon="1.69587">
        <ele>279</ele>
        <time>2017-07-08T06:44:08Z</time>
      </trkpt>
      <trkpt lat="44.80447" lon="1.69584">
        <ele>278</ele>
        <time>2017-07-08T06:44:14Z</time>
      </trkpt>
      <trkpt lat="44.80451" lon="1.69581">
        <ele>278</ele>
        <time>2017-07-08T06:44:21Z</time>
      </trkpt>
      <trkpt lat="44.80456" lon="1.69577">
        <ele>278</ele>
        <time>2017-07-08T06:44:29Z</time>
      </trkpt>
      <trkpt lat="44.80454" lon="1.69583">
        <ele>278</ele>
        <time>2017-07-08T06:44:43Z</time>
      </trkpt>
      <trkpt lat="44.80457" lon="1.69582">
        <ele>278</ele>
        <time>2017-07-08T06:44:59Z</time>
      </trkpt>
      <trkpt lat="44.80458" lon="1.69581">
        <ele>278</ele>
        <time>2017-07-08T06:45:00Z</time>
      </trkpt>
      <trkpt lat="44.80461" lon="1.69577">
        <ele>278</ele>
        <time>2017-07-08T06:45:04Z</time>
      </trkpt>
      <trkpt lat="44.80466" lon="1.69575">
        <ele>278</ele>
        <time>2017-07-08T06:45:10Z</time>
      </trkpt>
      <trkpt lat="44.8047" lon="1.69578">
        <ele>278</ele>
        <time>2017-07-08T06:45:14Z</time>
      </trkpt>
      <trkpt lat="44.80472" lon="1.69585">
        <ele>278</ele>
        <time>2017-07-08T06:45:18Z</time>
      </trkpt>
      <trkpt lat="44.80473" lon="1.69593">
        <ele>278</ele>
        <time>2017-07-08T06:45:23Z</time>
      </trkpt>
      <trkpt lat="44.80473" lon="1.696">
        <ele>278</ele>
        <time>2017-07-08T06:45:28Z</time>
      </trkpt>
      <trkpt lat="44.80473" lon="1.69606">
        <ele>278</ele>
        <time>2017-07-08T06:45:32Z</time>
      </trkpt>
      <trkpt lat="44.80476" lon="1.69613">
        <ele>278</ele>
        <time>2017-07-08T06:45:37Z</time>
      </trkpt>
      <trkpt lat="44.80477" lon="1.69619">
        <ele>278</ele>
        <time>2017-07-08T06:45:40Z</time>
      </trkpt>
      <trkpt lat="44.80478" lon="1.69627">
        <ele>278</ele>
        <time>2017-07-08T06:45:44Z</time>
      </trkpt>
      <trkpt lat="44.80479" lon="1.69634">
        <ele>278</ele>
        <time>2017-07-08T06:45:48Z</time>
      </trkpt>
      <trkpt lat="44.8048" lon="1.69641">
        <ele>278</ele>
        <time>2017-07-08T06:45:53Z</time>
      </trkpt>
      <trkpt lat="44.8048" lon="1.69649">
        <ele>278</ele>
        <time>2017-07-08T06:45:59Z</time>
      </trkpt>
      <trkpt lat="44.8048" lon="1.69656">
        <ele>278</ele>
        <time>2017-07-08T06:46:04Z</time>
      </trkpt>
      <trkpt lat="44.80482" lon="1.69662">
        <ele>278</ele>
        <time>2017-07-08T06:46:09Z</time>
      </trkpt>
      <trkpt lat="44.80483" lon="1.69668">
        <ele>278</ele>
        <time>2017-07-08T06:46:14Z</time>
      </trkpt>
      <trkpt lat="44.80484" lon="1.69675">
        <ele>278</ele>
        <time>2017-07-08T06:46:20Z</time>
      </trkpt>
      <trkpt lat="44.80487" lon="1.69682">
        <ele>278</ele>
        <time>2017-07-08T06:46:27Z</time>
      </trkpt>
      <trkpt lat="44.80489" lon="1.69688">
        <ele>278</ele>
        <time>2017-07-08T06:46:36Z</time>
      </trkpt>
      <trkpt lat="44.80492" lon="1.69696">
        <ele>279</ele>
        <time>2017-07-08T06:46:39Z</time>
      </trkpt>
      <trkpt lat="44.80494" lon="1.69703">
        <ele>279</ele>
        <time>2017-07-08T06:46:44Z</time>
      </trkpt>
      <trkpt lat="44.80496" lon="1.69709">
        <ele>279</ele>
        <time>2017-07-08T06:46:49Z</time>
      </trkpt>
      <trkpt lat="44.80497" lon="1.69716">
        <ele>280</ele>
        <time>2017-07-08T06:46:55Z</time>
      </trkpt>
      <trkpt lat="44.80499" lon="1.69722">
        <ele>280</ele>
        <time>2017-07-08T06:47:01Z</time>
      </trkpt>
      <trkpt lat="44.80502" lon="1.69728">
        <ele>281</ele>
        <time>2017-07-08T06:47:06Z</time>
      </trkpt>
      <trkpt lat="44.80504" lon="1.69734">
        <ele>281</ele>
        <time>2017-07-08T06:47:12Z</time>
      </trkpt>
      <trkpt lat="44.80506" lon="1.69741">
        <ele>281</ele>
        <time>2017-07-08T06:47:18Z</time>
      </trkpt>
      <trkpt lat="44.80508" lon="1.69747">
        <ele>281</ele>
        <time>2017-07-08T06:47:24Z</time>
      </trkpt>
      <trkpt lat="44.8051" lon="1.69755">
        <ele>281</ele>
        <time>2017-07-08T06:47:28Z</time>
      </trkpt>
      <trkpt lat="44.80511" lon="1.69763">
        <ele>281</ele>
        <time>2017-07-08T06:47:32Z</time>
      </trkpt>
      <trkpt lat="44.80511" lon="1.6977">
        <ele>280</ele>
        <time>2017-07-08T06:47:36Z</time>
      </trkpt>
      <trkpt lat="44.80509" lon="1.69777">
        <ele>280</ele>
        <time>2017-07-08T06:47:40Z</time>
      </trkpt>
      <trkpt lat="44.80508" lon="1.69784">
        <ele>280</ele>
        <time>2017-07-08T06:47:45Z</time>
      </trkpt>
      <trkpt lat="44.8051" lon="1.6979">
        <ele>280</ele>
        <time>2017-07-08T06:47:50Z</time>
      </trkpt>
      <trkpt lat="44.8051" lon="1.69798">
        <ele>280</ele>
        <time>2017-07-08T06:47:56Z</time>
      </trkpt>
      <trkpt lat="44.80508" lon="1.69804">
        <ele>279</ele>
        <time>2017-07-08T06:48:04Z</time>
      </trkpt>
      <trkpt lat="44.80508" lon="1.69812">
        <ele>279</ele>
        <time>2017-07-08T06:48:09Z</time>
      </trkpt>
      <trkpt lat="44.80506" lon="1.69819">
        <ele>279</ele>
        <time>2017-07-08T06:48:15Z</time>
      </trkpt>
      <trkpt lat="44.80505" lon="1.69826">
        <ele>279</ele>
        <time>2017-07-08T06:48:20Z</time>
      </trkpt>
      <trkpt lat="44.80504" lon="1.69833">
        <ele>280</ele>
        <time>2017-07-08T06:48:25Z</time>
      </trkpt>
      <trkpt lat="44.80503" lon="1.69839">
        <ele>280</ele>
        <time>2017-07-08T06:48:30Z</time>
      </trkpt>
      <trkpt lat="44.80503" lon="1.69846">
        <ele>280</ele>
        <time>2017-07-08T06:48:35Z</time>
      </trkpt>
      <trkpt lat="44.80504" lon="1.69853">
        <ele>280</ele>
        <time>2017-07-08T06:48:39Z</time>
      </trkpt>
      <trkpt lat="44.80505" lon="1.69858">
        <ele>281</ele>
        <time>2017-07-08T06:48:44Z</time>
      </trkpt>
      <trkpt lat="44.80507" lon="1.69865">
        <ele>282</ele>
        <time>2017-07-08T06:48:49Z</time>
      </trkpt>
      <trkpt lat="44.80508" lon="1.69872">
        <ele>282</ele>
        <time>2017-07-08T06:48:53Z</time>
      </trkpt>
      <trkpt lat="44.80508" lon="1.69879">
        <ele>283</ele>
        <time>2017-07-08T06:48:58Z</time>
      </trkpt>
      <trkpt lat="44.80511" lon="1.69884">
        <ele>283</ele>
        <time>2017-07-08T06:49:02Z</time>
      </trkpt>
      <trkpt lat="44.80514" lon="1.69889">
        <ele>284</ele>
        <time>2017-07-08T06:49:07Z</time>
      </trkpt>
      <trkpt lat="44.80516" lon="1.69895">
        <ele>284</ele>
        <time>2017-07-08T06:49:11Z</time>
      </trkpt>
      <trkpt lat="44.80518" lon="1.69902">
        <ele>285</ele>
        <time>2017-07-08T06:49:16Z</time>
      </trkpt>
      <trkpt lat="44.80517" lon="1.69909">
        <ele>285</ele>
        <time>2017-07-08T06:49:20Z</time>
      </trkpt>
      <trkpt lat="44.80519" lon="1.69915">
        <ele>285</ele>
        <time>2017-07-08T06:49:25Z</time>
      </trkpt>
      <trkpt lat="44.80523" lon="1.6992">
        <ele>286</ele>
        <time>2017-07-08T06:49:30Z</time>
      </trkpt>
      <trkpt lat="44.80528" lon="1.69923">
        <ele>286</ele>
        <time>2017-07-08T06:49:35Z</time>
      </trkpt>
      <trkpt lat="44.80533" lon="1.69924">
        <ele>286</ele>
        <time>2017-07-08T06:49:41Z</time>
      </trkpt>
      <trkpt lat="44.80538" lon="1.69924">
        <ele>286</ele>
        <time>2017-07-08T06:49:47Z</time>
      </trkpt>
      <trkpt lat="44.80544" lon="1.69922">
        <ele>287</ele>
        <time>2017-07-08T06:49:56Z</time>
      </trkpt>
      <trkpt lat="44.80549" lon="1.69918">
        <ele>287</ele>
        <time>2017-07-08T06:50:00Z</time>
      </trkpt>
      <trkpt lat="44.80552" lon="1.69915">
        <ele>288</ele>
        <time>2017-07-08T06:50:04Z</time>
      </trkpt>
      <trkpt lat="44.80557" lon="1.69913">
        <ele>288</ele>
        <time>2017-07-08T06:50:08Z</time>
      </trkpt>
      <trkpt lat="44.8056" lon="1.69909">
        <ele>289</ele>
        <time>2017-07-08T06:50:13Z</time>
      </trkpt>
      <trkpt lat="44.80563" lon="1.69904">
        <ele>289</ele>
        <time>2017-07-08T06:50:18Z</time>
      </trkpt>
      <trkpt lat="44.80568" lon="1.69901">
        <ele>289</ele>
        <time>2017-07-08T06:50:23Z</time>
      </trkpt>
      <trkpt lat="44.80572" lon="1.69898">
        <ele>290</ele>
        <time>2017-07-08T06:50:27Z</time>
      </trkpt>
      <trkpt lat="44.80577" lon="1.69896">
        <ele>290</ele>
        <time>2017-07-08T06:50:33Z</time>
      </trkpt>
      <trkpt lat="44.80581" lon="1.69892">
        <ele>290</ele>
        <time>2017-07-08T06:50:38Z</time>
      </trkpt>
      <trkpt lat="44.80585" lon="1.69889">
        <ele>290</ele>
        <time>2017-07-08T06:50:43Z</time>
      </trkpt>
      <trkpt lat="44.8059" lon="1.69885">
        <ele>290</ele>
        <time>2017-07-08T06:50:48Z</time>
      </trkpt>
      <trkpt lat="44.80594" lon="1.6988">
        <ele>290</ele>
        <time>2017-07-08T06:50:52Z</time>
      </trkpt>
      <trkpt lat="44.80598" lon="1.69875">
        <ele>291</ele>
        <time>2017-07-08T06:50:57Z</time>
      </trkpt>
      <trkpt lat="44.80602" lon="1.69871">
        <ele>291</ele>
        <time>2017-07-08T06:51:03Z</time>
      </trkpt>
      <trkpt lat="44.80606" lon="1.69867">
        <ele>291</ele>
        <time>2017-07-08T06:51:07Z</time>
      </trkpt>
      <trkpt lat="44.8061" lon="1.69865">
        <ele>290</ele>
        <time>2017-07-08T06:51:12Z</time>
      </trkpt>
      <trkpt lat="44.80615" lon="1.6986">
        <ele>290</ele>
        <time>2017-07-08T06:51:17Z</time>
      </trkpt>
      <trkpt lat="44.80619" lon="1.69855">
        <ele>290</ele>
        <time>2017-07-08T06:51:22Z</time>
      </trkpt>
      <trkpt lat="44.80623" lon="1.69852">
        <ele>289</ele>
        <time>2017-07-08T06:51:26Z</time>
      </trkpt>
      <trkpt lat="44.80627" lon="1.69847">
        <ele>289</ele>
        <time>2017-07-08T06:51:31Z</time>
      </trkpt>
      <trkpt lat="44.80631" lon="1.69843">
        <ele>289</ele>
        <time>2017-07-08T06:51:37Z</time>
      </trkpt>
      <trkpt lat="44.80635" lon="1.69839">
        <ele>289</ele>
        <time>2017-07-08T06:51:40Z</time>
      </trkpt>
      <trkpt lat="44.80639" lon="1.69833">
        <ele>288</ele>
        <time>2017-07-08T06:51:47Z</time>
      </trkpt>
      <trkpt lat="44.80642" lon="1.69828">
        <ele>288</ele>
        <time>2017-07-08T06:51:50Z</time>
      </trkpt>
      <trkpt lat="44.80645" lon="1.69823">
        <ele>288</ele>
        <time>2017-07-08T06:51:55Z</time>
      </trkpt>
      <trkpt lat="44.80649" lon="1.69818">
        <ele>288</ele>
        <time>2017-07-08T06:52:00Z</time>
      </trkpt>
      <trkpt lat="44.80652" lon="1.69813">
        <ele>288</ele>
        <time>2017-07-08T06:52:08Z</time>
      </trkpt>
      <trkpt lat="44.80651" lon="1.69805">
        <ele>287</ele>
        <time>2017-07-08T06:52:13Z</time>
      </trkpt>
      <trkpt lat="44.80653" lon="1.69799">
        <ele>287</ele>
        <time>2017-07-08T06:52:18Z</time>
      </trkpt>
      <trkpt lat="44.80656" lon="1.69792">
        <ele>286</ele>
        <time>2017-07-08T06:52:23Z</time>
      </trkpt>
      <trkpt lat="44.80656" lon="1.69785">
        <ele>286</ele>
        <time>2017-07-08T06:52:29Z</time>
      </trkpt>
      <trkpt lat="44.80658" lon="1.69778">
        <ele>285</ele>
        <time>2017-07-08T06:52:33Z</time>
      </trkpt>
      <trkpt lat="44.8066" lon="1.69771">
        <ele>285</ele>
        <time>2017-07-08T06:52:38Z</time>
      </trkpt>
      <trkpt lat="44.80661" lon="1.69763">
        <ele>285</ele>
        <time>2017-07-08T06:52:43Z</time>
      </trkpt>
      <trkpt lat="44.80662" lon="1.69756">
        <ele>285</ele>
        <time>2017-07-08T06:52:46Z</time>
      </trkpt>
      <trkpt lat="44.80663" lon="1.6975">
        <ele>285</ele>
        <time>2017-07-08T06:52:51Z</time>
      </trkpt>
      <trkpt lat="44.80664" lon="1.69743">
        <ele>285</ele>
        <time>2017-07-08T06:52:57Z</time>
      </trkpt>
      <trkpt lat="44.80666" lon="1.69736">
        <ele>285</ele>
        <time>2017-07-08T06:53:02Z</time>
      </trkpt>
      <trkpt lat="44.80668" lon="1.69728">
        <ele>285</ele>
        <time>2017-07-08T06:53:08Z</time>
      </trkpt>
      <trkpt lat="44.80671" lon="1.69723">
        <ele>285</ele>
        <time>2017-07-08T06:53:14Z</time>
      </trkpt>
      <trkpt lat="44.80675" lon="1.69718">
        <ele>285</ele>
        <time>2017-07-08T06:53:19Z</time>
      </trkpt>
      <trkpt lat="44.8068" lon="1.69715">
        <ele>285</ele>
        <time>2017-07-08T06:53:24Z</time>
      </trkpt>
      <trkpt lat="44.80683" lon="1.6971">
        <ele>285</ele>
        <time>2017-07-08T06:53:29Z</time>
      </trkpt>
      <trkpt lat="44.80687" lon="1.69707">
        <ele>285</ele>
        <time>2017-07-08T06:53:34Z</time>
      </trkpt>
      <trkpt lat="44.80692" lon="1.69705">
        <ele>285</ele>
        <time>2017-07-08T06:53:41Z</time>
      </trkpt>
      <trkpt lat="44.80696" lon="1.69704">
        <ele>285</ele>
        <time>2017-07-08T06:53:45Z</time>
      </trkpt>
      <trkpt lat="44.80701" lon="1.69702">
        <ele>286</ele>
        <time>2017-07-08T06:53:50Z</time>
      </trkpt>
      <trkpt lat="44.80705" lon="1.69704">
        <ele>286</ele>
        <time>2017-07-08T06:53:53Z</time>
      </trkpt>
      <trkpt lat="44.80711" lon="1.69707">
        <ele>286</ele>
        <time>2017-07-08T06:53:57Z</time>
      </trkpt>
      <trkpt lat="44.80716" lon="1.69709">
        <ele>286</ele>
        <time>2017-07-08T06:54:03Z</time>
      </trkpt>
      <trkpt lat="44.8072" lon="1.69711">
        <ele>287</ele>
        <time>2017-07-08T06:54:08Z</time>
      </trkpt>
      <trkpt lat="44.80725" lon="1.69714">
        <ele>287</ele>
        <time>2017-07-08T06:54:14Z</time>
      </trkpt>
      <trkpt lat="44.80728" lon="1.69718">
        <ele>287</ele>
        <time>2017-07-08T06:54:20Z</time>
      </trkpt>
      <trkpt lat="44.80733" lon="1.6972">
        <ele>287</ele>
        <time>2017-07-08T06:54:24Z</time>
      </trkpt>
      <trkpt lat="44.80738" lon="1.69723">
        <ele>287</ele>
        <time>2017-07-08T06:54:28Z</time>
      </trkpt>
      <trkpt lat="44.80742" lon="1.69727">
        <ele>287</ele>
        <time>2017-07-08T06:54:33Z</time>
      </trkpt>
      <trkpt lat="44.80746" lon="1.6973">
        <ele>287</ele>
        <time>2017-07-08T06:54:37Z</time>
      </trkpt>
      <trkpt lat="44.80751" lon="1.69733">
        <ele>287</ele>
        <time>2017-07-08T06:54:42Z</time>
      </trkpt>
      <trkpt lat="44.80755" lon="1.69737">
        <ele>288</ele>
        <time>2017-07-08T06:54:47Z</time>
      </trkpt>
      <trkpt lat="44.8076" lon="1.69741">
        <ele>288</ele>
        <time>2017-07-08T06:54:52Z</time>
      </trkpt>
      <trkpt lat="44.80764" lon="1.69744">
        <ele>289</ele>
        <time>2017-07-08T06:54:56Z</time>
      </trkpt>
      <trkpt lat="44.80768" lon="1.69749">
        <ele>289</ele>
        <time>2017-07-08T06:55:03Z</time>
      </trkpt>
      <trkpt lat="44.80772" lon="1.69753">
        <ele>289</ele>
        <time>2017-07-08T06:55:07Z</time>
      </trkpt>
      <trkpt lat="44.80776" lon="1.69757">
        <ele>290</ele>
        <time>2017-07-08T06:55:12Z</time>
      </trkpt>
      <trkpt lat="44.80779" lon="1.69762">
        <ele>290</ele>
        <time>2017-07-08T06:55:15Z</time>
      </trkpt>
      <trkpt lat="44.80782" lon="1.69768">
        <ele>290</ele>
        <time>2017-07-08T06:55:20Z</time>
      </trkpt>
      <trkpt lat="44.80787" lon="1.69772">
        <ele>290</ele>
        <time>2017-07-08T06:55:24Z</time>
      </trkpt>
      <trkpt lat="44.8079" lon="1.69775">
        <ele>290</ele>
        <time>2017-07-08T06:55:28Z</time>
      </trkpt>
      <trkpt lat="44.80795" lon="1.6978">
        <ele>290</ele>
        <time>2017-07-08T06:55:34Z</time>
      </trkpt>
      <trkpt lat="44.80798" lon="1.69785">
        <ele>291</ele>
        <time>2017-07-08T06:55:39Z</time>
      </trkpt>
      <trkpt lat="44.80803" lon="1.69789">
        <ele>291</ele>
        <time>2017-07-08T06:55:45Z</time>
      </trkpt>
      <trkpt lat="44.80807" lon="1.69794">
        <ele>292</ele>
        <time>2017-07-08T06:55:50Z</time>
      </trkpt>
      <trkpt lat="44.80811" lon="1.69799">
        <ele>292</ele>
        <time>2017-07-08T06:55:56Z</time>
      </trkpt>
      <trkpt lat="44.80815" lon="1.69803">
        <ele>293</ele>
        <time>2017-07-08T06:56:02Z</time>
      </trkpt>
      <trkpt lat="44.80819" lon="1.69808">
        <ele>294</ele>
        <time>2017-07-08T06:56:08Z</time>
      </trkpt>
      <trkpt lat="44.80822" lon="1.69813">
        <ele>294</ele>
        <time>2017-07-08T06:56:12Z</time>
      </trkpt>
      <trkpt lat="44.80825" lon="1.69819">
        <ele>295</ele>
        <time>2017-07-08T06:56:17Z</time>
      </trkpt>
      <trkpt lat="44.80829" lon="1.69824">
        <ele>295</ele>
        <time>2017-07-08T06:56:23Z</time>
      </trkpt>
      <trkpt lat="44.80834" lon="1.6983">
        <ele>295</ele>
        <time>2017-07-08T06:56:29Z</time>
      </trkpt>
      <trkpt lat="44.80838" lon="1.69834">
        <ele>295</ele>
        <time>2017-07-08T06:56:32Z</time>
      </trkpt>
      <trkpt lat="44.80843" lon="1.69838">
        <ele>296</ele>
        <time>2017-07-08T06:56:38Z</time>
      </trkpt>
      <trkpt lat="44.80846" lon="1.69843">
        <ele>296</ele>
        <time>2017-07-08T06:56:43Z</time>
      </trkpt>
      <trkpt lat="44.80851" lon="1.69846">
        <ele>296</ele>
        <time>2017-07-08T06:56:48Z</time>
      </trkpt>
      <trkpt lat="44.80856" lon="1.69847">
        <ele>296</ele>
        <time>2017-07-08T06:56:55Z</time>
      </trkpt>
      <trkpt lat="44.80861" lon="1.69852">
        <ele>297</ele>
        <time>2017-07-08T06:57:01Z</time>
      </trkpt>
      <trkpt lat="44.80864" lon="1.69857">
        <ele>297</ele>
        <time>2017-07-08T06:57:07Z</time>
      </trkpt>
      <trkpt lat="44.80868" lon="1.69863">
        <ele>297</ele>
        <time>2017-07-08T06:57:13Z</time>
      </trkpt>
      <trkpt lat="44.80872" lon="1.69867">
        <ele>297</ele>
        <time>2017-07-08T06:57:17Z</time>
      </trkpt>
      <trkpt lat="44.80876" lon="1.6987">
        <ele>298</ele>
        <time>2017-07-08T06:57:23Z</time>
      </trkpt>
      <trkpt lat="44.80879" lon="1.69875">
        <ele>298</ele>
        <time>2017-07-08T06:57:27Z</time>
      </trkpt>
      <trkpt lat="44.80883" lon="1.69881">
        <ele>299</ele>
        <time>2017-07-08T06:57:32Z</time>
      </trkpt>
      <trkpt lat="44.80887" lon="1.69885">
        <ele>299</ele>
        <time>2017-07-08T06:57:37Z</time>
      </trkpt>
      <trkpt lat="44.80891" lon="1.69888">
        <ele>299</ele>
        <time>2017-07-08T06:57:42Z</time>
      </trkpt>
      <trkpt lat="44.80895" lon="1.69893">
        <ele>300</ele>
        <time>2017-07-08T06:57:47Z</time>
      </trkpt>
      <trkpt lat="44.80899" lon="1.69898">
        <ele>300</ele>
        <time>2017-07-08T06:57:51Z</time>
      </trkpt>
      <trkpt lat="44.80903" lon="1.69903">
        <ele>300</ele>
        <time>2017-07-08T06:57:56Z</time>
      </trkpt>
      <trkpt lat="44.80907" lon="1.69907">
        <ele>299</ele>
        <time>2017-07-08T06:58:00Z</time>
      </trkpt>
      <trkpt lat="44.80912" lon="1.69911">
        <ele>299</ele>
        <time>2017-07-08T06:58:05Z</time>
      </trkpt>
      <trkpt lat="44.80915" lon="1.69916">
        <ele>299</ele>
        <time>2017-07-08T06:58:10Z</time>
      </trkpt>
      <trkpt lat="44.80918" lon="1.6992">
        <ele>300</ele>
        <time>2017-07-08T06:58:17Z</time>
      </trkpt>
      <trkpt lat="44.80922" lon="1.69925">
        <ele>300</ele>
        <time>2017-07-08T06:58:21Z</time>
      </trkpt>
      <trkpt lat="44.80924" lon="1.69932">
        <ele>300</ele>
        <time>2017-07-08T06:58:27Z</time>
      </trkpt>
      <trkpt lat="44.80924" lon="1.69935">
        <ele>300</ele>
        <time>2017-07-08T06:58:44Z</time>
      </trkpt>
      <trkpt lat="44.80924" lon="1.69935">
        <ele>301</ele>
        <time>2017-07-08T06:58:45Z</time>
      </trkpt>
      <trkpt lat="44.80926" lon="1.69941">
        <ele>301</ele>
        <time>2017-07-08T06:58:51Z</time>
      </trkpt>
      <trkpt lat="44.8093" lon="1.69947">
        <ele>301</ele>
        <time>2017-07-08T06:58:56Z</time>
      </trkpt>
      <trkpt lat="44.80932" lon="1.69953">
        <ele>300</ele>
        <time>2017-07-08T06:59:00Z</time>
      </trkpt>
      <trkpt lat="44.80933" lon="1.6996">
        <ele>300</ele>
        <time>2017-07-08T06:59:04Z</time>
      </trkpt>
      <trkpt lat="44.80936" lon="1.69967">
        <ele>300</ele>
        <time>2017-07-08T06:59:09Z</time>
      </trkpt>
      <trkpt lat="44.80937" lon="1.69974">
        <ele>300</ele>
        <time>2017-07-08T06:59:16Z</time>
      </trkpt>
      <trkpt lat="44.80937" lon="1.69981">
        <ele>300</ele>
        <time>2017-07-08T06:59:20Z</time>
      </trkpt>
      <trkpt lat="44.80939" lon="1.69987">
        <ele>301</ele>
        <time>2017-07-08T06:59:24Z</time>
      </trkpt>
      <trkpt lat="44.8094" lon="1.69995">
        <ele>301</ele>
        <time>2017-07-08T06:59:30Z</time>
      </trkpt>
      <trkpt lat="44.80942" lon="1.70001">
        <ele>301</ele>
        <time>2017-07-08T06:59:36Z</time>
      </trkpt>
      <trkpt lat="44.80944" lon="1.70009">
        <ele>301</ele>
        <time>2017-07-08T06:59:40Z</time>
      </trkpt>
      <trkpt lat="44.80947" lon="1.70016">
        <ele>301</ele>
        <time>2017-07-08T06:59:44Z</time>
      </trkpt>
      <trkpt lat="44.80949" lon="1.70022">
        <ele>301</ele>
        <time>2017-07-08T06:59:51Z</time>
      </trkpt>
      <trkpt lat="44.80952" lon="1.70027">
        <ele>301</ele>
        <time>2017-07-08T06:59:55Z</time>
      </trkpt>
      <trkpt lat="44.80956" lon="1.70032">
        <ele>300</ele>
        <time>2017-07-08T07:00:01Z</time>
      </trkpt>
      <trkpt lat="44.80962" lon="1.70035">
        <ele>300</ele>
        <time>2017-07-08T07:00:07Z</time>
      </trkpt>
      <trkpt lat="44.80965" lon="1.7004">
        <ele>300</ele>
        <time>2017-07-08T07:00:12Z</time>
      </trkpt>
      <trkpt lat="44.80968" lon="1.70045">
        <ele>300</ele>
        <time>2017-07-08T07:00:16Z</time>
      </trkpt>
      <trkpt lat="44.80972" lon="1.7005">
        <ele>300</ele>
        <time>2017-07-08T07:00:20Z</time>
      </trkpt>
      <trkpt lat="44.80975" lon="1.70054">
        <ele>299</ele>
        <time>2017-07-08T07:00:25Z</time>
      </trkpt>
      <trkpt lat="44.80978" lon="1.70061">
        <ele>299</ele>
        <time>2017-07-08T07:00:30Z</time>
      </trkpt>
      <trkpt lat="44.8098" lon="1.70066">
        <ele>298</ele>
        <time>2017-07-08T07:00:37Z</time>
      </trkpt>
      <trkpt lat="44.80985" lon="1.70069">
        <ele>298</ele>
        <time>2017-07-08T07:00:42Z</time>
      </trkpt>
      <trkpt lat="44.80989" lon="1.70073">
        <ele>297</ele>
        <time>2017-07-08T07:00:47Z</time>
      </trkpt>
      <trkpt lat="44.80992" lon="1.70078">
        <ele>297</ele>
        <time>2017-07-08T07:00:51Z</time>
      </trkpt>
      <trkpt lat="44.80994" lon="1.70084">
        <ele>297</ele>
        <time>2017-07-08T07:00:56Z</time>
      </trkpt>
      <trkpt lat="44.80997" lon="1.70091">
        <ele>296</ele>
        <time>2017-07-08T07:01:00Z</time>
      </trkpt>
      <trkpt lat="44.80999" lon="1.70097">
        <ele>296</ele>
        <time>2017-07-08T07:01:05Z</time>
      </trkpt>
      <trkpt lat="44.81002" lon="1.70103">
        <ele>296</ele>
        <time>2017-07-08T07:01:10Z</time>
      </trkpt>
      <trkpt lat="44.81003" lon="1.7011">
        <ele>296</ele>
        <time>2017-07-08T07:01:14Z</time>
      </trkpt>
      <trkpt lat="44.81005" lon="1.70117">
        <ele>296</ele>
        <time>2017-07-08T07:01:19Z</time>
      </trkpt>
      <trkpt lat="44.81008" lon="1.70123">
        <ele>296</ele>
        <time>2017-07-08T07:01:22Z</time>
      </trkpt>
      <trkpt lat="44.81012" lon="1.7013">
        <ele>296</ele>
        <time>2017-07-08T07:01:26Z</time>
      </trkpt>
      <trkpt lat="44.81012" lon="1.70137">
        <ele>295</ele>
        <time>2017-07-08T07:01:32Z</time>
      </trkpt>
      <trkpt lat="44.81012" lon="1.70145">
        <ele>295</ele>
        <time>2017-07-08T07:01:37Z</time>
      </trkpt>
      <trkpt lat="44.81012" lon="1.70151">
        <ele>294</ele>
        <time>2017-07-08T07:01:41Z</time>
      </trkpt>
      <trkpt lat="44.81012" lon="1.70158">
        <ele>294</ele>
        <time>2017-07-08T07:01:44Z</time>
      </trkpt>
      <trkpt lat="44.8101" lon="1.70166">
        <ele>294</ele>
        <time>2017-07-08T07:01:48Z</time>
      </trkpt>
      <trkpt lat="44.81009" lon="1.70172">
        <ele>294</ele>
        <time>2017-07-08T07:01:53Z</time>
      </trkpt>
      <trkpt lat="44.81007" lon="1.70179">
        <ele>293</ele>
        <time>2017-07-08T07:01:58Z</time>
      </trkpt>
      <trkpt lat="44.81006" lon="1.70186">
        <ele>293</ele>
        <time>2017-07-08T07:02:02Z</time>
      </trkpt>
      <trkpt lat="44.81005" lon="1.70192">
        <ele>293</ele>
        <time>2017-07-08T07:02:06Z</time>
      </trkpt>
      <trkpt lat="44.81001" lon="1.70195">
        <ele>293</ele>
        <time>2017-07-08T07:02:12Z</time>
      </trkpt>
      <trkpt lat="44.81001" lon="1.70198">
        <ele>293</ele>
        <time>2017-07-08T07:02:29Z</time>
      </trkpt>
      <trkpt lat="44.80999" lon="1.70201">
        <ele>293</ele>
        <time>2017-07-08T07:02:30Z</time>
      </trkpt>
      <trkpt lat="44.80998" lon="1.70207">
        <ele>292</ele>
        <time>2017-07-08T07:02:33Z</time>
      </trkpt>
      <trkpt lat="44.80997" lon="1.70214">
        <ele>292</ele>
        <time>2017-07-08T07:02:38Z</time>
      </trkpt>
      <trkpt lat="44.80996" lon="1.7022">
        <ele>292</ele>
        <time>2017-07-08T07:02:44Z</time>
      </trkpt>
      <trkpt lat="44.80994" lon="1.70228">
        <ele>292</ele>
        <time>2017-07-08T07:02:49Z</time>
      </trkpt>
      <trkpt lat="44.80993" lon="1.70235">
        <ele>292</ele>
        <time>2017-07-08T07:02:55Z</time>
      </trkpt>
      <trkpt lat="44.80991" lon="1.70241">
        <ele>292</ele>
        <time>2017-07-08T07:03:01Z</time>
      </trkpt>
      <trkpt lat="44.80991" lon="1.70248">
        <ele>293</ele>
        <time>2017-07-08T07:03:07Z</time>
      </trkpt>
      <trkpt lat="44.80991" lon="1.70256">
        <ele>294</ele>
        <time>2017-07-08T07:03:11Z</time>
      </trkpt>
      <trkpt lat="44.80991" lon="1.70263">
        <ele>295</ele>
        <time>2017-07-08T07:03:15Z</time>
      </trkpt>
      <trkpt lat="44.80991" lon="1.7027">
        <ele>295</ele>
        <time>2017-07-08T07:03:20Z</time>
      </trkpt>
      <trkpt lat="44.80991" lon="1.70277">
        <ele>296</ele>
        <time>2017-07-08T07:03:24Z</time>
      </trkpt>
      <trkpt lat="44.80991" lon="1.70284">
        <ele>297</ele>
        <time>2017-07-08T07:03:28Z</time>
      </trkpt>
      <trkpt lat="44.8099" lon="1.70292">
        <ele>297</ele>
        <time>2017-07-08T07:03:32Z</time>
      </trkpt>
      <trkpt lat="44.80988" lon="1.703">
        <ele>298</ele>
        <time>2017-07-08T07:03:35Z</time>
      </trkpt>
      <trkpt lat="44.80986" lon="1.70306">
        <ele>298</ele>
        <time>2017-07-08T07:03:39Z</time>
      </trkpt>
      <trkpt lat="44.80984" lon="1.70313">
        <ele>299</ele>
        <time>2017-07-08T07:03:43Z</time>
      </trkpt>
      <trkpt lat="44.80985" lon="1.7032">
        <ele>299</ele>
        <time>2017-07-08T07:03:47Z</time>
      </trkpt>
      <trkpt lat="44.80985" lon="1.70327">
        <ele>300</ele>
        <time>2017-07-08T07:03:53Z</time>
      </trkpt>
      <trkpt lat="44.80983" lon="1.70334">
        <ele>300</ele>
        <time>2017-07-08T07:03:57Z</time>
      </trkpt>
      <trkpt lat="44.80981" lon="1.70342">
        <ele>300</ele>
        <time>2017-07-08T07:04:02Z</time>
      </trkpt>
      <trkpt lat="44.8098" lon="1.70348">
        <ele>301</ele>
        <time>2017-07-08T07:04:06Z</time>
      </trkpt>
      <trkpt lat="44.8098" lon="1.70355">
        <ele>301</ele>
        <time>2017-07-08T07:04:11Z</time>
      </trkpt>
      <trkpt lat="44.80981" lon="1.70363">
        <ele>301</ele>
        <time>2017-07-08T07:04:16Z</time>
      </trkpt>
      <trkpt lat="44.80982" lon="1.7037">
        <ele>302</ele>
        <time>2017-07-08T07:04:20Z</time>
      </trkpt>
      <trkpt lat="44.80981" lon="1.70377">
        <ele>302</ele>
        <time>2017-07-08T07:04:24Z</time>
      </trkpt>
      <trkpt lat="44.80981" lon="1.70383">
        <ele>303</ele>
        <time>2017-07-08T07:04:28Z</time>
      </trkpt>
      <trkpt lat="44.80983" lon="1.7039">
        <ele>304</ele>
        <time>2017-07-08T07:04:32Z</time>
      </trkpt>
      <trkpt lat="44.80986" lon="1.70396">
        <ele>304</ele>
        <time>2017-07-08T07:04:36Z</time>
      </trkpt>
      <trkpt lat="44.80989" lon="1.70403">
        <ele>305</ele>
        <time>2017-07-08T07:04:40Z</time>
      </trkpt>
      <trkpt lat="44.80992" lon="1.70409">
        <ele>305</ele>
        <time>2017-07-08T07:04:44Z</time>
      </trkpt>
      <trkpt lat="44.80994" lon="1.70417">
        <ele>306</ele>
        <time>2017-07-08T07:04:48Z</time>
      </trkpt>
      <trkpt lat="44.80995" lon="1.70424">
        <ele>306</ele>
        <time>2017-07-08T07:04:52Z</time>
      </trkpt>
      <trkpt lat="44.80996" lon="1.7043">
        <ele>307</ele>
        <time>2017-07-08T07:04:59Z</time>
      </trkpt>
      <trkpt lat="44.80997" lon="1.70437">
        <ele>307</ele>
        <time>2017-07-08T07:05:04Z</time>
      </trkpt>
      <trkpt lat="44.80998" lon="1.70444">
        <ele>308</ele>
        <time>2017-07-08T07:05:08Z</time>
      </trkpt>
      <trkpt lat="44.80998" lon="1.70451">
        <ele>309</ele>
        <time>2017-07-08T07:05:12Z</time>
      </trkpt>
      <trkpt lat="44.80997" lon="1.70457">
        <ele>309</ele>
        <time>2017-07-08T07:05:18Z</time>
      </trkpt>
      <trkpt lat="44.80995" lon="1.70464">
        <ele>310</ele>
        <time>2017-07-08T07:05:23Z</time>
      </trkpt>
      <trkpt lat="44.80994" lon="1.70472">
        <ele>310</ele>
        <time>2017-07-08T07:05:28Z</time>
      </trkpt>
      <trkpt lat="44.80993" lon="1.70479">
        <ele>311</ele>
        <time>2017-07-08T07:05:33Z</time>
      </trkpt>
      <trkpt lat="44.80992" lon="1.70485">
        <ele>311</ele>
        <time>2017-07-08T07:05:37Z</time>
      </trkpt>
      <trkpt lat="44.8099" lon="1.70492">
        <ele>311</ele>
        <time>2017-07-08T07:05:42Z</time>
      </trkpt>
      <trkpt lat="44.80987" lon="1.70498">
        <ele>312</ele>
        <time>2017-07-08T07:05:47Z</time>
      </trkpt>
      <trkpt lat="44.80986" lon="1.70505">
        <ele>312</ele>
        <time>2017-07-08T07:05:53Z</time>
      </trkpt>
      <trkpt lat="44.80983" lon="1.70509">
        <ele>312</ele>
        <time>2017-07-08T07:05:58Z</time>
      </trkpt>
      <trkpt lat="44.80979" lon="1.70515">
        <ele>312</ele>
        <time>2017-07-08T07:06:05Z</time>
      </trkpt>
      <trkpt lat="44.80976" lon="1.70521">
        <ele>312</ele>
        <time>2017-07-08T07:06:09Z</time>
      </trkpt>
      <trkpt lat="44.80972" lon="1.70526">
        <ele>313</ele>
        <time>2017-07-08T07:06:13Z</time>
      </trkpt>
      <trkpt lat="44.8097" lon="1.70532">
        <ele>313</ele>
        <time>2017-07-08T07:06:19Z</time>
      </trkpt>
      <trkpt lat="44.80967" lon="1.70539">
        <ele>313</ele>
        <time>2017-07-08T07:06:23Z</time>
      </trkpt>
      <trkpt lat="44.80963" lon="1.70545">
        <ele>313</ele>
        <time>2017-07-08T07:06:27Z</time>
      </trkpt>
      <trkpt lat="44.8096" lon="1.7055">
        <ele>313</ele>
        <time>2017-07-08T07:06:33Z</time>
      </trkpt>
      <trkpt lat="44.80958" lon="1.70556">
        <ele>314</ele>
        <time>2017-07-08T07:06:38Z</time>
      </trkpt>
      <trkpt lat="44.80955" lon="1.70562">
        <ele>314</ele>
        <time>2017-07-08T07:06:44Z</time>
      </trkpt>
      <trkpt lat="44.80953" lon="1.70569">
        <ele>313</ele>
        <time>2017-07-08T07:06:50Z</time>
      </trkpt>
      <trkpt lat="44.80951" lon="1.70575">
        <ele>313</ele>
        <time>2017-07-08T07:06:54Z</time>
      </trkpt>
      <trkpt lat="44.8095" lon="1.70583">
        <ele>313</ele>
        <time>2017-07-08T07:06:59Z</time>
      </trkpt>
      <trkpt lat="44.80948" lon="1.7059">
        <ele>313</ele>
        <time>2017-07-08T07:07:05Z</time>
      </trkpt>
      <trkpt lat="44.80946" lon="1.70596">
        <ele>313</ele>
        <time>2017-07-08T07:07:10Z</time>
      </trkpt>
      <trkpt lat="44.80945" lon="1.70603">
        <ele>312</ele>
        <time>2017-07-08T07:07:15Z</time>
      </trkpt>
      <trkpt lat="44.80944" lon="1.7061">
        <ele>312</ele>
        <time>2017-07-08T07:07:21Z</time>
      </trkpt>
      <trkpt lat="44.80942" lon="1.70616">
        <ele>312</ele>
        <time>2017-07-08T07:07:26Z</time>
      </trkpt>
      <trkpt lat="44.8094" lon="1.70622">
        <ele>312</ele>
        <time>2017-07-08T07:07:32Z</time>
      </trkpt>
      <trkpt lat="44.8094" lon="1.70629">
        <ele>313</ele>
        <time>2017-07-08T07:07:38Z</time>
      </trkpt>
      <trkpt lat="44.8094" lon="1.70635">
        <ele>313</ele>
        <time>2017-07-08T07:07:46Z</time>
      </trkpt>
      <trkpt lat="44.80939" lon="1.70643">
        <ele>314</ele>
        <time>2017-07-08T07:07:49Z</time>
      </trkpt>
      <trkpt lat="44.8094" lon="1.7065">
        <ele>314</ele>
        <time>2017-07-08T07:07:56Z</time>
      </trkpt>
      <trkpt lat="44.80943" lon="1.70656">
        <ele>315</ele>
        <time>2017-07-08T07:08:02Z</time>
      </trkpt>
      <trkpt lat="44.80946" lon="1.70661">
        <ele>315</ele>
        <time>2017-07-08T07:08:08Z</time>
      </trkpt>
      <trkpt lat="44.80948" lon="1.70666">
        <ele>315</ele>
        <time>2017-07-08T07:08:14Z</time>
      </trkpt>
      <trkpt lat="44.80951" lon="1.70672">
        <ele>315</ele>
        <time>2017-07-08T07:08:21Z</time>
      </trkpt>
      <trkpt lat="44.80956" lon="1.70674">
        <ele>315</ele>
        <time>2017-07-08T07:08:25Z</time>
      </trkpt>
      <trkpt lat="44.8096" lon="1.70676">
        <ele>315</ele>
        <time>2017-07-08T07:08:30Z</time>
      </trkpt>
      <trkpt lat="44.80965" lon="1.70677">
        <ele>315</ele>
        <time>2017-07-08T07:08:35Z</time>
      </trkpt>
      <trkpt lat="44.8097" lon="1.70677">
        <ele>315</ele>
        <time>2017-07-08T07:08:42Z</time>
      </trkpt>
      <trkpt lat="44.80975" lon="1.70679">
        <ele>315</ele>
        <time>2017-07-08T07:08:47Z</time>
      </trkpt>
      <trkpt lat="44.8098" lon="1.70679">
        <ele>316</ele>
        <time>2017-07-08T07:08:52Z</time>
      </trkpt>
      <trkpt lat="44.80985" lon="1.70679">
        <ele>316</ele>
        <time>2017-07-08T07:09:03Z</time>
      </trkpt>
      <trkpt lat="44.80989" lon="1.70679">
        <ele>316</ele>
        <time>2017-07-08T07:09:07Z</time>
      </trkpt>
      <trkpt lat="44.80994" lon="1.70678">
        <ele>317</ele>
        <time>2017-07-08T07:09:13Z</time>
      </trkpt>
      <trkpt lat="44.80999" lon="1.70679">
        <ele>317</ele>
        <time>2017-07-08T07:09:18Z</time>
      </trkpt>
      <trkpt lat="44.81003" lon="1.70681">
        <ele>318</ele>
        <time>2017-07-08T07:09:25Z</time>
      </trkpt>
      <trkpt lat="44.81008" lon="1.70681">
        <ele>319</ele>
        <time>2017-07-08T07:09:30Z</time>
      </trkpt>
      <trkpt lat="44.81014" lon="1.70682">
        <ele>319</ele>
        <time>2017-07-08T07:09:35Z</time>
      </trkpt>
      <trkpt lat="44.81017" lon="1.70687">
        <ele>320</ele>
        <time>2017-07-08T07:09:42Z</time>
      </trkpt>
      <trkpt lat="44.81021" lon="1.70691">
        <ele>321</ele>
        <time>2017-07-08T07:09:47Z</time>
      </trkpt>
      <trkpt lat="44.81026" lon="1.70694">
        <ele>321</ele>
        <time>2017-07-08T07:09:51Z</time>
      </trkpt>
      <trkpt lat="44.8103" lon="1.70696">
        <ele>322</ele>
        <time>2017-07-08T07:09:56Z</time>
      </trkpt>
      <trkpt lat="44.81035" lon="1.70698">
        <ele>322</ele>
        <time>2017-07-08T07:10:02Z</time>
      </trkpt>
      <trkpt lat="44.81039" lon="1.70701">
        <ele>323</ele>
        <time>2017-07-08T07:10:07Z</time>
      </trkpt>
      <trkpt lat="44.81044" lon="1.70705">
        <ele>323</ele>
        <time>2017-07-08T07:10:11Z</time>
      </trkpt>
      <trkpt lat="44.81049" lon="1.70707">
        <ele>324</ele>
        <time>2017-07-08T07:10:16Z</time>
      </trkpt>
      <trkpt lat="44.81052" lon="1.70712">
        <ele>324</ele>
        <time>2017-07-08T07:10:23Z</time>
      </trkpt>
      <trkpt lat="44.81054" lon="1.70719">
        <ele>325</ele>
        <time>2017-07-08T07:10:30Z</time>
      </trkpt>
      <trkpt lat="44.81056" lon="1.70727">
        <ele>325</ele>
        <time>2017-07-08T07:10:34Z</time>
      </trkpt>
      <trkpt lat="44.81058" lon="1.70733">
        <ele>326</ele>
        <time>2017-07-08T07:10:39Z</time>
      </trkpt>
      <trkpt lat="44.81059" lon="1.7074">
        <ele>327</ele>
        <time>2017-07-08T07:10:44Z</time>
      </trkpt>
      <trkpt lat="44.8106" lon="1.70747">
        <ele>327</ele>
        <time>2017-07-08T07:10:49Z</time>
      </trkpt>
      <trkpt lat="44.81061" lon="1.70755">
        <ele>327</ele>
        <time>2017-07-08T07:10:54Z</time>
      </trkpt>
      <trkpt lat="44.81062" lon="1.70761">
        <ele>328</ele>
        <time>2017-07-08T07:10:58Z</time>
      </trkpt>
      <trkpt lat="44.81065" lon="1.70768">
        <ele>328</ele>
        <time>2017-07-08T07:11:03Z</time>
      </trkpt>
      <trkpt lat="44.81067" lon="1.70775">
        <ele>328</ele>
        <time>2017-07-08T07:11:09Z</time>
      </trkpt>
      <trkpt lat="44.81068" lon="1.70781">
        <ele>328</ele>
        <time>2017-07-08T07:11:13Z</time>
      </trkpt>
      <trkpt lat="44.8107" lon="1.70789">
        <ele>328</ele>
        <time>2017-07-08T07:11:18Z</time>
      </trkpt>
      <trkpt lat="44.81071" lon="1.70795">
        <ele>328</ele>
        <time>2017-07-08T07:11:25Z</time>
      </trkpt>
      <trkpt lat="44.81073" lon="1.70802">
        <ele>328</ele>
        <time>2017-07-08T07:11:30Z</time>
      </trkpt>
      <trkpt lat="44.81073" lon="1.70808">
        <ele>329</ele>
        <time>2017-07-08T07:11:34Z</time>
      </trkpt>
      <trkpt lat="44.81073" lon="1.70815">
        <ele>329</ele>
        <time>2017-07-08T07:11:40Z</time>
      </trkpt>
      <trkpt lat="44.81073" lon="1.70823">
        <ele>329</ele>
        <time>2017-07-08T07:11:45Z</time>
      </trkpt>
      <trkpt lat="44.81075" lon="1.7083">
        <ele>329</ele>
        <time>2017-07-08T07:11:51Z</time>
      </trkpt>
      <trkpt lat="44.81076" lon="1.70836">
        <ele>329</ele>
        <time>2017-07-08T07:11:55Z</time>
      </trkpt>
      <trkpt lat="44.81079" lon="1.70844">
        <ele>329</ele>
        <time>2017-07-08T07:12:01Z</time>
      </trkpt>
      <trkpt lat="44.81081" lon="1.7085">
        <ele>330</ele>
        <time>2017-07-08T07:12:04Z</time>
      </trkpt>
      <trkpt lat="44.81085" lon="1.70855">
        <ele>330</ele>
        <time>2017-07-08T07:12:08Z</time>
      </trkpt>
      <trkpt lat="44.81088" lon="1.70861">
        <ele>330</ele>
        <time>2017-07-08T07:12:12Z</time>
      </trkpt>
      <trkpt lat="44.81091" lon="1.70866">
        <ele>331</ele>
        <time>2017-07-08T07:12:17Z</time>
      </trkpt>
      <trkpt lat="44.81094" lon="1.7087">
        <ele>331</ele>
        <time>2017-07-08T07:12:21Z</time>
      </trkpt>
      <trkpt lat="44.81099" lon="1.70875">
        <ele>331</ele>
        <time>2017-07-08T07:12:26Z</time>
      </trkpt>
      <trkpt lat="44.81102" lon="1.70879">
        <ele>332</ele>
        <time>2017-07-08T07:12:30Z</time>
      </trkpt>
      <trkpt lat="44.81106" lon="1.70884">
        <ele>332</ele>
        <time>2017-07-08T07:12:35Z</time>
      </trkpt>
      <trkpt lat="44.81107" lon="1.7089">
        <ele>333</ele>
        <time>2017-07-08T07:12:39Z</time>
      </trkpt>
      <trkpt lat="44.8111" lon="1.70896">
        <ele>333</ele>
        <time>2017-07-08T07:12:47Z</time>
      </trkpt>
      <trkpt lat="44.81113" lon="1.70899">
        <ele>334</ele>
        <time>2017-07-08T07:12:54Z</time>
      </trkpt>
      <trkpt lat="44.81118" lon="1.70903">
        <ele>334</ele>
        <time>2017-07-08T07:12:59Z</time>
      </trkpt>
      <trkpt lat="44.81122" lon="1.70905">
        <ele>334</ele>
        <time>2017-07-08T07:13:03Z</time>
      </trkpt>
      <trkpt lat="44.81126" lon="1.70908">
        <ele>335</ele>
        <time>2017-07-08T07:13:07Z</time>
      </trkpt>
      <trkpt lat="44.81131" lon="1.70908">
        <ele>335</ele>
        <time>2017-07-08T07:13:11Z</time>
      </trkpt>
      <trkpt lat="44.81136" lon="1.7091">
        <ele>334</ele>
        <time>2017-07-08T07:13:20Z</time>
      </trkpt>
      <trkpt lat="44.81141" lon="1.7091">
        <ele>334</ele>
        <time>2017-07-08T07:13:25Z</time>
      </trkpt>
      <trkpt lat="44.81146" lon="1.70912">
        <ele>334</ele>
        <time>2017-07-08T07:13:29Z</time>
      </trkpt>
      <trkpt lat="44.81152" lon="1.70916">
        <ele>334</ele>
        <time>2017-07-08T07:13:33Z</time>
      </trkpt>
      <trkpt lat="44.81156" lon="1.70918">
        <ele>334</ele>
        <time>2017-07-08T07:13:38Z</time>
      </trkpt>
      <trkpt lat="44.81162" lon="1.70919">
        <ele>334</ele>
        <time>2017-07-08T07:13:45Z</time>
      </trkpt>
      <trkpt lat="44.81167" lon="1.7092">
        <ele>334</ele>
        <time>2017-07-08T07:13:49Z</time>
      </trkpt>
      <trkpt lat="44.81173" lon="1.7092">
        <ele>334</ele>
        <time>2017-07-08T07:13:53Z</time>
      </trkpt>
      <trkpt lat="44.81177" lon="1.7092">
        <ele>334</ele>
        <time>2017-07-08T07:13:56Z</time>
      </trkpt>
      <trkpt lat="44.81182" lon="1.7092">
        <ele>335</ele>
        <time>2017-07-08T07:14:03Z</time>
      </trkpt>
      <trkpt lat="44.81186" lon="1.7092">
        <ele>335</ele>
        <time>2017-07-08T07:14:08Z</time>
      </trkpt>
      <trkpt lat="44.81192" lon="1.70921">
        <ele>335</ele>
        <time>2017-07-08T07:14:12Z</time>
      </trkpt>
      <trkpt lat="44.81197" lon="1.70921">
        <ele>336</ele>
        <time>2017-07-08T07:14:17Z</time>
      </trkpt>
      <trkpt lat="44.81202" lon="1.70924">
        <ele>336</ele>
        <time>2017-07-08T07:14:21Z</time>
      </trkpt>
      <trkpt lat="44.81206" lon="1.70926">
        <ele>336</ele>
        <time>2017-07-08T07:14:25Z</time>
      </trkpt>
      <trkpt lat="44.8121" lon="1.70926">
        <ele>336</ele>
        <time>2017-07-08T07:14:28Z</time>
      </trkpt>
      <trkpt lat="44.81216" lon="1.70925">
        <ele>337</ele>
        <time>2017-07-08T07:14:32Z</time>
      </trkpt>
      <trkpt lat="44.8122" lon="1.70923">
        <ele>337</ele>
        <time>2017-07-08T07:14:35Z</time>
      </trkpt>
      <trkpt lat="44.81226" lon="1.70923">
        <ele>337</ele>
        <time>2017-07-08T07:14:39Z</time>
      </trkpt>
      <trkpt lat="44.81231" lon="1.70923">
        <ele>336</ele>
        <time>2017-07-08T07:14:43Z</time>
      </trkpt>
      <trkpt lat="44.81236" lon="1.70924">
        <ele>336</ele>
        <time>2017-07-08T07:14:46Z</time>
      </trkpt>
      <trkpt lat="44.81241" lon="1.70923">
        <ele>336</ele>
        <time>2017-07-08T07:14:51Z</time>
      </trkpt>
      <trkpt lat="44.81246" lon="1.70922">
        <ele>336</ele>
        <time>2017-07-08T07:14:56Z</time>
      </trkpt>
      <trkpt lat="44.81251" lon="1.70921">
        <ele>336</ele>
        <time>2017-07-08T07:15:04Z</time>
      </trkpt>
      <trkpt lat="44.81257" lon="1.70919">
        <ele>335</ele>
        <time>2017-07-08T07:15:11Z</time>
      </trkpt>
      <trkpt lat="44.81261" lon="1.70918">
        <ele>335</ele>
        <time>2017-07-08T07:15:17Z</time>
      </trkpt>
      <trkpt lat="44.81265" lon="1.70916">
        <ele>335</ele>
        <time>2017-07-08T07:15:23Z</time>
      </trkpt>
      <trkpt lat="44.8127" lon="1.70915">
        <ele>335</ele>
        <time>2017-07-08T07:15:26Z</time>
      </trkpt>
      <trkpt lat="44.81275" lon="1.70915">
        <ele>335</ele>
        <time>2017-07-08T07:15:30Z</time>
      </trkpt>
      <trkpt lat="44.8128" lon="1.70915">
        <ele>335</ele>
        <time>2017-07-08T07:15:34Z</time>
      </trkpt>
      <trkpt lat="44.81285" lon="1.70915">
        <ele>335</ele>
        <time>2017-07-08T07:15:37Z</time>
      </trkpt>
      <trkpt lat="44.8129" lon="1.70914">
        <ele>335</ele>
        <time>2017-07-08T07:15:41Z</time>
      </trkpt>
      <trkpt lat="44.81294" lon="1.70912">
        <ele>335</ele>
        <time>2017-07-08T07:15:44Z</time>
      </trkpt>
      <trkpt lat="44.81299" lon="1.70909">
        <ele>335</ele>
        <time>2017-07-08T07:15:49Z</time>
      </trkpt>
      <trkpt lat="44.81303" lon="1.70906">
        <ele>335</ele>
        <time>2017-07-08T07:15:56Z</time>
      </trkpt>
      <trkpt lat="44.81307" lon="1.7091">
        <ele>335</ele>
        <time>2017-07-08T07:16:03Z</time>
      </trkpt>
      <trkpt lat="44.81311" lon="1.70907">
        <ele>335</ele>
        <time>2017-07-08T07:16:09Z</time>
      </trkpt>
      <trkpt lat="44.81315" lon="1.70902">
        <ele>335</ele>
        <time>2017-07-08T07:16:15Z</time>
      </trkpt>
      <trkpt lat="44.81321" lon="1.70898">
        <ele>335</ele>
        <time>2017-07-08T07:16:19Z</time>
      </trkpt>
      <trkpt lat="44.81326" lon="1.70895">
        <ele>336</ele>
        <time>2017-07-08T07:16:22Z</time>
      </trkpt>
      <trkpt lat="44.81331" lon="1.70895">
        <ele>337</ele>
        <time>2017-07-08T07:16:26Z</time>
      </trkpt>
      <trkpt lat="44.81335" lon="1.70893">
        <ele>337</ele>
        <time>2017-07-08T07:16:30Z</time>
      </trkpt>
      <trkpt lat="44.81341" lon="1.70894">
        <ele>338</ele>
        <time>2017-07-08T07:16:32Z</time>
      </trkpt>
      <trkpt lat="44.81346" lon="1.70894">
        <ele>339</ele>
        <time>2017-07-08T07:16:37Z</time>
      </trkpt>
      <trkpt lat="44.81352" lon="1.70897">
        <ele>339</ele>
        <time>2017-07-08T07:16:41Z</time>
      </trkpt>
      <trkpt lat="44.81357" lon="1.70896">
        <ele>340</ele>
        <time>2017-07-08T07:16:46Z</time>
      </trkpt>
      <trkpt lat="44.81362" lon="1.70898">
        <ele>340</ele>
        <time>2017-07-08T07:16:50Z</time>
      </trkpt>
      <trkpt lat="44.81366" lon="1.70899">
        <ele>340</ele>
        <time>2017-07-08T07:16:54Z</time>
      </trkpt>
      <trkpt lat="44.81371" lon="1.70899">
        <ele>341</ele>
        <time>2017-07-08T07:16:58Z</time>
      </trkpt>
      <trkpt lat="44.81376" lon="1.70898">
        <ele>341</ele>
        <time>2017-07-08T07:17:02Z</time>
      </trkpt>
      <trkpt lat="44.81381" lon="1.70901">
        <ele>341</ele>
        <time>2017-07-08T07:17:09Z</time>
      </trkpt>
      <trkpt lat="44.81385" lon="1.70902">
        <ele>342</ele>
        <time>2017-07-08T07:17:12Z</time>
      </trkpt>
      <trkpt lat="44.81392" lon="1.709">
        <ele>342</ele>
        <time>2017-07-08T07:17:15Z</time>
      </trkpt>
      <trkpt lat="44.81396" lon="1.70898">
        <ele>343</ele>
        <time>2017-07-08T07:17:21Z</time>
      </trkpt>
      <trkpt lat="44.81401" lon="1.709">
        <ele>343</ele>
        <time>2017-07-08T07:17:26Z</time>
      </trkpt>
      <trkpt lat="44.81405" lon="1.70899">
        <ele>344</ele>
        <time>2017-07-08T07:17:30Z</time>
      </trkpt>
      <trkpt lat="44.8141" lon="1.70902">
        <ele>344</ele>
        <time>2017-07-08T07:17:34Z</time>
      </trkpt>
      <trkpt lat="44.81415" lon="1.709">
        <ele>344</ele>
        <time>2017-07-08T07:17:38Z</time>
      </trkpt>
      <trkpt lat="44.8142" lon="1.70899">
        <ele>344</ele>
        <time>2017-07-08T07:17:44Z</time>
      </trkpt>
      <trkpt lat="44.81425" lon="1.70898">
        <ele>345</ele>
        <time>2017-07-08T07:17:49Z</time>
      </trkpt>
      <trkpt lat="44.8143" lon="1.70899">
        <ele>345</ele>
        <time>2017-07-08T07:17:52Z</time>
      </trkpt>
      <trkpt lat="44.81434" lon="1.70898">
        <ele>345</ele>
        <time>2017-07-08T07:17:58Z</time>
      </trkpt>
      <trkpt lat="44.81439" lon="1.70897">
        <ele>345</ele>
        <time>2017-07-08T07:18:02Z</time>
      </trkpt>
      <trkpt lat="44.81443" lon="1.70895">
        <ele>345</ele>
        <time>2017-07-08T07:18:09Z</time>
      </trkpt>
      <trkpt lat="44.81449" lon="1.70893">
        <ele>345</ele>
        <time>2017-07-08T07:18:12Z</time>
      </trkpt>
      <trkpt lat="44.81453" lon="1.70894">
        <ele>345</ele>
        <time>2017-07-08T07:18:16Z</time>
      </trkpt>
      <trkpt lat="44.81458" lon="1.70893">
        <ele>345</ele>
        <time>2017-07-08T07:18:21Z</time>
      </trkpt>
      <trkpt lat="44.81463" lon="1.70891">
        <ele>345</ele>
        <time>2017-07-08T07:18:26Z</time>
      </trkpt>
      <trkpt lat="44.81468" lon="1.70893">
        <ele>346</ele>
        <time>2017-07-08T07:18:31Z</time>
      </trkpt>
      <trkpt lat="44.81473" lon="1.70893">
        <ele>346</ele>
        <time>2017-07-08T07:18:36Z</time>
      </trkpt>
      <trkpt lat="44.81477" lon="1.70894">
        <ele>347</ele>
        <time>2017-07-08T07:18:40Z</time>
      </trkpt>
      <trkpt lat="44.81483" lon="1.70893">
        <ele>347</ele>
        <time>2017-07-08T07:18:46Z</time>
      </trkpt>
      <trkpt lat="44.81488" lon="1.70891">
        <ele>348</ele>
        <time>2017-07-08T07:18:50Z</time>
      </trkpt>
      <trkpt lat="44.81493" lon="1.70888">
        <ele>348</ele>
        <time>2017-07-08T07:18:59Z</time>
      </trkpt>
      <trkpt lat="44.81498" lon="1.70886">
        <ele>348</ele>
        <time>2017-07-08T07:19:02Z</time>
      </trkpt>
      <trkpt lat="44.81502" lon="1.70885">
        <ele>348</ele>
        <time>2017-07-08T07:19:05Z</time>
      </trkpt>
      <trkpt lat="44.81507" lon="1.70883">
        <ele>348</ele>
        <time>2017-07-08T07:19:09Z</time>
      </trkpt>
      <trkpt lat="44.81511" lon="1.70881">
        <ele>347</ele>
        <time>2017-07-08T07:19:25Z</time>
      </trkpt>
      <trkpt lat="44.81517" lon="1.7088">
        <ele>347</ele>
        <time>2017-07-08T07:19:28Z</time>
      </trkpt>
      <trkpt lat="44.81522" lon="1.70878">
        <ele>347</ele>
        <time>2017-07-08T07:19:32Z</time>
      </trkpt>
      <trkpt lat="44.81527" lon="1.70875">
        <ele>347</ele>
        <time>2017-07-08T07:19:38Z</time>
      </trkpt>
      <trkpt lat="44.81533" lon="1.70872">
        <ele>346</ele>
        <time>2017-07-08T07:19:42Z</time>
      </trkpt>
      <trkpt lat="44.81539" lon="1.70871">
        <ele>347</ele>
        <time>2017-07-08T07:19:45Z</time>
      </trkpt>
      <trkpt lat="44.81544" lon="1.70871">
        <ele>347</ele>
        <time>2017-07-08T07:19:48Z</time>
      </trkpt>
      <trkpt lat="44.81549" lon="1.7087">
        <ele>347</ele>
        <time>2017-07-08T07:19:51Z</time>
      </trkpt>
      <trkpt lat="44.81554" lon="1.7087">
        <ele>347</ele>
        <time>2017-07-08T07:19:54Z</time>
      </trkpt>
      <trkpt lat="44.81559" lon="1.70869">
        <ele>348</ele>
        <time>2017-07-08T07:19:58Z</time>
      </trkpt>
      <trkpt lat="44.81563" lon="1.70872">
        <ele>348</ele>
        <time>2017-07-08T07:20:02Z</time>
      </trkpt>
      <trkpt lat="44.81568" lon="1.70873">
        <ele>348</ele>
        <time>2017-07-08T07:20:08Z</time>
      </trkpt>
      <trkpt lat="44.81574" lon="1.70871">
        <ele>348</ele>
        <time>2017-07-08T07:20:22Z</time>
      </trkpt>
      <trkpt lat="44.81578" lon="1.70868">
        <ele>347</ele>
        <time>2017-07-08T07:20:25Z</time>
      </trkpt>
      <trkpt lat="44.81583" lon="1.70866">
        <ele>347</ele>
        <time>2017-07-08T07:20:31Z</time>
      </trkpt>
      <trkpt lat="44.81588" lon="1.70863">
        <ele>346</ele>
        <time>2017-07-08T07:20:38Z</time>
      </trkpt>
      <trkpt lat="44.81593" lon="1.7086">
        <ele>346</ele>
        <time>2017-07-08T07:20:52Z</time>
      </trkpt>
      <trkpt lat="44.81598" lon="1.70858">
        <ele>346</ele>
        <time>2017-07-08T07:20:58Z</time>
      </trkpt>
      <trkpt lat="44.81602" lon="1.70856">
        <ele>346</ele>
        <time>2017-07-08T07:21:01Z</time>
      </trkpt>
      <trkpt lat="44.81607" lon="1.70854">
        <ele>347</ele>
        <time>2017-07-08T07:21:09Z</time>
      </trkpt>
      <trkpt lat="44.81612" lon="1.70854">
        <ele>348</ele>
        <time>2017-07-08T07:21:13Z</time>
      </trkpt>
      <trkpt lat="44.81617" lon="1.70854">
        <ele>348</ele>
        <time>2017-07-08T07:21:20Z</time>
      </trkpt>
      <trkpt lat="44.81622" lon="1.70855">
        <ele>348</ele>
        <time>2017-07-08T07:21:23Z</time>
      </trkpt>
      <trkpt lat="44.81627" lon="1.70856">
        <ele>348</ele>
        <time>2017-07-08T07:21:25Z</time>
      </trkpt>
      <trkpt lat="44.81631" lon="1.70858">
        <ele>348</ele>
        <time>2017-07-08T07:21:44Z</time>
      </trkpt>
      <trkpt lat="44.81634" lon="1.70858">
        <ele>348</ele>
        <time>2017-07-08T07:21:46Z</time>
      </trkpt>
      <trkpt lat="44.81639" lon="1.70861">
        <ele>348</ele>
        <time>2017-07-08T07:21:49Z</time>
      </trkpt>
      <trkpt lat="44.81646" lon="1.7086">
        <ele>348</ele>
        <time>2017-07-08T07:21:53Z</time>
      </trkpt>
      <trkpt lat="44.81642" lon="1.7086">
        <ele>348</ele>
        <time>2017-07-08T07:22:14Z</time>
      </trkpt>
      <trkpt lat="44.81642" lon="1.7086">
        <ele>347</ele>
        <time>2017-07-08T07:22:16Z</time>
      </trkpt>
      <trkpt lat="44.8164" lon="1.70857">
        <ele>347</ele>
        <time>2017-07-08T07:22:44Z</time>
      </trkpt>
      <trkpt lat="44.8164" lon="1.70858">
        <ele>347</ele>
        <time>2017-07-08T07:22:46Z</time>
      </trkpt>
      <trkpt lat="44.81636" lon="1.70861">
        <ele>346</ele>
        <time>2017-07-08T07:23:14Z</time>
      </trkpt>
      <trkpt lat="44.81636" lon="1.70861">
        <ele>346</ele>
        <time>2017-07-08T07:23:16Z</time>
      </trkpt>
      <trkpt lat="44.81635" lon="1.70861">
        <ele>345</ele>
        <time>2017-07-08T07:23:44Z</time>
      </trkpt>
      <trkpt lat="44.81635" lon="1.70861">
        <ele>345</ele>
        <time>2017-07-08T07:23:46Z</time>
      </trkpt>
      <trkpt lat="44.81633" lon="1.70862">
        <ele>345</ele>
        <time>2017-07-08T07:24:14Z</time>
      </trkpt>
      <trkpt lat="44.81633" lon="1.70862">
        <ele>345</ele>
        <time>2017-07-08T07:24:16Z</time>
      </trkpt>
      <trkpt lat="44.81634" lon="1.70863">
        <ele>346</ele>
        <time>2017-07-08T07:24:44Z</time>
      </trkpt>
      <trkpt lat="44.81634" lon="1.70863">
        <ele>346</ele>
        <time>2017-07-08T07:24:46Z</time>
      </trkpt>
      <trkpt lat="44.81634" lon="1.70866">
        <ele>347</ele>
        <time>2017-07-08T07:25:14Z</time>
      </trkpt>
      <trkpt lat="44.81634" lon="1.70866">
        <ele>348</ele>
        <time>2017-07-08T07:25:16Z</time>
      </trkpt>
      <trkpt lat="44.81634" lon="1.70866">
        <ele>349</ele>
        <time>2017-07-08T07:25:44Z</time>
      </trkpt>
      <trkpt lat="44.81634" lon="1.70866">
        <ele>349</ele>
        <time>2017-07-08T07:25:46Z</time>
      </trkpt>
      <trkpt lat="44.81634" lon="1.70866">
        <ele>349</ele>
        <time>2017-07-08T07:26:14Z</time>
      </trkpt>
      <trkpt lat="44.81634" lon="1.70866">
        <ele>349</ele>
        <time>2017-07-08T07:26:16Z</time>
      </trkpt>
      <trkpt lat="44.81634" lon="1.70866">
        <ele>349</ele>
        <time>2017-07-08T07:26:44Z</time>
      </trkpt>
      <trkpt lat="44.81634" lon="1.70866">
        <ele>349</ele>
        <time>2017-07-08T07:26:46Z</time>
      </trkpt>
      <trkpt lat="44.81634" lon="1.70866">
        <ele>349</ele>
        <time>2017-07-08T07:27:14Z</time>
      </trkpt>
      <trkpt lat="44.81634" lon="1.70866">
        <ele>348</ele>
        <time>2017-07-08T07:27:16Z</time>
      </trkpt>
      <trkpt lat="44.81634" lon="1.70866">
        <ele>347</ele>
        <time>2017-07-08T07:27:44Z</time>
      </trkpt>
      <trkpt lat="44.81634" lon="1.70866">
        <ele>347</ele>
        <time>2017-07-08T07:27:46Z</time>
      </trkpt>
      <trkpt lat="44.81629" lon="1.70868">
        <ele>347</ele>
        <time>2017-07-08T07:27:56Z</time>
      </trkpt>
      <trkpt lat="44.81626" lon="1.7087">
        <ele>347</ele>
        <time>2017-07-08T07:28:14Z</time>
      </trkpt>
      <trkpt lat="44.81624" lon="1.7087">
        <ele>346</ele>
        <time>2017-07-08T07:28:16Z</time>
      </trkpt>
      <trkpt lat="44.81619" lon="1.70872">
        <ele>346</ele>
        <time>2017-07-08T07:28:21Z</time>
      </trkpt>
      <trkpt lat="44.81614" lon="1.70874">
        <ele>346</ele>
        <time>2017-07-08T07:28:26Z</time>
      </trkpt>
      <trkpt lat="44.8161" lon="1.70877">
        <ele>345</ele>
        <time>2017-07-08T07:28:31Z</time>
      </trkpt>
      <trkpt lat="44.81605" lon="1.70879">
        <ele>345</ele>
        <time>2017-07-08T07:28:37Z</time>
      </trkpt>
      <trkpt lat="44.816" lon="1.70882">
        <ele>344</ele>
        <time>2017-07-08T07:28:42Z</time>
      </trkpt>
      <trkpt lat="44.81595" lon="1.70885">
        <ele>344</ele>
        <time>2017-07-08T07:28:45Z</time>
      </trkpt>
      <trkpt lat="44.81591" lon="1.70887">
        <ele>343</ele>
        <time>2017-07-08T07:28:49Z</time>
      </trkpt>
      <trkpt lat="44.81585" lon="1.70889">
        <ele>343</ele>
        <time>2017-07-08T07:28:55Z</time>
      </trkpt>
      <trkpt lat="44.81581" lon="1.70891">
        <ele>343</ele>
        <time>2017-07-08T07:28:59Z</time>
      </trkpt>
      <trkpt lat="44.81577" lon="1.70895">
        <ele>342</ele>
        <time>2017-07-08T07:29:05Z</time>
      </trkpt>
      <trkpt lat="44.81573" lon="1.70898">
        <ele>342</ele>
        <time>2017-07-08T07:29:09Z</time>
      </trkpt>
      <trkpt lat="44.81568" lon="1.70901">
        <ele>341</ele>
        <time>2017-07-08T07:29:15Z</time>
      </trkpt>
      <trkpt lat="44.81563" lon="1.70904">
        <ele>340</ele>
        <time>2017-07-08T07:29:21Z</time>
      </trkpt>
      <trkpt lat="44.81559" lon="1.70908">
        <ele>340</ele>
        <time>2017-07-08T07:29:27Z</time>
      </trkpt>
      <trkpt lat="44.81553" lon="1.70909">
        <ele>339</ele>
        <time>2017-07-08T07:29:32Z</time>
      </trkpt>
      <trkpt lat="44.81548" lon="1.70912">
        <ele>339</ele>
        <time>2017-07-08T07:29:37Z</time>
      </trkpt>
      <trkpt lat="44.81543" lon="1.70915">
        <ele>340</ele>
        <time>2017-07-08T07:29:41Z</time>
      </trkpt>
      <trkpt lat="44.8154" lon="1.70921">
        <ele>340</ele>
        <time>2017-07-08T07:29:44Z</time>
      </trkpt>
      <trkpt lat="44.81534" lon="1.70926">
        <ele>340</ele>
        <time>2017-07-08T07:29:50Z</time>
      </trkpt>
      <trkpt lat="44.81531" lon="1.70932">
        <ele>341</ele>
        <time>2017-07-08T07:29:56Z</time>
      </trkpt>
      <trkpt lat="44.81526" lon="1.70934">
        <ele>341</ele>
        <time>2017-07-08T07:30:05Z</time>
      </trkpt>
      <trkpt lat="44.81521" lon="1.70937">
        <ele>341</ele>
        <time>2017-07-08T07:30:09Z</time>
      </trkpt>
      <trkpt lat="44.81515" lon="1.70939">
        <ele>341</ele>
        <time>2017-07-08T07:30:15Z</time>
      </trkpt>
      <trkpt lat="44.81509" lon="1.70938">
        <ele>340</ele>
        <time>2017-07-08T07:30:19Z</time>
      </trkpt>
      <trkpt lat="44.81505" lon="1.7094">
        <ele>340</ele>
        <time>2017-07-08T07:30:23Z</time>
      </trkpt>
      <trkpt lat="44.81501" lon="1.70944">
        <ele>339</ele>
        <time>2017-07-08T07:30:31Z</time>
      </trkpt>
      <trkpt lat="44.81495" lon="1.70946">
        <ele>338</ele>
        <time>2017-07-08T07:30:51Z</time>
      </trkpt>
      <trkpt lat="44.81491" lon="1.70944">
        <ele>337</ele>
        <time>2017-07-08T07:30:55Z</time>
      </trkpt>
      <trkpt lat="44.81485" lon="1.70945">
        <ele>336</ele>
        <time>2017-07-08T07:30:58Z</time>
      </trkpt>
      <trkpt lat="44.8148" lon="1.70944">
        <ele>335</ele>
        <time>2017-07-08T07:31:00Z</time>
      </trkpt>
      <trkpt lat="44.81474" lon="1.70945">
        <ele>334</ele>
        <time>2017-07-08T07:31:03Z</time>
      </trkpt>
      <trkpt lat="44.81469" lon="1.70946">
        <ele>334</ele>
        <time>2017-07-08T07:31:06Z</time>
      </trkpt>
      <trkpt lat="44.81463" lon="1.70948">
        <ele>335</ele>
        <time>2017-07-08T07:31:10Z</time>
      </trkpt>
      <trkpt lat="44.81457" lon="1.70949">
        <ele>335</ele>
        <time>2017-07-08T07:31:13Z</time>
      </trkpt>
      <trkpt lat="44.81451" lon="1.70951">
        <ele>336</ele>
        <time>2017-07-08T07:31:18Z</time>
      </trkpt>
      <trkpt lat="44.81447" lon="1.70953">
        <ele>336</ele>
        <time>2017-07-08T07:31:21Z</time>
      </trkpt>
      <trkpt lat="44.81442" lon="1.70955">
        <ele>337</ele>
        <time>2017-07-08T07:31:24Z</time>
      </trkpt>
      <trkpt lat="44.81437" lon="1.70956">
        <ele>337</ele>
        <time>2017-07-08T07:31:28Z</time>
      </trkpt>
      <trkpt lat="44.81432" lon="1.70958">
        <ele>337</ele>
        <time>2017-07-08T07:31:31Z</time>
      </trkpt>
      <trkpt lat="44.81427" lon="1.70963">
        <ele>337</ele>
        <time>2017-07-08T07:31:34Z</time>
      </trkpt>
      <trkpt lat="44.81422" lon="1.70964">
        <ele>337</ele>
        <time>2017-07-08T07:31:39Z</time>
      </trkpt>
      <trkpt lat="44.81417" lon="1.70969">
        <ele>337</ele>
        <time>2017-07-08T07:31:43Z</time>
      </trkpt>
      <trkpt lat="44.81412" lon="1.70968">
        <ele>337</ele>
        <time>2017-07-08T07:31:47Z</time>
      </trkpt>
      <trkpt lat="44.81406" lon="1.7097">
        <ele>338</ele>
        <time>2017-07-08T07:31:51Z</time>
      </trkpt>
      <trkpt lat="44.814" lon="1.7097">
        <ele>338</ele>
        <time>2017-07-08T07:31:59Z</time>
      </trkpt>
      <trkpt lat="44.81396" lon="1.70969">
        <ele>338</ele>
        <time>2017-07-08T07:32:07Z</time>
      </trkpt>
      <trkpt lat="44.81391" lon="1.70972">
        <ele>339</ele>
        <time>2017-07-08T07:32:13Z</time>
      </trkpt>
      <trkpt lat="44.81386" lon="1.70977">
        <ele>340</ele>
        <time>2017-07-08T07:32:17Z</time>
      </trkpt>
      <trkpt lat="44.81381" lon="1.70979">
        <ele>342</ele>
        <time>2017-07-08T07:32:21Z</time>
      </trkpt>
      <trkpt lat="44.81376" lon="1.70981">
        <ele>343</ele>
        <time>2017-07-08T07:32:25Z</time>
      </trkpt>
      <trkpt lat="44.81372" lon="1.70984">
        <ele>344</ele>
        <time>2017-07-08T07:32:28Z</time>
      </trkpt>
      <trkpt lat="44.81367" lon="1.70988">
        <ele>344</ele>
        <time>2017-07-08T07:32:31Z</time>
      </trkpt>
      <trkpt lat="44.81362" lon="1.70989">
        <ele>345</ele>
        <time>2017-07-08T07:32:35Z</time>
      </trkpt>
      <trkpt lat="44.81358" lon="1.7099">
        <ele>345</ele>
        <time>2017-07-08T07:32:42Z</time>
      </trkpt>
      <trkpt lat="44.81353" lon="1.70991">
        <ele>346</ele>
        <time>2017-07-08T07:32:47Z</time>
      </trkpt>
      <trkpt lat="44.81348" lon="1.7099">
        <ele>346</ele>
        <time>2017-07-08T07:32:54Z</time>
      </trkpt>
      <trkpt lat="44.81343" lon="1.70992">
        <ele>347</ele>
        <time>2017-07-08T07:32:58Z</time>
      </trkpt>
      <trkpt lat="44.81338" lon="1.70995">
        <ele>348</ele>
        <time>2017-07-08T07:33:03Z</time>
      </trkpt>
      <trkpt lat="44.81333" lon="1.70997">
        <ele>349</ele>
        <time>2017-07-08T07:33:07Z</time>
      </trkpt>
      <trkpt lat="44.81328" lon="1.71001">
        <ele>349</ele>
        <time>2017-07-08T07:33:13Z</time>
      </trkpt>
      <trkpt lat="44.81322" lon="1.71002">
        <ele>350</ele>
        <time>2017-07-08T07:33:19Z</time>
      </trkpt>
      <trkpt lat="44.81318" lon="1.71">
        <ele>350</ele>
        <time>2017-07-08T07:33:35Z</time>
      </trkpt>
      <trkpt lat="44.81313" lon="1.70998">
        <ele>350</ele>
        <time>2017-07-08T07:33:40Z</time>
      </trkpt>
      <trkpt lat="44.81308" lon="1.70991">
        <ele>350</ele>
        <time>2017-07-08T07:33:42Z</time>
      </trkpt>
      <trkpt lat="44.81305" lon="1.70994">
        <ele>350</ele>
        <time>2017-07-08T07:33:59Z</time>
      </trkpt>
      <trkpt lat="44.81305" lon="1.70994">
        <ele>350</ele>
        <time>2017-07-08T07:34:01Z</time>
      </trkpt>
      <trkpt lat="44.81304" lon="1.70989">
        <ele>349</ele>
        <time>2017-07-08T07:34:29Z</time>
      </trkpt>
      <trkpt lat="44.813" lon="1.70983">
        <ele>348</ele>
        <time>2017-07-08T07:34:31Z</time>
      </trkpt>
      <trkpt lat="44.81299" lon="1.7099">
        <ele>346</ele>
        <time>2017-07-08T07:34:49Z</time>
      </trkpt>
      <trkpt lat="44.81298" lon="1.70997">
        <ele>343</ele>
        <time>2017-07-08T07:35:00Z</time>
      </trkpt>
      <trkpt lat="44.81298" lon="1.71004">
        <ele>339</ele>
        <time>2017-07-08T07:35:25Z</time>
      </trkpt>
      <trkpt lat="44.81294" lon="1.71009">
        <ele>336</ele>
        <time>2017-07-08T07:35:33Z</time>
      </trkpt>
      <trkpt lat="44.8129" lon="1.71014">
        <ele>334</ele>
        <time>2017-07-08T07:35:43Z</time>
      </trkpt>
      <trkpt lat="44.81286" lon="1.71017">
        <ele>332</ele>
        <time>2017-07-08T07:35:48Z</time>
      </trkpt>
      <trkpt lat="44.81282" lon="1.71021">
        <ele>332</ele>
        <time>2017-07-08T07:36:01Z</time>
      </trkpt>
      <trkpt lat="44.8128" lon="1.7102">
        <ele>332</ele>
        <time>2017-07-08T07:36:29Z</time>
      </trkpt>
      <trkpt lat="44.81279" lon="1.7102">
        <ele>332</ele>
        <time>2017-07-08T07:36:31Z</time>
      </trkpt>
      <trkpt lat="44.81274" lon="1.7102">
        <ele>332</ele>
        <time>2017-07-08T07:36:44Z</time>
      </trkpt>
      <trkpt lat="44.8127" lon="1.71024">
        <ele>332</ele>
        <time>2017-07-08T07:36:47Z</time>
      </trkpt>
      <trkpt lat="44.8127" lon="1.71032">
        <ele>332</ele>
        <time>2017-07-08T07:36:55Z</time>
      </trkpt>
      <trkpt lat="44.81271" lon="1.71039">
        <ele>332</ele>
        <time>2017-07-08T07:36:57Z</time>
      </trkpt>
      <trkpt lat="44.81271" lon="1.71045">
        <ele>332</ele>
        <time>2017-07-08T07:37:01Z</time>
      </trkpt>
      <trkpt lat="44.81269" lon="1.71052">
        <ele>332</ele>
        <time>2017-07-08T07:37:04Z</time>
      </trkpt>
      <trkpt lat="44.81265" lon="1.71056">
        <ele>332</ele>
        <time>2017-07-08T07:37:10Z</time>
      </trkpt>
      <trkpt lat="44.8126" lon="1.71058">
        <ele>332</ele>
        <time>2017-07-08T07:37:16Z</time>
      </trkpt>
      <trkpt lat="44.81255" lon="1.71062">
        <ele>332</ele>
        <time>2017-07-08T07:37:37Z</time>
      </trkpt>
      <trkpt lat="44.81252" lon="1.71068">
        <ele>333</ele>
        <time>2017-07-08T07:37:39Z</time>
      </trkpt>
      <trkpt lat="44.81247" lon="1.71073">
        <ele>333</ele>
        <time>2017-07-08T07:37:41Z</time>
      </trkpt>
      <trkpt lat="44.81242" lon="1.71075">
        <ele>332</ele>
        <time>2017-07-08T07:37:45Z</time>
      </trkpt>
      <trkpt lat="44.81238" lon="1.71077">
        <ele>332</ele>
        <time>2017-07-08T07:37:54Z</time>
      </trkpt>
      <trkpt lat="44.81235" lon="1.71082">
        <ele>331</ele>
        <time>2017-07-08T07:38:08Z</time>
      </trkpt>
      <trkpt lat="44.81231" lon="1.71088">
        <ele>331</ele>
        <time>2017-07-08T07:38:11Z</time>
      </trkpt>
      <trkpt lat="44.81226" lon="1.71088">
        <ele>330</ele>
        <time>2017-07-08T07:38:23Z</time>
      </trkpt>
      <trkpt lat="44.81221" lon="1.71092">
        <ele>330</ele>
        <time>2017-07-08T07:38:29Z</time>
      </trkpt>
      <trkpt lat="44.81217" lon="1.71095">
        <ele>330</ele>
        <time>2017-07-08T07:38:33Z</time>
      </trkpt>
      <trkpt lat="44.81213" lon="1.71101">
        <ele>330</ele>
        <time>2017-07-08T07:38:39Z</time>
      </trkpt>
      <trkpt lat="44.81208" lon="1.71103">
        <ele>331</ele>
        <time>2017-07-08T07:38:44Z</time>
      </trkpt>
      <trkpt lat="44.81204" lon="1.71103">
        <ele>331</ele>
        <time>2017-07-08T07:38:56Z</time>
      </trkpt>
      <trkpt lat="44.81203" lon="1.71103">
        <ele>331</ele>
        <time>2017-07-08T07:39:14Z</time>
      </trkpt>
      <trkpt lat="44.81203" lon="1.71103">
        <ele>331</ele>
        <time>2017-07-08T07:39:16Z</time>
      </trkpt>
      <trkpt lat="44.81199" lon="1.71099">
        <ele>331</ele>
        <time>2017-07-08T07:39:32Z</time>
      </trkpt>
      <trkpt lat="44.81195" lon="1.71097">
        <ele>331</ele>
        <time>2017-07-08T07:39:35Z</time>
      </trkpt>
      <trkpt lat="44.81191" lon="1.71094">
        <ele>331</ele>
        <time>2017-07-08T07:39:42Z</time>
      </trkpt>
      <trkpt lat="44.81189" lon="1.71093">
        <ele>331</ele>
        <time>2017-07-08T07:39:59Z</time>
      </trkpt>
      <trkpt lat="44.81189" lon="1.71093">
        <ele>332</ele>
        <time>2017-07-08T07:40:01Z</time>
      </trkpt>
      <trkpt lat="44.81183" lon="1.71092">
        <ele>332</ele>
        <time>2017-07-08T07:40:17Z</time>
      </trkpt>
      <trkpt lat="44.81179" lon="1.7109">
        <ele>332</ele>
        <time>2017-07-08T07:40:25Z</time>
      </trkpt>
      <trkpt lat="44.81173" lon="1.71086">
        <ele>333</ele>
        <time>2017-07-08T07:40:30Z</time>
      </trkpt>
      <trkpt lat="44.81168" lon="1.71084">
        <ele>333</ele>
        <time>2017-07-08T07:40:36Z</time>
      </trkpt>
      <trkpt lat="44.81163" lon="1.71084">
        <ele>334</ele>
        <time>2017-07-08T07:40:39Z</time>
      </trkpt>
      <trkpt lat="44.81158" lon="1.71081">
        <ele>334</ele>
        <time>2017-07-08T07:40:42Z</time>
      </trkpt>
      <trkpt lat="44.81154" lon="1.71077">
        <ele>334</ele>
        <time>2017-07-08T07:40:51Z</time>
      </trkpt>
      <trkpt lat="44.81149" lon="1.71074">
        <ele>334</ele>
        <time>2017-07-08T07:40:57Z</time>
      </trkpt>
      <trkpt lat="44.81144" lon="1.71071">
        <ele>333</ele>
        <time>2017-07-08T07:41:04Z</time>
      </trkpt>
      <trkpt lat="44.81139" lon="1.7107">
        <ele>333</ele>
        <time>2017-07-08T07:41:10Z</time>
      </trkpt>
      <trkpt lat="44.81136" lon="1.71065">
        <ele>332</ele>
        <time>2017-07-08T07:41:17Z</time>
      </trkpt>
      <trkpt lat="44.81131" lon="1.71061">
        <ele>332</ele>
        <time>2017-07-08T07:41:20Z</time>
      </trkpt>
      <trkpt lat="44.81126" lon="1.71059">
        <ele>332</ele>
        <time>2017-07-08T07:41:23Z</time>
      </trkpt>
      <trkpt lat="44.8112" lon="1.71058">
        <ele>332</ele>
        <time>2017-07-08T07:41:30Z</time>
      </trkpt>
      <trkpt lat="44.81114" lon="1.71057">
        <ele>331</ele>
        <time>2017-07-08T07:41:40Z</time>
      </trkpt>
      <trkpt lat="44.81109" lon="1.71058">
        <ele>331</ele>
        <time>2017-07-08T07:41:46Z</time>
      </trkpt>
      <trkpt lat="44.81103" lon="1.71055">
        <ele>331</ele>
        <time>2017-07-08T07:41:49Z</time>
      </trkpt>
      <trkpt lat="44.81097" lon="1.71053">
        <ele>330</ele>
        <time>2017-07-08T07:41:51Z</time>
      </trkpt>
      <trkpt lat="44.81091" lon="1.71051">
        <ele>330</ele>
        <time>2017-07-08T07:41:53Z</time>
      </trkpt>
      <trkpt lat="44.81087" lon="1.71048">
        <ele>330</ele>
        <time>2017-07-08T07:41:57Z</time>
      </trkpt>
      <trkpt lat="44.81082" lon="1.71046">
        <ele>330</ele>
        <time>2017-07-08T07:42:04Z</time>
      </trkpt>
      <trkpt lat="44.81077" lon="1.71043">
        <ele>329</ele>
        <time>2017-07-08T07:42:09Z</time>
      </trkpt>
      <trkpt lat="44.81072" lon="1.71042">
        <ele>329</ele>
        <time>2017-07-08T07:42:15Z</time>
      </trkpt>
      <trkpt lat="44.81067" lon="1.71041">
        <ele>329</ele>
        <time>2017-07-08T07:42:21Z</time>
      </trkpt>
      <trkpt lat="44.81063" lon="1.71044">
        <ele>329</ele>
        <time>2017-07-08T07:42:29Z</time>
      </trkpt>
      <trkpt lat="44.81058" lon="1.71044">
        <ele>329</ele>
        <time>2017-07-08T07:42:34Z</time>
      </trkpt>
      <trkpt lat="44.81054" lon="1.71048">
        <ele>329</ele>
        <time>2017-07-08T07:42:42Z</time>
      </trkpt>
      <trkpt lat="44.8105" lon="1.7105">
        <ele>329</ele>
        <time>2017-07-08T07:42:46Z</time>
      </trkpt>
      <trkpt lat="44.81045" lon="1.71052">
        <ele>328</ele>
        <time>2017-07-08T07:42:51Z</time>
      </trkpt>
      <trkpt lat="44.8104" lon="1.71055">
        <ele>328</ele>
        <time>2017-07-08T07:42:54Z</time>
      </trkpt>
      <trkpt lat="44.81036" lon="1.71058">
        <ele>328</ele>
        <time>2017-07-08T07:42:58Z</time>
      </trkpt>
      <trkpt lat="44.81032" lon="1.71062">
        <ele>328</ele>
        <time>2017-07-08T07:43:05Z</time>
      </trkpt>
      <trkpt lat="44.81027" lon="1.71064">
        <ele>328</ele>
        <time>2017-07-08T07:43:17Z</time>
      </trkpt>
      <trkpt lat="44.81024" lon="1.71068">
        <ele>328</ele>
        <time>2017-07-08T07:43:24Z</time>
      </trkpt>
      <trkpt lat="44.81018" lon="1.71071">
        <ele>328</ele>
        <time>2017-07-08T07:43:30Z</time>
      </trkpt>
      <trkpt lat="44.81013" lon="1.71072">
        <ele>328</ele>
        <time>2017-07-08T07:43:35Z</time>
      </trkpt>
      <trkpt lat="44.81008" lon="1.71074">
        <ele>328</ele>
        <time>2017-07-08T07:43:41Z</time>
      </trkpt>
      <trkpt lat="44.81004" lon="1.71076">
        <ele>329</ele>
        <time>2017-07-08T07:43:44Z</time>
      </trkpt>
      <trkpt lat="44.81" lon="1.71079">
        <ele>329</ele>
        <time>2017-07-08T07:43:47Z</time>
      </trkpt>
      <trkpt lat="44.80995" lon="1.7108">
        <ele>329</ele>
        <time>2017-07-08T07:43:53Z</time>
      </trkpt>
      <trkpt lat="44.8099" lon="1.71082">
        <ele>329</ele>
        <time>2017-07-08T07:43:59Z</time>
      </trkpt>
      <trkpt lat="44.80986" lon="1.71085">
        <ele>329</ele>
        <time>2017-07-08T07:44:10Z</time>
      </trkpt>
      <trkpt lat="44.80981" lon="1.71089">
        <ele>330</ele>
        <time>2017-07-08T07:44:19Z</time>
      </trkpt>
      <trkpt lat="44.80975" lon="1.7109">
        <ele>330</ele>
        <time>2017-07-08T07:44:22Z</time>
      </trkpt>
      <trkpt lat="44.80971" lon="1.7109">
        <ele>330</ele>
        <time>2017-07-08T07:44:32Z</time>
      </trkpt>
      <trkpt lat="44.80966" lon="1.71095">
        <ele>330</ele>
        <time>2017-07-08T07:44:51Z</time>
      </trkpt>
      <trkpt lat="44.80961" lon="1.711">
        <ele>330</ele>
        <time>2017-07-08T07:44:55Z</time>
      </trkpt>
      <trkpt lat="44.80957" lon="1.71103">
        <ele>330</ele>
        <time>2017-07-08T07:45:00Z</time>
      </trkpt>
      <trkpt lat="44.80953" lon="1.71106">
        <ele>330</ele>
        <time>2017-07-08T07:45:04Z</time>
      </trkpt>
      <trkpt lat="44.80949" lon="1.71112">
        <ele>330</ele>
        <time>2017-07-08T07:45:09Z</time>
      </trkpt>
      <trkpt lat="44.80945" lon="1.71114">
        <ele>330</ele>
        <time>2017-07-08T07:45:29Z</time>
      </trkpt>
      <trkpt lat="44.80945" lon="1.71114">
        <ele>331</ele>
        <time>2017-07-08T07:45:31Z</time>
      </trkpt>
      <trkpt lat="44.80942" lon="1.71118">
        <ele>331</ele>
        <time>2017-07-08T07:45:59Z</time>
      </trkpt>
      <trkpt lat="44.8094" lon="1.71119">
        <ele>331</ele>
        <time>2017-07-08T07:46:01Z</time>
      </trkpt>
      <trkpt lat="44.80936" lon="1.71122">
        <ele>331</ele>
        <time>2017-07-08T07:46:06Z</time>
      </trkpt>
      <trkpt lat="44.80933" lon="1.71126">
        <ele>331</ele>
        <time>2017-07-08T07:46:09Z</time>
      </trkpt>
      <trkpt lat="44.80929" lon="1.71131">
        <ele>332</ele>
        <time>2017-07-08T07:46:13Z</time>
      </trkpt>
      <trkpt lat="44.80925" lon="1.71136">
        <ele>332</ele>
        <time>2017-07-08T07:46:18Z</time>
      </trkpt>
      <trkpt lat="44.80922" lon="1.71141">
        <ele>332</ele>
        <time>2017-07-08T07:46:22Z</time>
      </trkpt>
      <trkpt lat="44.8092" lon="1.71147">
        <ele>333</ele>
        <time>2017-07-08T07:46:27Z</time>
      </trkpt>
      <trkpt lat="44.80916" lon="1.7115">
        <ele>333</ele>
        <time>2017-07-08T07:46:32Z</time>
      </trkpt>
      <trkpt lat="44.80911" lon="1.71151">
        <ele>333</ele>
        <time>2017-07-08T07:46:37Z</time>
      </trkpt>
      <trkpt lat="44.80906" lon="1.71151">
        <ele>334</ele>
        <time>2017-07-08T07:46:41Z</time>
      </trkpt>
      <trkpt lat="44.80902" lon="1.71155">
        <ele>334</ele>
        <time>2017-07-08T07:46:45Z</time>
      </trkpt>
      <trkpt lat="44.80898" lon="1.71157">
        <ele>334</ele>
        <time>2017-07-08T07:46:49Z</time>
      </trkpt>
      <trkpt lat="44.80893" lon="1.71157">
        <ele>334</ele>
        <time>2017-07-08T07:47:01Z</time>
      </trkpt>
      <trkpt lat="44.80888" lon="1.71161">
        <ele>335</ele>
        <time>2017-07-08T07:47:06Z</time>
      </trkpt>
      <trkpt lat="44.80884" lon="1.71166">
        <ele>335</ele>
        <time>2017-07-08T07:47:10Z</time>
      </trkpt>
      <trkpt lat="44.8088" lon="1.71168">
        <ele>336</ele>
        <time>2017-07-08T07:47:14Z</time>
      </trkpt>
      <trkpt lat="44.80875" lon="1.71171">
        <ele>336</ele>
        <time>2017-07-08T07:47:18Z</time>
      </trkpt>
      <trkpt lat="44.80872" lon="1.71175">
        <ele>336</ele>
        <time>2017-07-08T07:47:22Z</time>
      </trkpt>
      <trkpt lat="44.80867" lon="1.71179">
        <ele>336</ele>
        <time>2017-07-08T07:47:29Z</time>
      </trkpt>
      <trkpt lat="44.80862" lon="1.71177">
        <ele>336</ele>
        <time>2017-07-08T07:47:33Z</time>
      </trkpt>
      <trkpt lat="44.80857" lon="1.71173">
        <ele>336</ele>
        <time>2017-07-08T07:47:38Z</time>
      </trkpt>
      <trkpt lat="44.80852" lon="1.71171">
        <ele>336</ele>
        <time>2017-07-08T07:47:42Z</time>
      </trkpt>
      <trkpt lat="44.80848" lon="1.71164">
        <ele>336</ele>
        <time>2017-07-08T07:47:51Z</time>
      </trkpt>
      <trkpt lat="44.80845" lon="1.7116">
        <ele>335</ele>
        <time>2017-07-08T07:47:55Z</time>
      </trkpt>
      <trkpt lat="44.80839" lon="1.71157">
        <ele>335</ele>
        <time>2017-07-08T07:47:58Z</time>
      </trkpt>
      <trkpt lat="44.80835" lon="1.71154">
        <ele>335</ele>
        <time>2017-07-08T07:48:02Z</time>
      </trkpt>
      <trkpt lat="44.8083" lon="1.71153">
        <ele>334</ele>
        <time>2017-07-08T07:48:05Z</time>
      </trkpt>
      <trkpt lat="44.80825" lon="1.7115">
        <ele>334</ele>
        <time>2017-07-08T07:48:09Z</time>
      </trkpt>
      <trkpt lat="44.8082" lon="1.71148">
        <ele>333</ele>
        <time>2017-07-08T07:48:21Z</time>
      </trkpt>
      <trkpt lat="44.80814" lon="1.71146">
        <ele>333</ele>
        <time>2017-07-08T07:48:25Z</time>
      </trkpt>
      <trkpt lat="44.8081" lon="1.71145">
        <ele>333</ele>
        <time>2017-07-08T07:48:30Z</time>
      </trkpt>
      <trkpt lat="44.80805" lon="1.71142">
        <ele>332</ele>
        <time>2017-07-08T07:48:37Z</time>
      </trkpt>
      <trkpt lat="44.808" lon="1.71138">
        <ele>332</ele>
        <time>2017-07-08T07:48:42Z</time>
      </trkpt>
      <trkpt lat="44.80796" lon="1.71136">
        <ele>332</ele>
        <time>2017-07-08T07:48:46Z</time>
      </trkpt>
      <trkpt lat="44.80791" lon="1.71136">
        <ele>331</ele>
        <time>2017-07-08T07:48:51Z</time>
      </trkpt>
      <trkpt lat="44.80785" lon="1.71135">
        <ele>331</ele>
        <time>2017-07-08T07:48:57Z</time>
      </trkpt>
      <trkpt lat="44.80782" lon="1.71131">
        <ele>331</ele>
        <time>2017-07-08T07:49:02Z</time>
      </trkpt>
      <trkpt lat="44.80777" lon="1.7113">
        <ele>330</ele>
        <time>2017-07-08T07:49:08Z</time>
      </trkpt>
      <trkpt lat="44.80772" lon="1.71128">
        <ele>330</ele>
        <time>2017-07-08T07:49:17Z</time>
      </trkpt>
      <trkpt lat="44.80768" lon="1.71125">
        <ele>330</ele>
        <time>2017-07-08T07:49:22Z</time>
      </trkpt>
      <trkpt lat="44.80763" lon="1.71122">
        <ele>330</ele>
        <time>2017-07-08T07:49:29Z</time>
      </trkpt>
      <trkpt lat="44.80758" lon="1.7112">
        <ele>330</ele>
        <time>2017-07-08T07:49:33Z</time>
      </trkpt>
      <trkpt lat="44.80753" lon="1.71117">
        <ele>329</ele>
        <time>2017-07-08T07:49:44Z</time>
      </trkpt>
      <trkpt lat="44.80749" lon="1.71115">
        <ele>328</ele>
        <time>2017-07-08T07:49:52Z</time>
      </trkpt>
      <trkpt lat="44.80745" lon="1.71113">
        <ele>328</ele>
        <time>2017-07-08T07:49:58Z</time>
      </trkpt>
      <trkpt lat="44.80741" lon="1.71108">
        <ele>327</ele>
        <time>2017-07-08T07:50:11Z</time>
      </trkpt>
      <trkpt lat="44.80736" lon="1.71109">
        <ele>327</ele>
        <time>2017-07-08T07:50:22Z</time>
      </trkpt>
      <trkpt lat="44.80734" lon="1.71105">
        <ele>326</ele>
        <time>2017-07-08T07:50:44Z</time>
      </trkpt>
      <trkpt lat="44.80734" lon="1.71105">
        <ele>326</ele>
        <time>2017-07-08T07:50:46Z</time>
      </trkpt>
      <trkpt lat="44.80735" lon="1.71108">
        <ele>325</ele>
        <time>2017-07-08T07:51:14Z</time>
      </trkpt>
      <trkpt lat="44.80735" lon="1.71107">
        <ele>324</ele>
        <time>2017-07-08T07:51:16Z</time>
      </trkpt>
      <trkpt lat="44.80733" lon="1.71106">
        <ele>323</ele>
        <time>2017-07-08T07:51:44Z</time>
      </trkpt>
      <trkpt lat="44.80733" lon="1.71104">
        <ele>323</ele>
        <time>2017-07-08T07:51:46Z</time>
      </trkpt>
      <trkpt lat="44.80728" lon="1.71102">
        <ele>322</ele>
        <time>2017-07-08T07:52:12Z</time>
      </trkpt>
      <trkpt lat="44.80725" lon="1.71097">
        <ele>322</ele>
        <time>2017-07-08T07:52:21Z</time>
      </trkpt>
      <trkpt lat="44.80719" lon="1.71098">
        <ele>321</ele>
        <time>2017-07-08T07:52:24Z</time>
      </trkpt>
      <trkpt lat="44.8072" lon="1.71098">
        <ele>321</ele>
        <time>2017-07-08T07:52:44Z</time>
      </trkpt>
      <trkpt lat="44.80719" lon="1.71097">
        <ele>321</ele>
        <time>2017-07-08T07:52:46Z</time>
      </trkpt>
      <trkpt lat="44.80721" lon="1.71095">
        <ele>321</ele>
        <time>2017-07-08T07:53:15Z</time>
      </trkpt>
      <trkpt lat="44.8072" lon="1.71096">
        <ele>321</ele>
        <time>2017-07-08T07:53:16Z</time>
      </trkpt>
      <trkpt lat="44.80435" lon="1.7093">
        <ele>328</ele>
        <time>2017-07-08T08:11:00Z</time>
      </trkpt>
      <trkpt lat="44.80437" lon="1.70929">
        <ele>328</ele>
        <time>2017-07-08T08:11:02Z</time>
      </trkpt>
      <trkpt lat="44.80438" lon="1.70916">
        <ele>323</ele>
        <time>2017-07-08T08:34:01Z</time>
      </trkpt>
      <trkpt lat="44.80438" lon="1.70917">
        <ele>323</ele>
        <time>2017-07-08T08:34:02Z</time>
      </trkpt>
      <trkpt lat="44.80433" lon="1.70921">
        <ele>324</ele>
        <time>2017-07-08T08:34:10Z</time>
      </trkpt>
      <trkpt lat="44.80431" lon="1.70926">
        <ele>325</ele>
        <time>2017-07-08T08:34:15Z</time>
      </trkpt>
      <trkpt lat="44.80428" lon="1.70933">
        <ele>325</ele>
        <time>2017-07-08T08:34:21Z</time>
      </trkpt>
      <trkpt lat="44.80424" lon="1.70938">
        <ele>326</ele>
        <time>2017-07-08T08:34:25Z</time>
      </trkpt>
      <trkpt lat="44.8042" lon="1.70944">
        <ele>327</ele>
        <time>2017-07-08T08:34:28Z</time>
      </trkpt>
      <trkpt lat="44.80417" lon="1.70948">
        <ele>327</ele>
        <time>2017-07-08T08:34:33Z</time>
      </trkpt>
      <trkpt lat="44.80412" lon="1.70952">
        <ele>327</ele>
        <time>2017-07-08T08:34:39Z</time>
      </trkpt>
      <trkpt lat="44.80406" lon="1.70952">
        <ele>327</ele>
        <time>2017-07-08T08:34:44Z</time>
      </trkpt>
      <trkpt lat="44.80401" lon="1.70951">
        <ele>327</ele>
        <time>2017-07-08T08:34:48Z</time>
      </trkpt>
      <trkpt lat="44.80396" lon="1.7095">
        <ele>328</ele>
        <time>2017-07-08T08:34:53Z</time>
      </trkpt>
      <trkpt lat="44.80391" lon="1.70951">
        <ele>328</ele>
        <time>2017-07-08T08:34:57Z</time>
      </trkpt>
      <trkpt lat="44.80385" lon="1.70949">
        <ele>328</ele>
        <time>2017-07-08T08:35:04Z</time>
      </trkpt>
      <trkpt lat="44.80381" lon="1.70949">
        <ele>328</ele>
        <time>2017-07-08T08:35:07Z</time>
      </trkpt>
      <trkpt lat="44.80376" lon="1.70946">
        <ele>328</ele>
        <time>2017-07-08T08:35:11Z</time>
      </trkpt>
      <trkpt lat="44.80371" lon="1.70945">
        <ele>329</ele>
        <time>2017-07-08T08:35:16Z</time>
      </trkpt>
      <trkpt lat="44.80366" lon="1.70946">
        <ele>329</ele>
        <time>2017-07-08T08:35:20Z</time>
      </trkpt>
      <trkpt lat="44.80361" lon="1.70946">
        <ele>328</ele>
        <time>2017-07-08T08:35:24Z</time>
      </trkpt>
      <trkpt lat="44.80356" lon="1.70945">
        <ele>328</ele>
        <time>2017-07-08T08:35:28Z</time>
      </trkpt>
      <trkpt lat="44.80352" lon="1.70944">
        <ele>328</ele>
        <time>2017-07-08T08:35:33Z</time>
      </trkpt>
      <trkpt lat="44.80347" lon="1.70942">
        <ele>328</ele>
        <time>2017-07-08T08:35:38Z</time>
      </trkpt>
      <trkpt lat="44.80341" lon="1.70942">
        <ele>328</ele>
        <time>2017-07-08T08:35:43Z</time>
      </trkpt>
      <trkpt lat="44.80337" lon="1.70942">
        <ele>329</ele>
        <time>2017-07-08T08:35:47Z</time>
      </trkpt>
      <trkpt lat="44.80332" lon="1.70942">
        <ele>329</ele>
        <time>2017-07-08T08:35:52Z</time>
      </trkpt>
      <trkpt lat="44.80327" lon="1.70939">
        <ele>329</ele>
        <time>2017-07-08T08:35:58Z</time>
      </trkpt>
      <trkpt lat="44.80322" lon="1.70939">
        <ele>329</ele>
        <time>2017-07-08T08:36:02Z</time>
      </trkpt>
      <trkpt lat="44.80316" lon="1.70942">
        <ele>330</ele>
        <time>2017-07-08T08:36:07Z</time>
      </trkpt>
      <trkpt lat="44.80312" lon="1.70942">
        <ele>330</ele>
        <time>2017-07-08T08:36:11Z</time>
      </trkpt>
      <trkpt lat="44.80307" lon="1.70941">
        <ele>331</ele>
        <time>2017-07-08T08:36:16Z</time>
      </trkpt>
      <trkpt lat="44.80302" lon="1.70939">
        <ele>331</ele>
        <time>2017-07-08T08:36:21Z</time>
      </trkpt>
      <trkpt lat="44.80297" lon="1.70938">
        <ele>332</ele>
        <time>2017-07-08T08:36:25Z</time>
      </trkpt>
      <trkpt lat="44.80293" lon="1.70936">
        <ele>332</ele>
        <time>2017-07-08T08:36:30Z</time>
      </trkpt>
      <trkpt lat="44.80288" lon="1.70935">
        <ele>332</ele>
        <time>2017-07-08T08:36:35Z</time>
      </trkpt>
      <trkpt lat="44.80283" lon="1.70933">
        <ele>332</ele>
        <time>2017-07-08T08:36:40Z</time>
      </trkpt>
      <trkpt lat="44.80277" lon="1.70931">
        <ele>333</ele>
        <time>2017-07-08T08:36:44Z</time>
      </trkpt>
      <trkpt lat="44.80272" lon="1.70933">
        <ele>333</ele>
        <time>2017-07-08T08:36:48Z</time>
      </trkpt>
      <trkpt lat="44.80267" lon="1.70931">
        <ele>333</ele>
        <time>2017-07-08T08:36:54Z</time>
      </trkpt>
      <trkpt lat="44.80261" lon="1.70929">
        <ele>333</ele>
        <time>2017-07-08T08:37:02Z</time>
      </trkpt>
      <trkpt lat="44.80257" lon="1.70928">
        <ele>334</ele>
        <time>2017-07-08T08:37:05Z</time>
      </trkpt>
      <trkpt lat="44.80252" lon="1.70926">
        <ele>334</ele>
        <time>2017-07-08T08:37:10Z</time>
      </trkpt>
      <trkpt lat="44.80247" lon="1.70922">
        <ele>335</ele>
        <time>2017-07-08T08:37:14Z</time>
      </trkpt>
      <trkpt lat="44.80242" lon="1.70921">
        <ele>335</ele>
        <time>2017-07-08T08:37:18Z</time>
      </trkpt>
      <trkpt lat="44.80238" lon="1.70918">
        <ele>336</ele>
        <time>2017-07-08T08:37:23Z</time>
      </trkpt>
      <trkpt lat="44.80233" lon="1.70916">
        <ele>336</ele>
        <time>2017-07-08T08:37:29Z</time>
      </trkpt>
      <trkpt lat="44.80228" lon="1.70916">
        <ele>337</ele>
        <time>2017-07-08T08:37:37Z</time>
      </trkpt>
      <trkpt lat="44.80224" lon="1.70919">
        <ele>338</ele>
        <time>2017-07-08T08:37:40Z</time>
      </trkpt>
      <trkpt lat="44.80219" lon="1.70923">
        <ele>338</ele>
        <time>2017-07-08T08:37:48Z</time>
      </trkpt>
      <trkpt lat="44.80213" lon="1.70929">
        <ele>339</ele>
        <time>2017-07-08T08:37:52Z</time>
      </trkpt>
      <trkpt lat="44.80209" lon="1.70933">
        <ele>340</ele>
        <time>2017-07-08T08:37:56Z</time>
      </trkpt>
      <trkpt lat="44.80207" lon="1.70938">
        <ele>341</ele>
        <time>2017-07-08T08:38:01Z</time>
      </trkpt>
      <trkpt lat="44.80205" lon="1.70944">
        <ele>341</ele>
        <time>2017-07-08T08:38:06Z</time>
      </trkpt>
      <trkpt lat="44.80202" lon="1.70951">
        <ele>342</ele>
        <time>2017-07-08T08:38:11Z</time>
      </trkpt>
      <trkpt lat="44.80199" lon="1.70958">
        <ele>342</ele>
        <time>2017-07-08T08:38:17Z</time>
      </trkpt>
      <trkpt lat="44.80198" lon="1.70965">
        <ele>343</ele>
        <time>2017-07-08T08:38:23Z</time>
      </trkpt>
      <trkpt lat="44.80194" lon="1.7097">
        <ele>344</ele>
        <time>2017-07-08T08:38:29Z</time>
      </trkpt>
      <trkpt lat="44.8019" lon="1.70974">
        <ele>344</ele>
        <time>2017-07-08T08:38:33Z</time>
      </trkpt>
      <trkpt lat="44.80184" lon="1.70974">
        <ele>345</ele>
        <time>2017-07-08T08:38:39Z</time>
      </trkpt>
      <trkpt lat="44.8018" lon="1.70972">
        <ele>346</ele>
        <time>2017-07-08T08:38:51Z</time>
      </trkpt>
      <trkpt lat="44.80174" lon="1.70973">
        <ele>346</ele>
        <time>2017-07-08T08:39:00Z</time>
      </trkpt>
      <trkpt lat="44.8017" lon="1.70971">
        <ele>347</ele>
        <time>2017-07-08T08:39:04Z</time>
      </trkpt>
      <trkpt lat="44.80165" lon="1.70966">
        <ele>347</ele>
        <time>2017-07-08T08:39:09Z</time>
      </trkpt>
      <trkpt lat="44.80165" lon="1.70959">
        <ele>347</ele>
        <time>2017-07-08T08:39:22Z</time>
      </trkpt>
      <trkpt lat="44.80163" lon="1.70953">
        <ele>348</ele>
        <time>2017-07-08T08:39:26Z</time>
      </trkpt>
      <trkpt lat="44.80162" lon="1.70946">
        <ele>348</ele>
        <time>2017-07-08T08:39:35Z</time>
      </trkpt>
      <trkpt lat="44.8016" lon="1.7094">
        <ele>349</ele>
        <time>2017-07-08T08:39:40Z</time>
      </trkpt>
      <trkpt lat="44.80157" lon="1.70936">
        <ele>349</ele>
        <time>2017-07-08T08:39:45Z</time>
      </trkpt>
      <trkpt lat="44.80153" lon="1.70932">
        <ele>350</ele>
        <time>2017-07-08T08:39:54Z</time>
      </trkpt>
      <trkpt lat="44.80147" lon="1.70928">
        <ele>351</ele>
        <time>2017-07-08T08:39:59Z</time>
      </trkpt>
      <trkpt lat="44.80142" lon="1.70928">
        <ele>352</ele>
        <time>2017-07-08T08:40:03Z</time>
      </trkpt>
      <trkpt lat="44.80138" lon="1.70922">
        <ele>352</ele>
        <time>2017-07-08T08:40:07Z</time>
      </trkpt>
      <trkpt lat="44.80135" lon="1.70918">
        <ele>353</ele>
        <time>2017-07-08T08:40:11Z</time>
      </trkpt>
      <trkpt lat="44.80132" lon="1.70913">
        <ele>354</ele>
        <time>2017-07-08T08:40:15Z</time>
      </trkpt>
      <trkpt lat="44.80128" lon="1.70909">
        <ele>355</ele>
        <time>2017-07-08T08:40:20Z</time>
      </trkpt>
      <trkpt lat="44.80125" lon="1.70903">
        <ele>355</ele>
        <time>2017-07-08T08:40:25Z</time>
      </trkpt>
      <trkpt lat="44.80124" lon="1.70897">
        <ele>356</ele>
        <time>2017-07-08T08:40:30Z</time>
      </trkpt>
      <trkpt lat="44.80122" lon="1.70891">
        <ele>357</ele>
        <time>2017-07-08T08:40:33Z</time>
      </trkpt>
      <trkpt lat="44.80121" lon="1.70884">
        <ele>357</ele>
        <time>2017-07-08T08:40:36Z</time>
      </trkpt>
      <trkpt lat="44.80122" lon="1.70878">
        <ele>358</ele>
        <time>2017-07-08T08:40:40Z</time>
      </trkpt>
      <trkpt lat="44.80125" lon="1.70873">
        <ele>358</ele>
        <time>2017-07-08T08:40:46Z</time>
      </trkpt>
      <trkpt lat="44.80128" lon="1.70868">
        <ele>358</ele>
        <time>2017-07-08T08:40:51Z</time>
      </trkpt>
      <trkpt lat="44.80129" lon="1.70862">
        <ele>358</ele>
        <time>2017-07-08T08:40:56Z</time>
      </trkpt>
      <trkpt lat="44.8013" lon="1.70855">
        <ele>358</ele>
        <time>2017-07-08T08:41:03Z</time>
      </trkpt>
      <trkpt lat="44.80128" lon="1.70848">
        <ele>358</ele>
        <time>2017-07-08T08:41:08Z</time>
      </trkpt>
      <trkpt lat="44.80126" lon="1.70842">
        <ele>358</ele>
        <time>2017-07-08T08:41:12Z</time>
      </trkpt>
      <trkpt lat="44.80124" lon="1.70834">
        <ele>358</ele>
        <time>2017-07-08T08:41:18Z</time>
      </trkpt>
      <trkpt lat="44.80121" lon="1.70829">
        <ele>358</ele>
        <time>2017-07-08T08:41:25Z</time>
      </trkpt>
      <trkpt lat="44.80118" lon="1.70824">
        <ele>359</ele>
        <time>2017-07-08T08:41:30Z</time>
      </trkpt>
      <trkpt lat="44.80114" lon="1.70821">
        <ele>360</ele>
        <time>2017-07-08T08:41:34Z</time>
      </trkpt>
      <trkpt lat="44.80109" lon="1.70819">
        <ele>361</ele>
        <time>2017-07-08T08:41:40Z</time>
      </trkpt>
      <trkpt lat="44.80104" lon="1.70816">
        <ele>362</ele>
        <time>2017-07-08T08:41:43Z</time>
      </trkpt>
      <trkpt lat="44.80101" lon="1.70811">
        <ele>363</ele>
        <time>2017-07-08T08:41:47Z</time>
      </trkpt>
      <trkpt lat="44.80098" lon="1.70806">
        <ele>364</ele>
        <time>2017-07-08T08:41:53Z</time>
      </trkpt>
      <trkpt lat="44.80094" lon="1.70802">
        <ele>366</ele>
        <time>2017-07-08T08:41:58Z</time>
      </trkpt>
      <trkpt lat="44.8009" lon="1.70797">
        <ele>367</ele>
        <time>2017-07-08T08:42:04Z</time>
      </trkpt>
      <trkpt lat="44.80085" lon="1.70792">
        <ele>368</ele>
        <time>2017-07-08T08:42:08Z</time>
      </trkpt>
      <trkpt lat="44.8008" lon="1.70788">
        <ele>369</ele>
        <time>2017-07-08T08:42:14Z</time>
      </trkpt>
      <trkpt lat="44.80077" lon="1.70783">
        <ele>370</ele>
        <time>2017-07-08T08:42:19Z</time>
      </trkpt>
      <trkpt lat="44.80072" lon="1.70779">
        <ele>371</ele>
        <time>2017-07-08T08:42:24Z</time>
      </trkpt>
      <trkpt lat="44.80069" lon="1.70775">
        <ele>372</ele>
        <time>2017-07-08T08:42:29Z</time>
      </trkpt>
      <trkpt lat="44.80065" lon="1.7077">
        <ele>372</ele>
        <time>2017-07-08T08:42:33Z</time>
      </trkpt>
      <trkpt lat="44.80061" lon="1.70765">
        <ele>373</ele>
        <time>2017-07-08T08:42:39Z</time>
      </trkpt>
      <trkpt lat="44.80057" lon="1.70761">
        <ele>373</ele>
        <time>2017-07-08T08:42:44Z</time>
      </trkpt>
      <trkpt lat="44.80053" lon="1.70757">
        <ele>373</ele>
        <time>2017-07-08T08:42:50Z</time>
      </trkpt>
      <trkpt lat="44.80049" lon="1.70751">
        <ele>373</ele>
        <time>2017-07-08T08:42:54Z</time>
      </trkpt>
      <trkpt lat="44.80046" lon="1.70745">
        <ele>373</ele>
        <time>2017-07-08T08:42:59Z</time>
      </trkpt>
      <trkpt lat="44.80042" lon="1.7074">
        <ele>372</ele>
        <time>2017-07-08T08:43:04Z</time>
      </trkpt>
      <trkpt lat="44.80038" lon="1.70736">
        <ele>372</ele>
        <time>2017-07-08T08:43:09Z</time>
      </trkpt>
      <trkpt lat="44.80032" lon="1.70733">
        <ele>372</ele>
        <time>2017-07-08T08:43:14Z</time>
      </trkpt>
      <trkpt lat="44.80028" lon="1.70729">
        <ele>372</ele>
        <time>2017-07-08T08:43:19Z</time>
      </trkpt>
      <trkpt lat="44.80024" lon="1.70726">
        <ele>372</ele>
        <time>2017-07-08T08:43:24Z</time>
      </trkpt>
      <trkpt lat="44.80021" lon="1.70722">
        <ele>372</ele>
        <time>2017-07-08T08:43:28Z</time>
      </trkpt>
      <trkpt lat="44.80017" lon="1.70717">
        <ele>372</ele>
        <time>2017-07-08T08:43:31Z</time>
      </trkpt>
      <trkpt lat="44.80013" lon="1.7071">
        <ele>372</ele>
        <time>2017-07-08T08:43:35Z</time>
      </trkpt>
      <trkpt lat="44.80009" lon="1.70706">
        <ele>372</ele>
        <time>2017-07-08T08:43:41Z</time>
      </trkpt>
      <trkpt lat="44.80005" lon="1.70701">
        <ele>372</ele>
        <time>2017-07-08T08:43:45Z</time>
      </trkpt>
      <trkpt lat="44.80003" lon="1.70696">
        <ele>373</ele>
        <time>2017-07-08T08:43:48Z</time>
      </trkpt>
      <trkpt lat="44.80001" lon="1.70689">
        <ele>373</ele>
        <time>2017-07-08T08:43:51Z</time>
      </trkpt>
      <trkpt lat="44.8" lon="1.70682">
        <ele>373</ele>
        <time>2017-07-08T08:43:55Z</time>
      </trkpt>
      <trkpt lat="44.79998" lon="1.70676">
        <ele>374</ele>
        <time>2017-07-08T08:43:59Z</time>
      </trkpt>
      <trkpt lat="44.79997" lon="1.7067">
        <ele>374</ele>
        <time>2017-07-08T08:44:02Z</time>
      </trkpt>
      <trkpt lat="44.79995" lon="1.70662">
        <ele>374</ele>
        <time>2017-07-08T08:44:06Z</time>
      </trkpt>
      <trkpt lat="44.79992" lon="1.70655">
        <ele>374</ele>
        <time>2017-07-08T08:44:10Z</time>
      </trkpt>
      <trkpt lat="44.7999" lon="1.70649">
        <ele>375</ele>
        <time>2017-07-08T08:44:14Z</time>
      </trkpt>
      <trkpt lat="44.79987" lon="1.70643">
        <ele>375</ele>
        <time>2017-07-08T08:44:18Z</time>
      </trkpt>
      <trkpt lat="44.79984" lon="1.70638">
        <ele>375</ele>
        <time>2017-07-08T08:44:22Z</time>
      </trkpt>
      <trkpt lat="44.79982" lon="1.70632">
        <ele>376</ele>
        <time>2017-07-08T08:44:26Z</time>
      </trkpt>
      <trkpt lat="44.79979" lon="1.70627">
        <ele>376</ele>
        <time>2017-07-08T08:44:29Z</time>
      </trkpt>
      <trkpt lat="44.79975" lon="1.70625">
        <ele>376</ele>
        <time>2017-07-08T08:44:32Z</time>
      </trkpt>
      <trkpt lat="44.7997" lon="1.70624">
        <ele>376</ele>
        <time>2017-07-08T08:44:36Z</time>
      </trkpt>
      <trkpt lat="44.79966" lon="1.70623">
        <ele>376</ele>
        <time>2017-07-08T08:44:40Z</time>
      </trkpt>
      <trkpt lat="44.79959" lon="1.70621">
        <ele>376</ele>
        <time>2017-07-08T08:44:43Z</time>
      </trkpt>
      <trkpt lat="44.79955" lon="1.70618">
        <ele>376</ele>
        <time>2017-07-08T08:44:48Z</time>
      </trkpt>
      <trkpt lat="44.7995" lon="1.70613">
        <ele>376</ele>
        <time>2017-07-08T08:44:54Z</time>
      </trkpt>
      <trkpt lat="44.79946" lon="1.70611">
        <ele>376</ele>
        <time>2017-07-08T08:44:59Z</time>
      </trkpt>
      <trkpt lat="44.79941" lon="1.70607">
        <ele>376</ele>
        <time>2017-07-08T08:45:03Z</time>
      </trkpt>
      <trkpt lat="44.79936" lon="1.70605">
        <ele>376</ele>
        <time>2017-07-08T08:45:07Z</time>
      </trkpt>
      <trkpt lat="44.79931" lon="1.70602">
        <ele>376</ele>
        <time>2017-07-08T08:45:12Z</time>
      </trkpt>
      <trkpt lat="44.79926" lon="1.706">
        <ele>377</ele>
        <time>2017-07-08T08:45:18Z</time>
      </trkpt>
      <trkpt lat="44.79922" lon="1.706">
        <ele>377</ele>
        <time>2017-07-08T08:45:22Z</time>
      </trkpt>
      <trkpt lat="44.79917" lon="1.70601">
        <ele>377</ele>
        <time>2017-07-08T08:45:28Z</time>
      </trkpt>
      <trkpt lat="44.79913" lon="1.70598">
        <ele>377</ele>
        <time>2017-07-08T08:45:32Z</time>
      </trkpt>
      <trkpt lat="44.79907" lon="1.70596">
        <ele>377</ele>
        <time>2017-07-08T08:45:36Z</time>
      </trkpt>
      <trkpt lat="44.79902" lon="1.70594">
        <ele>376</ele>
        <time>2017-07-08T08:45:41Z</time>
      </trkpt>
      <trkpt lat="44.79897" lon="1.70592">
        <ele>376</ele>
        <time>2017-07-08T08:45:46Z</time>
      </trkpt>
      <trkpt lat="44.79892" lon="1.70592">
        <ele>376</ele>
        <time>2017-07-08T08:45:50Z</time>
      </trkpt>
      <trkpt lat="44.79888" lon="1.70589">
        <ele>376</ele>
        <time>2017-07-08T08:46:03Z</time>
      </trkpt>
      <trkpt lat="44.79884" lon="1.70586">
        <ele>376</ele>
        <time>2017-07-08T08:46:08Z</time>
      </trkpt>
      <trkpt lat="44.7988" lon="1.70583">
        <ele>376</ele>
        <time>2017-07-08T08:46:13Z</time>
      </trkpt>
      <trkpt lat="44.79875" lon="1.7058">
        <ele>376</ele>
        <time>2017-07-08T08:46:19Z</time>
      </trkpt>
      <trkpt lat="44.7987" lon="1.70578">
        <ele>377</ele>
        <time>2017-07-08T08:46:24Z</time>
      </trkpt>
      <trkpt lat="44.79866" lon="1.70574">
        <ele>377</ele>
        <time>2017-07-08T08:46:36Z</time>
      </trkpt>
      <trkpt lat="44.79862" lon="1.70572">
        <ele>377</ele>
        <time>2017-07-08T08:46:41Z</time>
      </trkpt>
      <trkpt lat="44.79858" lon="1.70569">
        <ele>377</ele>
        <time>2017-07-08T08:46:46Z</time>
      </trkpt>
      <trkpt lat="44.79853" lon="1.70566">
        <ele>377</ele>
        <time>2017-07-08T08:46:52Z</time>
      </trkpt>
      <trkpt lat="44.79849" lon="1.70565">
        <ele>377</ele>
        <time>2017-07-08T08:47:11Z</time>
      </trkpt>
      <trkpt lat="44.79844" lon="1.70563">
        <ele>377</ele>
        <time>2017-07-08T08:47:14Z</time>
      </trkpt>
      <trkpt lat="44.79839" lon="1.70562">
        <ele>376</ele>
        <time>2017-07-08T08:47:18Z</time>
      </trkpt>
      <trkpt lat="44.79834" lon="1.7056">
        <ele>376</ele>
        <time>2017-07-08T08:47:22Z</time>
      </trkpt>
      <trkpt lat="44.79829" lon="1.70559">
        <ele>376</ele>
        <time>2017-07-08T08:47:26Z</time>
      </trkpt>
      <trkpt lat="44.79825" lon="1.70557">
        <ele>376</ele>
        <time>2017-07-08T08:47:31Z</time>
      </trkpt>
      <trkpt lat="44.7982" lon="1.70558">
        <ele>376</ele>
        <time>2017-07-08T08:47:36Z</time>
      </trkpt>
      <trkpt lat="44.79814" lon="1.70561">
        <ele>376</ele>
        <time>2017-07-08T08:47:42Z</time>
      </trkpt>
      <trkpt lat="44.7981" lon="1.70562">
        <ele>376</ele>
        <time>2017-07-08T08:47:48Z</time>
      </trkpt>
      <trkpt lat="44.79805" lon="1.70564">
        <ele>376</ele>
        <time>2017-07-08T08:47:52Z</time>
      </trkpt>
      <trkpt lat="44.79802" lon="1.7057">
        <ele>376</ele>
        <time>2017-07-08T08:47:57Z</time>
      </trkpt>
      <trkpt lat="44.79799" lon="1.70575">
        <ele>376</ele>
        <time>2017-07-08T08:48:04Z</time>
      </trkpt>
      <trkpt lat="44.79796" lon="1.70581">
        <ele>376</ele>
        <time>2017-07-08T08:48:12Z</time>
      </trkpt>
      <trkpt lat="44.79791" lon="1.70585">
        <ele>376</ele>
        <time>2017-07-08T08:48:15Z</time>
      </trkpt>
      <trkpt lat="44.79786" lon="1.70589">
        <ele>376</ele>
        <time>2017-07-08T08:48:20Z</time>
      </trkpt>
      <trkpt lat="44.7978" lon="1.70592">
        <ele>376</ele>
        <time>2017-07-08T08:48:24Z</time>
      </trkpt>
      <trkpt lat="44.79774" lon="1.70591">
        <ele>375</ele>
        <time>2017-07-08T08:48:27Z</time>
      </trkpt>
      <trkpt lat="44.79769" lon="1.70589">
        <ele>375</ele>
        <time>2017-07-08T08:48:31Z</time>
      </trkpt>
      <trkpt lat="44.79763" lon="1.70586">
        <ele>375</ele>
        <time>2017-07-08T08:48:35Z</time>
      </trkpt>
      <trkpt lat="44.79758" lon="1.70583">
        <ele>375</ele>
        <time>2017-07-08T08:48:39Z</time>
      </trkpt>
      <trkpt lat="44.79754" lon="1.70579">
        <ele>375</ele>
        <time>2017-07-08T08:48:43Z</time>
      </trkpt>
      <trkpt lat="44.7975" lon="1.70575">
        <ele>375</ele>
        <time>2017-07-08T08:48:47Z</time>
      </trkpt>
      <trkpt lat="44.79747" lon="1.7057">
        <ele>375</ele>
        <time>2017-07-08T08:48:52Z</time>
      </trkpt>
      <trkpt lat="44.79742" lon="1.70565">
        <ele>375</ele>
        <time>2017-07-08T08:48:58Z</time>
      </trkpt>
      <trkpt lat="44.79738" lon="1.7056">
        <ele>375</ele>
        <time>2017-07-08T08:49:02Z</time>
      </trkpt>
      <trkpt lat="44.79735" lon="1.70555">
        <ele>375</ele>
        <time>2017-07-08T08:49:06Z</time>
      </trkpt>
      <trkpt lat="44.79731" lon="1.70549">
        <ele>374</ele>
        <time>2017-07-08T08:49:10Z</time>
      </trkpt>
      <trkpt lat="44.79729" lon="1.70543">
        <ele>374</ele>
        <time>2017-07-08T08:49:14Z</time>
      </trkpt>
      <trkpt lat="44.79726" lon="1.70537">
        <ele>374</ele>
        <time>2017-07-08T08:49:17Z</time>
      </trkpt>
      <trkpt lat="44.79723" lon="1.70532">
        <ele>374</ele>
        <time>2017-07-08T08:49:20Z</time>
      </trkpt>
      <trkpt lat="44.7972" lon="1.70527">
        <ele>373</ele>
        <time>2017-07-08T08:49:26Z</time>
      </trkpt>
      <trkpt lat="44.79716" lon="1.70521">
        <ele>373</ele>
        <time>2017-07-08T08:49:30Z</time>
      </trkpt>
      <trkpt lat="44.79712" lon="1.70516">
        <ele>373</ele>
        <time>2017-07-08T08:49:33Z</time>
      </trkpt>
      <trkpt lat="44.79707" lon="1.70513">
        <ele>374</ele>
        <time>2017-07-08T08:49:37Z</time>
      </trkpt>
      <trkpt lat="44.79704" lon="1.70507">
        <ele>374</ele>
        <time>2017-07-08T08:49:41Z</time>
      </trkpt>
      <trkpt lat="44.797" lon="1.70502">
        <ele>374</ele>
        <time>2017-07-08T08:49:46Z</time>
      </trkpt>
      <trkpt lat="44.79696" lon="1.70496">
        <ele>374</ele>
        <time>2017-07-08T08:49:50Z</time>
      </trkpt>
      <trkpt lat="44.79695" lon="1.70489">
        <ele>374</ele>
        <time>2017-07-08T08:49:54Z</time>
      </trkpt>
      <trkpt lat="44.79692" lon="1.70482">
        <ele>374</ele>
        <time>2017-07-08T08:49:57Z</time>
      </trkpt>
      <trkpt lat="44.79689" lon="1.70477">
        <ele>375</ele>
        <time>2017-07-08T08:50:00Z</time>
      </trkpt>
      <trkpt lat="44.79686" lon="1.70471">
        <ele>375</ele>
        <time>2017-07-08T08:50:04Z</time>
      </trkpt>
      <trkpt lat="44.79681" lon="1.70467">
        <ele>374</ele>
        <time>2017-07-08T08:50:08Z</time>
      </trkpt>
      <trkpt lat="44.79676" lon="1.70462">
        <ele>374</ele>
        <time>2017-07-08T08:50:12Z</time>
      </trkpt>
      <trkpt lat="44.79672" lon="1.70457">
        <ele>374</ele>
        <time>2017-07-08T08:50:16Z</time>
      </trkpt>
      <trkpt lat="44.79668" lon="1.70452">
        <ele>373</ele>
        <time>2017-07-08T08:50:20Z</time>
      </trkpt>
      <trkpt lat="44.79665" lon="1.70447">
        <ele>373</ele>
        <time>2017-07-08T08:50:24Z</time>
      </trkpt>
      <trkpt lat="44.79662" lon="1.70441">
        <ele>373</ele>
        <time>2017-07-08T08:50:28Z</time>
      </trkpt>
      <trkpt lat="44.79659" lon="1.70435">
        <ele>372</ele>
        <time>2017-07-08T08:50:32Z</time>
      </trkpt>
      <trkpt lat="44.79656" lon="1.7043">
        <ele>372</ele>
        <time>2017-07-08T08:50:35Z</time>
      </trkpt>
      <trkpt lat="44.79654" lon="1.70424">
        <ele>372</ele>
        <time>2017-07-08T08:50:40Z</time>
      </trkpt>
      <trkpt lat="44.7965" lon="1.70416">
        <ele>372</ele>
        <time>2017-07-08T08:50:44Z</time>
      </trkpt>
      <trkpt lat="44.79646" lon="1.70412">
        <ele>372</ele>
        <time>2017-07-08T08:50:47Z</time>
      </trkpt>
      <trkpt lat="44.79644" lon="1.70405">
        <ele>372</ele>
        <time>2017-07-08T08:50:51Z</time>
      </trkpt>
      <trkpt lat="44.79646" lon="1.70397">
        <ele>372</ele>
        <time>2017-07-08T08:50:54Z</time>
      </trkpt>
      <trkpt lat="44.79649" lon="1.70391">
        <ele>372</ele>
        <time>2017-07-08T08:50:57Z</time>
      </trkpt>
      <trkpt lat="44.79652" lon="1.70385">
        <ele>372</ele>
        <time>2017-07-08T08:51:00Z</time>
      </trkpt>
      <trkpt lat="44.79657" lon="1.7038">
        <ele>371</ele>
        <time>2017-07-08T08:51:04Z</time>
      </trkpt>
      <trkpt lat="44.7966" lon="1.70375">
        <ele>371</ele>
        <time>2017-07-08T08:51:08Z</time>
      </trkpt>
      <trkpt lat="44.79665" lon="1.7037">
        <ele>371</ele>
        <time>2017-07-08T08:51:13Z</time>
      </trkpt>
      <trkpt lat="44.79668" lon="1.70364">
        <ele>370</ele>
        <time>2017-07-08T08:51:17Z</time>
      </trkpt>
      <trkpt lat="44.7967" lon="1.70358">
        <ele>370</ele>
        <time>2017-07-08T08:51:22Z</time>
      </trkpt>
      <trkpt lat="44.79671" lon="1.70355">
        <ele>369</ele>
        <time>2017-07-08T08:51:46Z</time>
      </trkpt>
      <trkpt lat="44.79671" lon="1.70355">
        <ele>369</ele>
        <time>2017-07-08T08:51:47Z</time>
      </trkpt>
      <trkpt lat="44.79673" lon="1.70362">
        <ele>369</ele>
        <time>2017-07-08T08:52:12Z</time>
      </trkpt>
      <trkpt lat="44.79677" lon="1.70362">
        <ele>369</ele>
        <time>2017-07-08T08:52:31Z</time>
      </trkpt>
      <trkpt lat="44.7968" lon="1.70363">
        <ele>368</ele>
        <time>2017-07-08T08:52:46Z</time>
      </trkpt>
      <trkpt lat="44.7968" lon="1.70362">
        <ele>368</ele>
        <time>2017-07-08T08:52:47Z</time>
      </trkpt>
      <trkpt lat="44.79685" lon="1.70358">
        <ele>368</ele>
        <time>2017-07-08T08:52:52Z</time>
      </trkpt>
      <trkpt lat="44.79689" lon="1.70354">
        <ele>368</ele>
        <time>2017-07-08T08:52:57Z</time>
      </trkpt>
      <trkpt lat="44.79694" lon="1.70349">
        <ele>367</ele>
        <time>2017-07-08T08:53:02Z</time>
      </trkpt>
      <trkpt lat="44.79697" lon="1.70345">
        <ele>367</ele>
        <time>2017-07-08T08:53:06Z</time>
      </trkpt>
      <trkpt lat="44.79701" lon="1.7034">
        <ele>367</ele>
        <time>2017-07-08T08:53:12Z</time>
      </trkpt>
      <trkpt lat="44.79704" lon="1.70334">
        <ele>366</ele>
        <time>2017-07-08T08:53:16Z</time>
      </trkpt>
      <trkpt lat="44.79707" lon="1.70329">
        <ele>366</ele>
        <time>2017-07-08T08:53:20Z</time>
      </trkpt>
      <trkpt lat="44.79711" lon="1.70326">
        <ele>366</ele>
        <time>2017-07-08T08:53:25Z</time>
      </trkpt>
      <trkpt lat="44.79714" lon="1.7032">
        <ele>366</ele>
        <time>2017-07-08T08:53:29Z</time>
      </trkpt>
      <trkpt lat="44.79717" lon="1.70313">
        <ele>366</ele>
        <time>2017-07-08T08:53:34Z</time>
      </trkpt>
      <trkpt lat="44.79719" lon="1.70307">
        <ele>366</ele>
        <time>2017-07-08T08:53:40Z</time>
      </trkpt>
      <trkpt lat="44.79722" lon="1.70301">
        <ele>366</ele>
        <time>2017-07-08T08:53:45Z</time>
      </trkpt>
      <trkpt lat="44.79726" lon="1.70297">
        <ele>366</ele>
        <time>2017-07-08T08:53:49Z</time>
      </trkpt>
      <trkpt lat="44.79729" lon="1.70293">
        <ele>366</ele>
        <time>2017-07-08T08:53:54Z</time>
      </trkpt>
      <trkpt lat="44.79732" lon="1.70287">
        <ele>366</ele>
        <time>2017-07-08T08:53:59Z</time>
      </trkpt>
      <trkpt lat="44.79733" lon="1.70279">
        <ele>366</ele>
        <time>2017-07-08T08:54:03Z</time>
      </trkpt>
      <trkpt lat="44.79736" lon="1.70272">
        <ele>366</ele>
        <time>2017-07-08T08:54:08Z</time>
      </trkpt>
      <trkpt lat="44.79739" lon="1.70267">
        <ele>366</ele>
        <time>2017-07-08T08:54:13Z</time>
      </trkpt>
      <trkpt lat="44.79743" lon="1.70262">
        <ele>366</ele>
        <time>2017-07-08T08:54:19Z</time>
      </trkpt>
      <trkpt lat="44.79747" lon="1.70257">
        <ele>365</ele>
        <time>2017-07-08T08:54:25Z</time>
      </trkpt>
      <trkpt lat="44.7975" lon="1.70253">
        <ele>365</ele>
        <time>2017-07-08T08:54:33Z</time>
      </trkpt>
      <trkpt lat="44.79755" lon="1.7025">
        <ele>365</ele>
        <time>2017-07-08T08:54:39Z</time>
      </trkpt>
      <trkpt lat="44.79759" lon="1.70247">
        <ele>364</ele>
        <time>2017-07-08T08:54:44Z</time>
      </trkpt>
      <trkpt lat="44.79763" lon="1.70244">
        <ele>364</ele>
        <time>2017-07-08T08:54:47Z</time>
      </trkpt>
      <trkpt lat="44.79768" lon="1.7024">
        <ele>363</ele>
        <time>2017-07-08T08:54:51Z</time>
      </trkpt>
      <trkpt lat="44.7977" lon="1.70234">
        <ele>363</ele>
        <time>2017-07-08T08:54:55Z</time>
      </trkpt>
      <trkpt lat="44.79769" lon="1.70227">
        <ele>363</ele>
        <time>2017-07-08T08:55:00Z</time>
      </trkpt>
      <trkpt lat="44.79767" lon="1.70221">
        <ele>363</ele>
        <time>2017-07-08T08:55:05Z</time>
      </trkpt>
      <trkpt lat="44.79764" lon="1.70214">
        <ele>363</ele>
        <time>2017-07-08T08:55:10Z</time>
      </trkpt>
      <trkpt lat="44.79765" lon="1.70208">
        <ele>363</ele>
        <time>2017-07-08T08:55:15Z</time>
      </trkpt>
      <trkpt lat="44.79765" lon="1.70202">
        <ele>363</ele>
        <time>2017-07-08T08:55:20Z</time>
      </trkpt>
      <trkpt lat="44.79765" lon="1.70195">
        <ele>363</ele>
        <time>2017-07-08T08:55:25Z</time>
      </trkpt>
      <trkpt lat="44.79767" lon="1.70189">
        <ele>363</ele>
        <time>2017-07-08T08:55:29Z</time>
      </trkpt>
      <trkpt lat="44.79767" lon="1.70182">
        <ele>363</ele>
        <time>2017-07-08T08:55:32Z</time>
      </trkpt>
      <trkpt lat="44.79768" lon="1.70175">
        <ele>363</ele>
        <time>2017-07-08T08:55:36Z</time>
      </trkpt>
      <trkpt lat="44.7977" lon="1.70169">
        <ele>363</ele>
        <time>2017-07-08T08:55:41Z</time>
      </trkpt>
      <trkpt lat="44.7977" lon="1.70162">
        <ele>363</ele>
        <time>2017-07-08T08:55:45Z</time>
      </trkpt>
      <trkpt lat="44.79769" lon="1.70156">
        <ele>363</ele>
        <time>2017-07-08T08:55:49Z</time>
      </trkpt>
      <trkpt lat="44.79768" lon="1.70149">
        <ele>363</ele>
        <time>2017-07-08T08:55:54Z</time>
      </trkpt>
      <trkpt lat="44.79768" lon="1.70142">
        <ele>363</ele>
        <time>2017-07-08T08:55:59Z</time>
      </trkpt>
      <trkpt lat="44.79768" lon="1.70135">
        <ele>363</ele>
        <time>2017-07-08T08:56:04Z</time>
      </trkpt>
      <trkpt lat="44.79769" lon="1.70128">
        <ele>363</ele>
        <time>2017-07-08T08:56:09Z</time>
      </trkpt>
      <trkpt lat="44.79771" lon="1.70122">
        <ele>363</ele>
        <time>2017-07-08T08:56:13Z</time>
      </trkpt>
      <trkpt lat="44.79773" lon="1.70117">
        <ele>362</ele>
        <time>2017-07-08T08:56:19Z</time>
      </trkpt>
      <trkpt lat="44.79774" lon="1.7011">
        <ele>362</ele>
        <time>2017-07-08T08:56:25Z</time>
      </trkpt>
      <trkpt lat="44.79774" lon="1.70103">
        <ele>362</ele>
        <time>2017-07-08T08:56:28Z</time>
      </trkpt>
      <trkpt lat="44.79775" lon="1.70097">
        <ele>362</ele>
        <time>2017-07-08T08:56:31Z</time>
      </trkpt>
      <trkpt lat="44.79776" lon="1.70091">
        <ele>362</ele>
        <time>2017-07-08T08:56:35Z</time>
      </trkpt>
      <trkpt lat="44.79778" lon="1.70084">
        <ele>362</ele>
        <time>2017-07-08T08:56:39Z</time>
      </trkpt>
      <trkpt lat="44.79779" lon="1.70076">
        <ele>362</ele>
        <time>2017-07-08T08:56:44Z</time>
      </trkpt>
      <trkpt lat="44.79779" lon="1.70067">
        <ele>362</ele>
        <time>2017-07-08T08:56:48Z</time>
      </trkpt>
      <trkpt lat="44.7978" lon="1.70059">
        <ele>362</ele>
        <time>2017-07-08T08:56:54Z</time>
      </trkpt>
      <trkpt lat="44.79779" lon="1.70052">
        <ele>362</ele>
        <time>2017-07-08T08:56:58Z</time>
      </trkpt>
      <trkpt lat="44.7978" lon="1.70045">
        <ele>362</ele>
        <time>2017-07-08T08:57:03Z</time>
      </trkpt>
      <trkpt lat="44.79781" lon="1.70038">
        <ele>362</ele>
        <time>2017-07-08T08:57:07Z</time>
      </trkpt>
      <trkpt lat="44.79782" lon="1.70031">
        <ele>362</ele>
        <time>2017-07-08T08:57:12Z</time>
      </trkpt>
      <trkpt lat="44.79784" lon="1.70024">
        <ele>362</ele>
        <time>2017-07-08T08:57:18Z</time>
      </trkpt>
      <trkpt lat="44.79785" lon="1.70017">
        <ele>362</ele>
        <time>2017-07-08T08:57:22Z</time>
      </trkpt>
      <trkpt lat="44.79787" lon="1.70011">
        <ele>362</ele>
        <time>2017-07-08T08:57:28Z</time>
      </trkpt>
      <trkpt lat="44.79792" lon="1.70008">
        <ele>362</ele>
        <time>2017-07-08T08:57:32Z</time>
      </trkpt>
      <trkpt lat="44.79797" lon="1.70005">
        <ele>362</ele>
        <time>2017-07-08T08:57:35Z</time>
      </trkpt>
      <trkpt lat="44.79802" lon="1.70001">
        <ele>362</ele>
        <time>2017-07-08T08:57:39Z</time>
      </trkpt>
      <trkpt lat="44.79806" lon="1.69998">
        <ele>362</ele>
        <time>2017-07-08T08:57:45Z</time>
      </trkpt>
      <trkpt lat="44.7981" lon="1.69995">
        <ele>362</ele>
        <time>2017-07-08T08:57:51Z</time>
      </trkpt>
      <trkpt lat="44.79815" lon="1.69993">
        <ele>362</ele>
        <time>2017-07-08T08:57:54Z</time>
      </trkpt>
      <trkpt lat="44.7982" lon="1.69992">
        <ele>362</ele>
        <time>2017-07-08T08:57:58Z</time>
      </trkpt>
      <trkpt lat="44.79824" lon="1.69988">
        <ele>362</ele>
        <time>2017-07-08T08:58:04Z</time>
      </trkpt>
      <trkpt lat="44.79826" lon="1.69981">
        <ele>362</ele>
        <time>2017-07-08T08:58:09Z</time>
      </trkpt>
      <trkpt lat="44.79826" lon="1.69974">
        <ele>362</ele>
        <time>2017-07-08T08:58:14Z</time>
      </trkpt>
      <trkpt lat="44.79825" lon="1.69968">
        <ele>363</ele>
        <time>2017-07-08T08:58:19Z</time>
      </trkpt>
      <trkpt lat="44.79825" lon="1.69962">
        <ele>363</ele>
        <time>2017-07-08T08:58:25Z</time>
      </trkpt>
      <trkpt lat="44.79826" lon="1.69954">
        <ele>363</ele>
        <time>2017-07-08T08:58:29Z</time>
      </trkpt>
      <trkpt lat="44.79828" lon="1.69948">
        <ele>363</ele>
        <time>2017-07-08T08:58:34Z</time>
      </trkpt>
      <trkpt lat="44.79832" lon="1.69943">
        <ele>363</ele>
        <time>2017-07-08T08:58:37Z</time>
      </trkpt>
      <trkpt lat="44.79837" lon="1.6994">
        <ele>364</ele>
        <time>2017-07-08T08:58:41Z</time>
      </trkpt>
      <trkpt lat="44.79842" lon="1.69935">
        <ele>364</ele>
        <time>2017-07-08T08:58:47Z</time>
      </trkpt>
      <trkpt lat="44.79845" lon="1.69931">
        <ele>364</ele>
        <time>2017-07-08T08:58:51Z</time>
      </trkpt>
      <trkpt lat="44.7985" lon="1.69926">
        <ele>364</ele>
        <time>2017-07-08T08:58:57Z</time>
      </trkpt>
      <trkpt lat="44.79853" lon="1.69921">
        <ele>364</ele>
        <time>2017-07-08T08:59:01Z</time>
      </trkpt>
      <trkpt lat="44.79857" lon="1.69916">
        <ele>364</ele>
        <time>2017-07-08T08:59:10Z</time>
      </trkpt>
      <trkpt lat="44.79861" lon="1.69911">
        <ele>364</ele>
        <time>2017-07-08T08:59:14Z</time>
      </trkpt>
      <trkpt lat="44.79865" lon="1.69906">
        <ele>364</ele>
        <time>2017-07-08T08:59:20Z</time>
      </trkpt>
      <trkpt lat="44.7987" lon="1.69903">
        <ele>364</ele>
        <time>2017-07-08T08:59:23Z</time>
      </trkpt>
      <trkpt lat="44.79874" lon="1.699">
        <ele>364</ele>
        <time>2017-07-08T08:59:28Z</time>
      </trkpt>
      <trkpt lat="44.79878" lon="1.69897">
        <ele>364</ele>
        <time>2017-07-08T08:59:35Z</time>
      </trkpt>
      <trkpt lat="44.79883" lon="1.69894">
        <ele>364</ele>
        <time>2017-07-08T08:59:40Z</time>
      </trkpt>
      <trkpt lat="44.79887" lon="1.6989">
        <ele>365</ele>
        <time>2017-07-08T08:59:46Z</time>
      </trkpt>
      <trkpt lat="44.7989" lon="1.69885">
        <ele>365</ele>
        <time>2017-07-08T08:59:54Z</time>
      </trkpt>
      <trkpt lat="44.79894" lon="1.6988">
        <ele>366</ele>
        <time>2017-07-08T09:00:03Z</time>
      </trkpt>
      <trkpt lat="44.79897" lon="1.69876">
        <ele>366</ele>
        <time>2017-07-08T09:00:06Z</time>
      </trkpt>
      <trkpt lat="44.799" lon="1.69871">
        <ele>367</ele>
        <time>2017-07-08T09:00:09Z</time>
      </trkpt>
      <trkpt lat="44.79903" lon="1.69865">
        <ele>367</ele>
        <time>2017-07-08T09:00:14Z</time>
      </trkpt>
      <trkpt lat="44.79907" lon="1.69859">
        <ele>367</ele>
        <time>2017-07-08T09:00:20Z</time>
      </trkpt>
      <trkpt lat="44.79908" lon="1.69852">
        <ele>368</ele>
        <time>2017-07-08T09:00:24Z</time>
      </trkpt>
      <trkpt lat="44.79911" lon="1.69846">
        <ele>368</ele>
        <time>2017-07-08T09:00:30Z</time>
      </trkpt>
      <trkpt lat="44.79913" lon="1.6984">
        <ele>368</ele>
        <time>2017-07-08T09:00:35Z</time>
      </trkpt>
      <trkpt lat="44.79913" lon="1.69833">
        <ele>368</ele>
        <time>2017-07-08T09:00:40Z</time>
      </trkpt>
      <trkpt lat="44.79913" lon="1.69826">
        <ele>368</ele>
        <time>2017-07-08T09:00:44Z</time>
      </trkpt>
      <trkpt lat="44.79913" lon="1.69818">
        <ele>369</ele>
        <time>2017-07-08T09:00:48Z</time>
      </trkpt>
      <trkpt lat="44.79915" lon="1.69811">
        <ele>369</ele>
        <time>2017-07-08T09:00:52Z</time>
      </trkpt>
      <trkpt lat="44.79917" lon="1.69805">
        <ele>369</ele>
        <time>2017-07-08T09:00:57Z</time>
      </trkpt>
      <trkpt lat="44.79921" lon="1.69798">
        <ele>370</ele>
        <time>2017-07-08T09:01:01Z</time>
      </trkpt>
      <trkpt lat="44.79924" lon="1.69792">
        <ele>370</ele>
        <time>2017-07-08T09:01:05Z</time>
      </trkpt>
      <trkpt lat="44.79928" lon="1.69789">
        <ele>370</ele>
        <time>2017-07-08T09:01:09Z</time>
      </trkpt>
      <trkpt lat="44.79932" lon="1.69784">
        <ele>370</ele>
        <time>2017-07-08T09:01:14Z</time>
      </trkpt>
      <trkpt lat="44.79935" lon="1.69777">
        <ele>370</ele>
        <time>2017-07-08T09:01:19Z</time>
      </trkpt>
      <trkpt lat="44.79937" lon="1.69771">
        <ele>370</ele>
        <time>2017-07-08T09:01:23Z</time>
      </trkpt>
      <trkpt lat="44.7994" lon="1.69767">
        <ele>370</ele>
        <time>2017-07-08T09:01:46Z</time>
      </trkpt>
      <trkpt lat="44.79941" lon="1.69766">
        <ele>370</ele>
        <time>2017-07-08T09:01:47Z</time>
      </trkpt>
      <trkpt lat="44.79945" lon="1.69761">
        <ele>369</ele>
        <time>2017-07-08T09:01:53Z</time>
      </trkpt>
      <trkpt lat="44.79948" lon="1.69756">
        <ele>369</ele>
        <time>2017-07-08T09:01:56Z</time>
      </trkpt>
      <trkpt lat="44.79952" lon="1.69749">
        <ele>369</ele>
        <time>2017-07-08T09:02:01Z</time>
      </trkpt>
      <trkpt lat="44.79955" lon="1.69743">
        <ele>369</ele>
        <time>2017-07-08T09:02:05Z</time>
      </trkpt>
      <trkpt lat="44.79957" lon="1.69737">
        <ele>368</ele>
        <time>2017-07-08T09:02:09Z</time>
      </trkpt>
      <trkpt lat="44.79959" lon="1.6973">
        <ele>368</ele>
        <time>2017-07-08T09:02:14Z</time>
      </trkpt>
      <trkpt lat="44.79961" lon="1.69724">
        <ele>368</ele>
        <time>2017-07-08T09:02:20Z</time>
      </trkpt>
      <trkpt lat="44.79964" lon="1.69718">
        <ele>368</ele>
        <time>2017-07-08T09:02:25Z</time>
      </trkpt>
      <trkpt lat="44.79967" lon="1.69712">
        <ele>367</ele>
        <time>2017-07-08T09:02:30Z</time>
      </trkpt>
      <trkpt lat="44.79969" lon="1.69706">
        <ele>367</ele>
        <time>2017-07-08T09:02:34Z</time>
      </trkpt>
      <trkpt lat="44.7997" lon="1.69699">
        <ele>367</ele>
        <time>2017-07-08T09:02:38Z</time>
      </trkpt>
      <trkpt lat="44.7997" lon="1.69691">
        <ele>367</ele>
        <time>2017-07-08T09:02:42Z</time>
      </trkpt>
      <trkpt lat="44.79969" lon="1.69685">
        <ele>366</ele>
        <time>2017-07-08T09:02:48Z</time>
      </trkpt>
      <trkpt lat="44.7997" lon="1.69676">
        <ele>365</ele>
        <time>2017-07-08T09:02:52Z</time>
      </trkpt>
      <trkpt lat="44.79972" lon="1.6967">
        <ele>365</ele>
        <time>2017-07-08T09:02:57Z</time>
      </trkpt>
      <trkpt lat="44.79973" lon="1.69664">
        <ele>364</ele>
        <time>2017-07-08T09:03:02Z</time>
      </trkpt>
      <trkpt lat="44.79971" lon="1.69657">
        <ele>363</ele>
        <time>2017-07-08T09:03:07Z</time>
      </trkpt>
      <trkpt lat="44.79969" lon="1.69651">
        <ele>363</ele>
        <time>2017-07-08T09:03:12Z</time>
      </trkpt>
      <trkpt lat="44.79966" lon="1.69645">
        <ele>362</ele>
        <time>2017-07-08T09:03:21Z</time>
      </trkpt>
      <trkpt lat="44.79964" lon="1.69639">
        <ele>362</ele>
        <time>2017-07-08T09:03:27Z</time>
      </trkpt>
      <trkpt lat="44.79962" lon="1.69633">
        <ele>362</ele>
        <time>2017-07-08T09:03:34Z</time>
      </trkpt>
      <trkpt lat="44.79961" lon="1.69626">
        <ele>362</ele>
        <time>2017-07-08T09:03:38Z</time>
      </trkpt>
      <trkpt lat="44.79957" lon="1.69622">
        <ele>362</ele>
        <time>2017-07-08T09:03:43Z</time>
      </trkpt>
      <trkpt lat="44.79954" lon="1.69615">
        <ele>362</ele>
        <time>2017-07-08T09:03:47Z</time>
      </trkpt>
      <trkpt lat="44.7995" lon="1.6961">
        <ele>362</ele>
        <time>2017-07-08T09:03:52Z</time>
      </trkpt>
      <trkpt lat="44.79946" lon="1.69606">
        <ele>361</ele>
        <time>2017-07-08T09:03:56Z</time>
      </trkpt>
      <trkpt lat="44.79943" lon="1.69602">
        <ele>361</ele>
        <time>2017-07-08T09:04:01Z</time>
      </trkpt>
      <trkpt lat="44.79939" lon="1.69598">
        <ele>361</ele>
        <time>2017-07-08T09:04:07Z</time>
      </trkpt>
      <trkpt lat="44.79935" lon="1.69594">
        <ele>361</ele>
        <time>2017-07-08T09:04:12Z</time>
      </trkpt>
      <trkpt lat="44.79931" lon="1.6959">
        <ele>361</ele>
        <time>2017-07-08T09:04:18Z</time>
      </trkpt>
      <trkpt lat="44.79927" lon="1.69587">
        <ele>361</ele>
        <time>2017-07-08T09:04:22Z</time>
      </trkpt>
      <trkpt lat="44.79923" lon="1.69583">
        <ele>361</ele>
        <time>2017-07-08T09:04:28Z</time>
      </trkpt>
      <trkpt lat="44.79919" lon="1.69577">
        <ele>362</ele>
        <time>2017-07-08T09:04:33Z</time>
      </trkpt>
      <trkpt lat="44.79915" lon="1.69572">
        <ele>362</ele>
        <time>2017-07-08T09:04:38Z</time>
      </trkpt>
      <trkpt lat="44.79911" lon="1.69569">
        <ele>363</ele>
        <time>2017-07-08T09:04:44Z</time>
      </trkpt>
      <trkpt lat="44.79907" lon="1.69565">
        <ele>364</ele>
        <time>2017-07-08T09:04:50Z</time>
      </trkpt>
      <trkpt lat="44.79901" lon="1.69563">
        <ele>364</ele>
        <time>2017-07-08T09:04:55Z</time>
      </trkpt>
      <trkpt lat="44.79897" lon="1.6956">
        <ele>365</ele>
        <time>2017-07-08T09:04:59Z</time>
      </trkpt>
      <trkpt lat="44.79892" lon="1.69557">
        <ele>365</ele>
        <time>2017-07-08T09:05:04Z</time>
      </trkpt>
      <trkpt lat="44.79887" lon="1.69553">
        <ele>366</ele>
        <time>2017-07-08T09:05:09Z</time>
      </trkpt>
      <trkpt lat="44.79883" lon="1.69551">
        <ele>366</ele>
        <time>2017-07-08T09:05:17Z</time>
      </trkpt>
      <trkpt lat="44.79878" lon="1.6955">
        <ele>366</ele>
        <time>2017-07-08T09:05:22Z</time>
      </trkpt>
      <trkpt lat="44.79874" lon="1.69548">
        <ele>366</ele>
        <time>2017-07-08T09:05:31Z</time>
      </trkpt>
      <trkpt lat="44.79869" lon="1.69545">
        <ele>366</ele>
        <time>2017-07-08T09:05:38Z</time>
      </trkpt>
      <trkpt lat="44.79864" lon="1.69545">
        <ele>366</ele>
        <time>2017-07-08T09:05:44Z</time>
      </trkpt>
      <trkpt lat="44.79858" lon="1.69545">
        <ele>366</ele>
        <time>2017-07-08T09:05:49Z</time>
      </trkpt>
      <trkpt lat="44.79853" lon="1.69546">
        <ele>366</ele>
        <time>2017-07-08T09:05:53Z</time>
      </trkpt>
      <trkpt lat="44.79849" lon="1.69547">
        <ele>365</ele>
        <time>2017-07-08T09:05:59Z</time>
      </trkpt>
      <trkpt lat="44.79844" lon="1.69548">
        <ele>365</ele>
        <time>2017-07-08T09:06:02Z</time>
      </trkpt>
      <trkpt lat="44.79839" lon="1.69548">
        <ele>365</ele>
        <time>2017-07-08T09:06:08Z</time>
      </trkpt>
      <trkpt lat="44.79834" lon="1.69547">
        <ele>365</ele>
        <time>2017-07-08T09:06:13Z</time>
      </trkpt>
      <trkpt lat="44.79828" lon="1.69546">
        <ele>365</ele>
        <time>2017-07-08T09:06:17Z</time>
      </trkpt>
      <trkpt lat="44.79823" lon="1.69545">
        <ele>365</ele>
        <time>2017-07-08T09:06:21Z</time>
      </trkpt>
      <trkpt lat="44.79818" lon="1.69544">
        <ele>365</ele>
        <time>2017-07-08T09:06:25Z</time>
      </trkpt>
      <trkpt lat="44.79813" lon="1.69542">
        <ele>365</ele>
        <time>2017-07-08T09:06:29Z</time>
      </trkpt>
      <trkpt lat="44.79808" lon="1.69541">
        <ele>365</ele>
        <time>2017-07-08T09:06:34Z</time>
      </trkpt>
      <trkpt lat="44.79803" lon="1.69542">
        <ele>365</ele>
        <time>2017-07-08T09:06:38Z</time>
      </trkpt>
      <trkpt lat="44.79798" lon="1.6954">
        <ele>365</ele>
        <time>2017-07-08T09:06:43Z</time>
      </trkpt>
      <trkpt lat="44.79792" lon="1.69539">
        <ele>364</ele>
        <time>2017-07-08T09:06:47Z</time>
      </trkpt>
      <trkpt lat="44.79788" lon="1.69537">
        <ele>364</ele>
        <time>2017-07-08T09:06:51Z</time>
      </trkpt>
      <trkpt lat="44.79783" lon="1.69537">
        <ele>364</ele>
        <time>2017-07-08T09:06:56Z</time>
      </trkpt>
      <trkpt lat="44.79777" lon="1.69536">
        <ele>364</ele>
        <time>2017-07-08T09:07:01Z</time>
      </trkpt>
      <trkpt lat="44.79772" lon="1.69535">
        <ele>364</ele>
        <time>2017-07-08T09:07:04Z</time>
      </trkpt>
      <trkpt lat="44.79767" lon="1.69535">
        <ele>364</ele>
        <time>2017-07-08T09:07:08Z</time>
      </trkpt>
      <trkpt lat="44.79763" lon="1.69533">
        <ele>364</ele>
        <time>2017-07-08T09:07:13Z</time>
      </trkpt>
      <trkpt lat="44.79757" lon="1.69532">
        <ele>363</ele>
        <time>2017-07-08T09:07:19Z</time>
      </trkpt>
      <trkpt lat="44.79752" lon="1.69531">
        <ele>363</ele>
        <time>2017-07-08T09:07:24Z</time>
      </trkpt>
      <trkpt lat="44.79747" lon="1.6953">
        <ele>363</ele>
        <time>2017-07-08T09:07:29Z</time>
      </trkpt>
      <trkpt lat="44.79743" lon="1.69532">
        <ele>363</ele>
        <time>2017-07-08T09:07:32Z</time>
      </trkpt>
      <trkpt lat="44.79738" lon="1.69533">
        <ele>362</ele>
        <time>2017-07-08T09:07:36Z</time>
      </trkpt>
      <trkpt lat="44.79733" lon="1.69533">
        <ele>362</ele>
        <time>2017-07-08T09:07:41Z</time>
      </trkpt>
      <trkpt lat="44.79728" lon="1.69531">
        <ele>362</ele>
        <time>2017-07-08T09:07:45Z</time>
      </trkpt>
      <trkpt lat="44.79723" lon="1.69529">
        <ele>362</ele>
        <time>2017-07-08T09:07:50Z</time>
      </trkpt>
      <trkpt lat="44.79718" lon="1.69526">
        <ele>361</ele>
        <time>2017-07-08T09:07:54Z</time>
      </trkpt>
      <trkpt lat="44.79717" lon="1.69524">
        <ele>361</ele>
        <time>2017-07-08T09:08:16Z</time>
      </trkpt>
      <trkpt lat="44.79717" lon="1.69524">
        <ele>361</ele>
        <time>2017-07-08T09:08:17Z</time>
      </trkpt>
      <trkpt lat="44.79717" lon="1.69518">
        <ele>360</ele>
        <time>2017-07-08T09:08:45Z</time>
      </trkpt>
      <trkpt lat="44.79718" lon="1.69511">
        <ele>360</ele>
        <time>2017-07-08T09:08:49Z</time>
      </trkpt>
      <trkpt lat="44.79718" lon="1.69504">
        <ele>359</ele>
        <time>2017-07-08T09:08:54Z</time>
      </trkpt>
      <trkpt lat="44.79718" lon="1.69498">
        <ele>359</ele>
        <time>2017-07-08T09:09:00Z</time>
      </trkpt>
      <trkpt lat="44.79717" lon="1.6949">
        <ele>358</ele>
        <time>2017-07-08T09:09:05Z</time>
      </trkpt>
      <trkpt lat="44.79718" lon="1.69484">
        <ele>358</ele>
        <time>2017-07-08T09:09:09Z</time>
      </trkpt>
      <trkpt lat="44.79718" lon="1.69477">
        <ele>358</ele>
        <time>2017-07-08T09:09:13Z</time>
      </trkpt>
      <trkpt lat="44.79718" lon="1.69468">
        <ele>358</ele>
        <time>2017-07-08T09:09:19Z</time>
      </trkpt>
      <trkpt lat="44.7972" lon="1.69461">
        <ele>357</ele>
        <time>2017-07-08T09:09:25Z</time>
      </trkpt>
      <trkpt lat="44.79721" lon="1.69454">
        <ele>357</ele>
        <time>2017-07-08T09:09:29Z</time>
      </trkpt>
      <trkpt lat="44.79721" lon="1.69448">
        <ele>357</ele>
        <time>2017-07-08T09:09:34Z</time>
      </trkpt>
      <trkpt lat="44.79721" lon="1.69441">
        <ele>357</ele>
        <time>2017-07-08T09:09:39Z</time>
      </trkpt>
      <trkpt lat="44.79722" lon="1.69434">
        <ele>357</ele>
        <time>2017-07-08T09:09:44Z</time>
      </trkpt>
      <trkpt lat="44.79722" lon="1.69427">
        <ele>357</ele>
        <time>2017-07-08T09:09:48Z</time>
      </trkpt>
      <trkpt lat="44.79721" lon="1.69419">
        <ele>357</ele>
        <time>2017-07-08T09:09:53Z</time>
      </trkpt>
      <trkpt lat="44.79721" lon="1.69411">
        <ele>357</ele>
        <time>2017-07-08T09:09:58Z</time>
      </trkpt>
      <trkpt lat="44.79723" lon="1.69405">
        <ele>357</ele>
        <time>2017-07-08T09:10:03Z</time>
      </trkpt>
      <trkpt lat="44.79724" lon="1.69398">
        <ele>357</ele>
        <time>2017-07-08T09:10:08Z</time>
      </trkpt>
      <trkpt lat="44.79725" lon="1.69392">
        <ele>357</ele>
        <time>2017-07-08T09:10:13Z</time>
      </trkpt>
      <trkpt lat="44.79725" lon="1.69384">
        <ele>357</ele>
        <time>2017-07-08T09:10:17Z</time>
      </trkpt>
      <trkpt lat="44.79725" lon="1.69376">
        <ele>357</ele>
        <time>2017-07-08T09:10:22Z</time>
      </trkpt>
      <trkpt lat="44.79725" lon="1.69368">
        <ele>357</ele>
        <time>2017-07-08T09:10:27Z</time>
      </trkpt>
      <trkpt lat="44.79726" lon="1.69361">
        <ele>356</ele>
        <time>2017-07-08T09:10:32Z</time>
      </trkpt>
      <trkpt lat="44.79726" lon="1.69353">
        <ele>356</ele>
        <time>2017-07-08T09:10:38Z</time>
      </trkpt>
      <trkpt lat="44.79727" lon="1.69346">
        <ele>356</ele>
        <time>2017-07-08T09:10:43Z</time>
      </trkpt>
      <trkpt lat="44.79728" lon="1.69339">
        <ele>356</ele>
        <time>2017-07-08T09:10:47Z</time>
      </trkpt>
      <trkpt lat="44.79729" lon="1.69332">
        <ele>356</ele>
        <time>2017-07-08T09:10:52Z</time>
      </trkpt>
      <trkpt lat="44.7973" lon="1.69324">
        <ele>356</ele>
        <time>2017-07-08T09:10:57Z</time>
      </trkpt>
      <trkpt lat="44.7973" lon="1.69318">
        <ele>356</ele>
        <time>2017-07-08T09:11:01Z</time>
      </trkpt>
      <trkpt lat="44.79731" lon="1.69311">
        <ele>356</ele>
        <time>2017-07-08T09:11:06Z</time>
      </trkpt>
      <trkpt lat="44.7973" lon="1.69304">
        <ele>356</ele>
        <time>2017-07-08T09:11:10Z</time>
      </trkpt>
      <trkpt lat="44.7973" lon="1.69297">
        <ele>356</ele>
        <time>2017-07-08T09:11:14Z</time>
      </trkpt>
      <trkpt lat="44.7973" lon="1.6929">
        <ele>355</ele>
        <time>2017-07-08T09:11:21Z</time>
      </trkpt>
      <trkpt lat="44.7973" lon="1.69283">
        <ele>355</ele>
        <time>2017-07-08T09:11:25Z</time>
      </trkpt>
      <trkpt lat="44.79731" lon="1.69277">
        <ele>354</ele>
        <time>2017-07-08T09:11:30Z</time>
      </trkpt>
      <trkpt lat="44.79732" lon="1.6927">
        <ele>354</ele>
        <time>2017-07-08T09:11:35Z</time>
      </trkpt>
      <trkpt lat="44.79732" lon="1.69263">
        <ele>354</ele>
        <time>2017-07-08T09:11:41Z</time>
      </trkpt>
      <trkpt lat="44.79733" lon="1.69255">
        <ele>354</ele>
        <time>2017-07-08T09:11:45Z</time>
      </trkpt>
      <trkpt lat="44.79734" lon="1.69248">
        <ele>353</ele>
        <time>2017-07-08T09:11:49Z</time>
      </trkpt>
      <trkpt lat="44.79734" lon="1.69242">
        <ele>353</ele>
        <time>2017-07-08T09:11:53Z</time>
      </trkpt>
      <trkpt lat="44.79733" lon="1.69234">
        <ele>353</ele>
        <time>2017-07-08T09:11:59Z</time>
      </trkpt>
      <trkpt lat="44.79734" lon="1.69227">
        <ele>353</ele>
        <time>2017-07-08T09:12:03Z</time>
      </trkpt>
      <trkpt lat="44.79736" lon="1.6922">
        <ele>353</ele>
        <time>2017-07-08T09:12:08Z</time>
      </trkpt>
      <trkpt lat="44.79738" lon="1.69213">
        <ele>353</ele>
        <time>2017-07-08T09:12:13Z</time>
      </trkpt>
      <trkpt lat="44.79739" lon="1.69207">
        <ele>353</ele>
        <time>2017-07-08T09:12:19Z</time>
      </trkpt>
      <trkpt lat="44.79741" lon="1.692">
        <ele>352</ele>
        <time>2017-07-08T09:12:24Z</time>
      </trkpt>
      <trkpt lat="44.79741" lon="1.69193">
        <ele>352</ele>
        <time>2017-07-08T09:12:30Z</time>
      </trkpt>
      <trkpt lat="44.79739" lon="1.69189">
        <ele>352</ele>
        <time>2017-07-08T09:12:46Z</time>
      </trkpt>
      <trkpt lat="44.79739" lon="1.6919">
        <ele>352</ele>
        <time>2017-07-08T09:12:47Z</time>
      </trkpt>
      <trkpt lat="44.79735" lon="1.69194">
        <ele>351</ele>
        <time>2017-07-08T09:13:00Z</time>
      </trkpt>
      <trkpt lat="44.79735" lon="1.69187">
        <ele>351</ele>
        <time>2017-07-08T09:13:14Z</time>
      </trkpt>
      <trkpt lat="44.79735" lon="1.69184">
        <ele>351</ele>
        <time>2017-07-08T09:13:31Z</time>
      </trkpt>
      <trkpt lat="44.79736" lon="1.69184">
        <ele>350</ele>
        <time>2017-07-08T09:13:32Z</time>
      </trkpt>
      <trkpt lat="44.79737" lon="1.69183">
        <ele>351</ele>
        <time>2017-07-08T09:14:01Z</time>
      </trkpt>
      <trkpt lat="44.79737" lon="1.69183">
        <ele>351</ele>
        <time>2017-07-08T09:14:02Z</time>
      </trkpt>
      <trkpt lat="44.79739" lon="1.69185">
        <ele>351</ele>
        <time>2017-07-08T09:14:31Z</time>
      </trkpt>
      <trkpt lat="44.79739" lon="1.69184">
        <ele>352</ele>
        <time>2017-07-08T09:14:32Z</time>
      </trkpt>
      <trkpt lat="44.79736" lon="1.69181">
        <ele>352</ele>
        <time>2017-07-08T09:14:56Z</time>
      </trkpt>
      <trkpt lat="44.79738" lon="1.69182">
        <ele>352</ele>
        <time>2017-07-08T09:15:16Z</time>
      </trkpt>
      <trkpt lat="44.79738" lon="1.69182">
        <ele>351</ele>
        <time>2017-07-08T09:15:17Z</time>
      </trkpt>
      <trkpt lat="44.79737" lon="1.69184">
        <ele>351</ele>
        <time>2017-07-08T09:15:46Z</time>
      </trkpt>
      <trkpt lat="44.79737" lon="1.69185">
        <ele>350</ele>
        <time>2017-07-08T09:15:47Z</time>
      </trkpt>
      <trkpt lat="44.79739" lon="1.69177">
        <ele>350</ele>
        <time>2017-07-08T09:15:55Z</time>
      </trkpt>
      <trkpt lat="44.7974" lon="1.6917">
        <ele>349</ele>
        <time>2017-07-08T09:16:10Z</time>
      </trkpt>
      <trkpt lat="44.79736" lon="1.69173">
        <ele>348</ele>
        <time>2017-07-08T09:16:31Z</time>
      </trkpt>
      <trkpt lat="44.79736" lon="1.69174">
        <ele>348</ele>
        <time>2017-07-08T09:16:32Z</time>
      </trkpt>
      <trkpt lat="44.79738" lon="1.69175">
        <ele>347</ele>
        <time>2017-07-08T09:17:01Z</time>
      </trkpt>
      <trkpt lat="44.79738" lon="1.69175">
        <ele>347</ele>
        <time>2017-07-08T09:17:02Z</time>
      </trkpt>
      <trkpt lat="44.79743" lon="1.69172">
        <ele>347</ele>
        <time>2017-07-08T09:17:12Z</time>
      </trkpt>
      <trkpt lat="44.79746" lon="1.69168">
        <ele>347</ele>
        <time>2017-07-08T09:17:26Z</time>
      </trkpt>
      <trkpt lat="44.79748" lon="1.69166">
        <ele>347</ele>
        <time>2017-07-08T09:17:46Z</time>
      </trkpt>
      <trkpt lat="44.79748" lon="1.69167">
        <ele>347</ele>
        <time>2017-07-08T09:17:47Z</time>
      </trkpt>
      <trkpt lat="44.79753" lon="1.69169">
        <ele>347</ele>
        <time>2017-07-08T09:18:14Z</time>
      </trkpt>
      <trkpt lat="44.79757" lon="1.69166">
        <ele>346</ele>
        <time>2017-07-08T09:18:20Z</time>
      </trkpt>
      <trkpt lat="44.79762" lon="1.69163">
        <ele>346</ele>
        <time>2017-07-08T09:18:26Z</time>
      </trkpt>
      <trkpt lat="44.79767" lon="1.69158">
        <ele>346</ele>
        <time>2017-07-08T09:18:31Z</time>
      </trkpt>
      <trkpt lat="44.79771" lon="1.69156">
        <ele>346</ele>
        <time>2017-07-08T09:18:35Z</time>
      </trkpt>
      <trkpt lat="44.79777" lon="1.69155">
        <ele>346</ele>
        <time>2017-07-08T09:18:40Z</time>
      </trkpt>
      <trkpt lat="44.79783" lon="1.69154">
        <ele>346</ele>
        <time>2017-07-08T09:18:45Z</time>
      </trkpt>
      <trkpt lat="44.79788" lon="1.69154">
        <ele>345</ele>
        <time>2017-07-08T09:18:49Z</time>
      </trkpt>
      <trkpt lat="44.79794" lon="1.69153">
        <ele>345</ele>
        <time>2017-07-08T09:18:53Z</time>
      </trkpt>
      <trkpt lat="44.79798" lon="1.69155">
        <ele>345</ele>
        <time>2017-07-08T09:18:57Z</time>
      </trkpt>
      <trkpt lat="44.79803" lon="1.69155">
        <ele>345</ele>
        <time>2017-07-08T09:19:02Z</time>
      </trkpt>
      <trkpt lat="44.79808" lon="1.69155">
        <ele>345</ele>
        <time>2017-07-08T09:19:06Z</time>
      </trkpt>
      <trkpt lat="44.79813" lon="1.69157">
        <ele>345</ele>
        <time>2017-07-08T09:19:11Z</time>
      </trkpt>
      <trkpt lat="44.79818" lon="1.69157">
        <ele>345</ele>
        <time>2017-07-08T09:19:16Z</time>
      </trkpt>
      <trkpt lat="44.79823" lon="1.69158">
        <ele>345</ele>
        <time>2017-07-08T09:19:19Z</time>
      </trkpt>
      <trkpt lat="44.79829" lon="1.69161">
        <ele>345</ele>
        <time>2017-07-08T09:19:23Z</time>
      </trkpt>
      <trkpt lat="44.79834" lon="1.69164">
        <ele>345</ele>
        <time>2017-07-08T09:19:27Z</time>
      </trkpt>
      <trkpt lat="44.79839" lon="1.69166">
        <ele>345</ele>
        <time>2017-07-08T09:19:30Z</time>
      </trkpt>
      <trkpt lat="44.79843" lon="1.69168">
        <ele>345</ele>
        <time>2017-07-08T09:19:33Z</time>
      </trkpt>
      <trkpt lat="44.79847" lon="1.69173">
        <ele>345</ele>
        <time>2017-07-08T09:19:37Z</time>
      </trkpt>
      <trkpt lat="44.79851" lon="1.69178">
        <ele>345</ele>
        <time>2017-07-08T09:19:41Z</time>
      </trkpt>
      <trkpt lat="44.79854" lon="1.69183">
        <ele>345</ele>
        <time>2017-07-08T09:19:44Z</time>
      </trkpt>
      <trkpt lat="44.79858" lon="1.69187">
        <ele>345</ele>
        <time>2017-07-08T09:19:47Z</time>
      </trkpt>
      <trkpt lat="44.7986" lon="1.69193">
        <ele>345</ele>
        <time>2017-07-08T09:19:51Z</time>
      </trkpt>
      <trkpt lat="44.79864" lon="1.69198">
        <ele>344</ele>
        <time>2017-07-08T09:19:54Z</time>
      </trkpt>
      <trkpt lat="44.79868" lon="1.69203">
        <ele>344</ele>
        <time>2017-07-08T09:19:57Z</time>
      </trkpt>
      <trkpt lat="44.79872" lon="1.69207">
        <ele>344</ele>
        <time>2017-07-08T09:20:01Z</time>
      </trkpt>
      <trkpt lat="44.79877" lon="1.69211">
        <ele>344</ele>
        <time>2017-07-08T09:20:06Z</time>
      </trkpt>
      <trkpt lat="44.79881" lon="1.69216">
        <ele>344</ele>
        <time>2017-07-08T09:20:09Z</time>
      </trkpt>
      <trkpt lat="44.79886" lon="1.69221">
        <ele>343</ele>
        <time>2017-07-08T09:20:13Z</time>
      </trkpt>
      <trkpt lat="44.79889" lon="1.69227">
        <ele>343</ele>
        <time>2017-07-08T09:20:16Z</time>
      </trkpt>
      <trkpt lat="44.79892" lon="1.69233">
        <ele>342</ele>
        <time>2017-07-08T09:20:19Z</time>
      </trkpt>
      <trkpt lat="44.79893" lon="1.6924">
        <ele>342</ele>
        <time>2017-07-08T09:20:22Z</time>
      </trkpt>
      <trkpt lat="44.79895" lon="1.69234">
        <ele>341</ele>
        <time>2017-07-08T09:20:35Z</time>
      </trkpt>
      <trkpt lat="44.79892" lon="1.69228">
        <ele>341</ele>
        <time>2017-07-08T09:20:38Z</time>
      </trkpt>
      <trkpt lat="44.7989" lon="1.69222">
        <ele>340</ele>
        <time>2017-07-08T09:20:41Z</time>
      </trkpt>
      <trkpt lat="44.79888" lon="1.69215">
        <ele>339</ele>
        <time>2017-07-08T09:20:45Z</time>
      </trkpt>
      <trkpt lat="44.79887" lon="1.69207">
        <ele>339</ele>
        <time>2017-07-08T09:20:50Z</time>
      </trkpt>
      <trkpt lat="44.79889" lon="1.69199">
        <ele>338</ele>
        <time>2017-07-08T09:20:57Z</time>
      </trkpt>
      <trkpt lat="44.79888" lon="1.69204">
        <ele>337</ele>
        <time>2017-07-08T09:21:16Z</time>
      </trkpt>
      <trkpt lat="44.79888" lon="1.69205">
        <ele>337</ele>
        <time>2017-07-08T09:21:17Z</time>
      </trkpt>
      <trkpt lat="44.79886" lon="1.69212">
        <ele>336</ele>
        <time>2017-07-08T09:21:28Z</time>
      </trkpt>
      <trkpt lat="44.79885" lon="1.69203">
        <ele>335</ele>
        <time>2017-07-08T09:21:42Z</time>
      </trkpt>
      <trkpt lat="44.79885" lon="1.69196">
        <ele>334</ele>
        <time>2017-07-08T09:21:45Z</time>
      </trkpt>
      <trkpt lat="44.79889" lon="1.6919">
        <ele>333</ele>
        <time>2017-07-08T09:21:48Z</time>
      </trkpt>
      <trkpt lat="44.79893" lon="1.69186">
        <ele>331</ele>
        <time>2017-07-08T09:21:51Z</time>
      </trkpt>
      <trkpt lat="44.79899" lon="1.69186">
        <ele>330</ele>
        <time>2017-07-08T09:21:55Z</time>
      </trkpt>
      <trkpt lat="44.79903" lon="1.69189">
        <ele>330</ele>
        <time>2017-07-08T09:21:59Z</time>
      </trkpt>
      <trkpt lat="44.79907" lon="1.69195">
        <ele>329</ele>
        <time>2017-07-08T09:22:07Z</time>
      </trkpt>
      <trkpt lat="44.79911" lon="1.69201">
        <ele>328</ele>
        <time>2017-07-08T09:22:09Z</time>
      </trkpt>
      <trkpt lat="44.79914" lon="1.69205">
        <ele>328</ele>
        <time>2017-07-08T09:22:11Z</time>
      </trkpt>
      <trkpt lat="44.79918" lon="1.69209">
        <ele>327</ele>
        <time>2017-07-08T09:22:14Z</time>
      </trkpt>
      <trkpt lat="44.79921" lon="1.69214">
        <ele>327</ele>
        <time>2017-07-08T09:22:18Z</time>
      </trkpt>
      <trkpt lat="44.79924" lon="1.6922">
        <ele>327</ele>
        <time>2017-07-08T09:22:22Z</time>
      </trkpt>
      <trkpt lat="44.79927" lon="1.69226">
        <ele>326</ele>
        <time>2017-07-08T09:22:26Z</time>
      </trkpt>
      <trkpt lat="44.79929" lon="1.69232">
        <ele>326</ele>
        <time>2017-07-08T09:22:30Z</time>
      </trkpt>
      <trkpt lat="44.79932" lon="1.69237">
        <ele>326</ele>
        <time>2017-07-08T09:22:33Z</time>
      </trkpt>
      <trkpt lat="44.79934" lon="1.69243">
        <ele>325</ele>
        <time>2017-07-08T09:22:36Z</time>
      </trkpt>
      <trkpt lat="44.79937" lon="1.69248">
        <ele>325</ele>
        <time>2017-07-08T09:22:54Z</time>
      </trkpt>
      <trkpt lat="44.79939" lon="1.69254">
        <ele>325</ele>
        <time>2017-07-08T09:22:57Z</time>
      </trkpt>
      <trkpt lat="44.7994" lon="1.69262">
        <ele>324</ele>
        <time>2017-07-08T09:23:00Z</time>
      </trkpt>
      <trkpt lat="44.7994" lon="1.69268">
        <ele>324</ele>
        <time>2017-07-08T09:23:04Z</time>
      </trkpt>
      <trkpt lat="44.79942" lon="1.69276">
        <ele>324</ele>
        <time>2017-07-08T09:23:08Z</time>
      </trkpt>
      <trkpt lat="44.79943" lon="1.69283">
        <ele>323</ele>
        <time>2017-07-08T09:23:11Z</time>
      </trkpt>
      <trkpt lat="44.79944" lon="1.6929">
        <ele>323</ele>
        <time>2017-07-08T09:23:15Z</time>
      </trkpt>
      <trkpt lat="44.79945" lon="1.69297">
        <ele>322</ele>
        <time>2017-07-08T09:23:18Z</time>
      </trkpt>
      <trkpt lat="44.79948" lon="1.69303">
        <ele>322</ele>
        <time>2017-07-08T09:23:23Z</time>
      </trkpt>
      <trkpt lat="44.79951" lon="1.6931">
        <ele>321</ele>
        <time>2017-07-08T09:23:28Z</time>
      </trkpt>
      <trkpt lat="44.79954" lon="1.69317">
        <ele>321</ele>
        <time>2017-07-08T09:23:33Z</time>
      </trkpt>
      <trkpt lat="44.79958" lon="1.69323">
        <ele>320</ele>
        <time>2017-07-08T09:23:36Z</time>
      </trkpt>
      <trkpt lat="44.79961" lon="1.69327">
        <ele>320</ele>
        <time>2017-07-08T09:23:39Z</time>
      </trkpt>
      <trkpt lat="44.79964" lon="1.69332">
        <ele>319</ele>
        <time>2017-07-08T09:23:44Z</time>
      </trkpt>
      <trkpt lat="44.79968" lon="1.69338">
        <ele>319</ele>
        <time>2017-07-08T09:23:50Z</time>
      </trkpt>
      <trkpt lat="44.79973" lon="1.69342">
        <ele>319</ele>
        <time>2017-07-08T09:23:53Z</time>
      </trkpt>
      <trkpt lat="44.79978" lon="1.69343">
        <ele>318</ele>
        <time>2017-07-08T09:23:57Z</time>
      </trkpt>
      <trkpt lat="44.79985" lon="1.69345">
        <ele>318</ele>
        <time>2017-07-08T09:24:00Z</time>
      </trkpt>
      <trkpt lat="44.7999" lon="1.69346">
        <ele>318</ele>
        <time>2017-07-08T09:24:03Z</time>
      </trkpt>
      <trkpt lat="44.79995" lon="1.69346">
        <ele>318</ele>
        <time>2017-07-08T09:24:12Z</time>
      </trkpt>
      <trkpt lat="44.8" lon="1.69347">
        <ele>317</ele>
        <time>2017-07-08T09:24:18Z</time>
      </trkpt>
      <trkpt lat="44.80005" lon="1.69347">
        <ele>316</ele>
        <time>2017-07-08T09:24:24Z</time>
      </trkpt>
      <trkpt lat="44.8001" lon="1.69347">
        <ele>315</ele>
        <time>2017-07-08T09:24:28Z</time>
      </trkpt>
      <trkpt lat="44.80016" lon="1.69348">
        <ele>314</ele>
        <time>2017-07-08T09:24:32Z</time>
      </trkpt>
      <trkpt lat="44.80021" lon="1.6935">
        <ele>313</ele>
        <time>2017-07-08T09:24:38Z</time>
      </trkpt>
      <trkpt lat="44.80026" lon="1.69352">
        <ele>313</ele>
        <time>2017-07-08T09:24:42Z</time>
      </trkpt>
      <trkpt lat="44.80031" lon="1.69352">
        <ele>312</ele>
        <time>2017-07-08T09:24:46Z</time>
      </trkpt>
      <trkpt lat="44.80036" lon="1.69352">
        <ele>312</ele>
        <time>2017-07-08T09:24:52Z</time>
      </trkpt>
      <trkpt lat="44.80042" lon="1.69353">
        <ele>312</ele>
        <time>2017-07-08T09:24:55Z</time>
      </trkpt>
      <trkpt lat="44.80046" lon="1.69356">
        <ele>312</ele>
        <time>2017-07-08T09:25:02Z</time>
      </trkpt>
      <trkpt lat="44.80051" lon="1.69357">
        <ele>312</ele>
        <time>2017-07-08T09:25:08Z</time>
      </trkpt>
      <trkpt lat="44.80056" lon="1.69359">
        <ele>312</ele>
        <time>2017-07-08T09:25:13Z</time>
      </trkpt>
      <trkpt lat="44.80061" lon="1.69361">
        <ele>312</ele>
        <time>2017-07-08T09:25:20Z</time>
      </trkpt>
      <trkpt lat="44.80066" lon="1.69362">
        <ele>311</ele>
        <time>2017-07-08T09:25:24Z</time>
      </trkpt>
      <trkpt lat="44.80071" lon="1.69363">
        <ele>311</ele>
        <time>2017-07-08T09:25:29Z</time>
      </trkpt>
      <trkpt lat="44.80075" lon="1.69364">
        <ele>310</ele>
        <time>2017-07-08T09:25:36Z</time>
      </trkpt>
      <trkpt lat="44.8008" lon="1.69363">
        <ele>309</ele>
        <time>2017-07-08T09:25:41Z</time>
      </trkpt>
      <trkpt lat="44.80085" lon="1.69365">
        <ele>308</ele>
        <time>2017-07-08T09:25:45Z</time>
      </trkpt>
      <trkpt lat="44.8009" lon="1.69366">
        <ele>308</ele>
        <time>2017-07-08T09:25:50Z</time>
      </trkpt>
      <trkpt lat="44.80095" lon="1.69367">
        <ele>307</ele>
        <time>2017-07-08T09:25:56Z</time>
      </trkpt>
      <trkpt lat="44.801" lon="1.69369">
        <ele>307</ele>
        <time>2017-07-08T09:26:03Z</time>
      </trkpt>
      <trkpt lat="44.80105" lon="1.69368">
        <ele>306</ele>
        <time>2017-07-08T09:26:08Z</time>
      </trkpt>
      <trkpt lat="44.80109" lon="1.69368">
        <ele>306</ele>
        <time>2017-07-08T09:26:13Z</time>
      </trkpt>
      <trkpt lat="44.80114" lon="1.69368">
        <ele>305</ele>
        <time>2017-07-08T09:26:18Z</time>
      </trkpt>
      <trkpt lat="44.8012" lon="1.69368">
        <ele>305</ele>
        <time>2017-07-08T09:26:28Z</time>
      </trkpt>
      <trkpt lat="44.80125" lon="1.69368">
        <ele>304</ele>
        <time>2017-07-08T09:26:32Z</time>
      </trkpt>
      <trkpt lat="44.8013" lon="1.69369">
        <ele>304</ele>
        <time>2017-07-08T09:26:39Z</time>
      </trkpt>
      <trkpt lat="44.80135" lon="1.69369">
        <ele>303</ele>
        <time>2017-07-08T09:26:44Z</time>
      </trkpt>
      <trkpt lat="44.8014" lon="1.6937">
        <ele>303</ele>
        <time>2017-07-08T09:26:48Z</time>
      </trkpt>
      <trkpt lat="44.80145" lon="1.69371">
        <ele>302</ele>
        <time>2017-07-08T09:26:54Z</time>
      </trkpt>
      <trkpt lat="44.80149" lon="1.69373">
        <ele>301</ele>
        <time>2017-07-08T09:27:00Z</time>
      </trkpt>
      <trkpt lat="44.80154" lon="1.69371">
        <ele>300</ele>
        <time>2017-07-08T09:27:09Z</time>
      </trkpt>
      <trkpt lat="44.8016" lon="1.6937">
        <ele>299</ele>
        <time>2017-07-08T09:27:13Z</time>
      </trkpt>
      <trkpt lat="44.80165" lon="1.6937">
        <ele>298</ele>
        <time>2017-07-08T09:27:16Z</time>
      </trkpt>
      <trkpt lat="44.8017" lon="1.69371">
        <ele>296</ele>
        <time>2017-07-08T09:27:24Z</time>
      </trkpt>
      <trkpt lat="44.80175" lon="1.69371">
        <ele>295</ele>
        <time>2017-07-08T09:27:29Z</time>
      </trkpt>
      <trkpt lat="44.8018" lon="1.69371">
        <ele>294</ele>
        <time>2017-07-08T09:27:36Z</time>
      </trkpt>
      <trkpt lat="44.80186" lon="1.69371">
        <ele>294</ele>
        <time>2017-07-08T09:27:40Z</time>
      </trkpt>
      <trkpt lat="44.80191" lon="1.69372">
        <ele>293</ele>
        <time>2017-07-08T09:27:44Z</time>
      </trkpt>
      <trkpt lat="44.80195" lon="1.69374">
        <ele>292</ele>
        <time>2017-07-08T09:27:49Z</time>
      </trkpt>
      <trkpt lat="44.802" lon="1.69372">
        <ele>291</ele>
        <time>2017-07-08T09:27:55Z</time>
      </trkpt>
      <trkpt lat="44.80204" lon="1.69374">
        <ele>291</ele>
        <time>2017-07-08T09:28:00Z</time>
      </trkpt>
      <trkpt lat="44.80209" lon="1.69375">
        <ele>290</ele>
        <time>2017-07-08T09:28:05Z</time>
      </trkpt>
      <trkpt lat="44.80214" lon="1.69377">
        <ele>289</ele>
        <time>2017-07-08T09:28:10Z</time>
      </trkpt>
      <trkpt lat="44.80219" lon="1.69379">
        <ele>289</ele>
        <time>2017-07-08T09:28:13Z</time>
      </trkpt>
      <trkpt lat="44.80223" lon="1.69381">
        <ele>289</ele>
        <time>2017-07-08T09:28:16Z</time>
      </trkpt>
      <trkpt lat="44.80228" lon="1.69383">
        <ele>288</ele>
        <time>2017-07-08T09:28:20Z</time>
      </trkpt>
      <trkpt lat="44.80233" lon="1.69384">
        <ele>288</ele>
        <time>2017-07-08T09:28:26Z</time>
      </trkpt>
      <trkpt lat="44.80237" lon="1.69385">
        <ele>287</ele>
        <time>2017-07-08T09:28:30Z</time>
      </trkpt>
      <trkpt lat="44.80242" lon="1.69387">
        <ele>287</ele>
        <time>2017-07-08T09:28:34Z</time>
      </trkpt>
      <trkpt lat="44.80247" lon="1.69388">
        <ele>287</ele>
        <time>2017-07-08T09:28:40Z</time>
      </trkpt>
      <trkpt lat="44.80251" lon="1.69391">
        <ele>286</ele>
        <time>2017-07-08T09:28:45Z</time>
      </trkpt>
      <trkpt lat="44.80256" lon="1.69394">
        <ele>286</ele>
        <time>2017-07-08T09:28:50Z</time>
      </trkpt>
      <trkpt lat="44.80261" lon="1.69396">
        <ele>286</ele>
        <time>2017-07-08T09:28:55Z</time>
      </trkpt>
      <trkpt lat="44.80266" lon="1.69398">
        <ele>285</ele>
        <time>2017-07-08T09:29:00Z</time>
      </trkpt>
      <trkpt lat="44.8027" lon="1.69403">
        <ele>285</ele>
        <time>2017-07-08T09:29:06Z</time>
      </trkpt>
      <trkpt lat="44.80275" lon="1.69405">
        <ele>284</ele>
        <time>2017-07-08T09:29:11Z</time>
      </trkpt>
      <trkpt lat="44.80279" lon="1.69409">
        <ele>284</ele>
        <time>2017-07-08T09:29:15Z</time>
      </trkpt>
      <trkpt lat="44.80284" lon="1.69412">
        <ele>283</ele>
        <time>2017-07-08T09:29:21Z</time>
      </trkpt>
      <trkpt lat="44.80288" lon="1.69417">
        <ele>283</ele>
        <time>2017-07-08T09:29:26Z</time>
      </trkpt>
      <trkpt lat="44.80293" lon="1.69419">
        <ele>283</ele>
        <time>2017-07-08T09:29:30Z</time>
      </trkpt>
      <trkpt lat="44.80297" lon="1.69422">
        <ele>283</ele>
        <time>2017-07-08T09:29:34Z</time>
      </trkpt>
      <trkpt lat="44.80301" lon="1.69427">
        <ele>282</ele>
        <time>2017-07-08T09:29:38Z</time>
      </trkpt>
      <trkpt lat="44.80305" lon="1.6943">
        <ele>282</ele>
        <time>2017-07-08T09:29:43Z</time>
      </trkpt>
      <trkpt lat="44.80309" lon="1.69433">
        <ele>282</ele>
        <time>2017-07-08T09:29:50Z</time>
      </trkpt>
      <trkpt lat="44.80314" lon="1.69436">
        <ele>282</ele>
        <time>2017-07-08T09:29:53Z</time>
      </trkpt>
      <trkpt lat="44.8032" lon="1.6944">
        <ele>282</ele>
        <time>2017-07-08T09:29:59Z</time>
      </trkpt>
      <trkpt lat="44.80325" lon="1.69444">
        <ele>282</ele>
        <time>2017-07-08T09:30:04Z</time>
      </trkpt>
      <trkpt lat="44.80329" lon="1.69447">
        <ele>282</ele>
        <time>2017-07-08T09:30:14Z</time>
      </trkpt>
      <trkpt lat="44.80333" lon="1.69451">
        <ele>282</ele>
        <time>2017-07-08T09:30:17Z</time>
      </trkpt>
      <trkpt lat="44.80338" lon="1.69454">
        <ele>282</ele>
        <time>2017-07-08T09:30:23Z</time>
      </trkpt>
      <trkpt lat="44.8034" lon="1.6946">
        <ele>282</ele>
        <time>2017-07-08T09:30:28Z</time>
      </trkpt>
      <trkpt lat="44.80343" lon="1.69465">
        <ele>282</ele>
        <time>2017-07-08T09:30:33Z</time>
      </trkpt>
      <trkpt lat="44.80347" lon="1.69467">
        <ele>282</ele>
        <time>2017-07-08T09:30:38Z</time>
      </trkpt>
      <trkpt lat="44.80352" lon="1.69468">
        <ele>282</ele>
        <time>2017-07-08T09:30:46Z</time>
      </trkpt>
      <trkpt lat="44.80355" lon="1.69472">
        <ele>281</ele>
        <time>2017-07-08T09:30:58Z</time>
      </trkpt>
      <trkpt lat="44.80352" lon="1.69478">
        <ele>280</ele>
        <time>2017-07-08T09:31:14Z</time>
      </trkpt>
      <trkpt lat="44.80353" lon="1.69483">
        <ele>280</ele>
        <time>2017-07-08T09:31:31Z</time>
      </trkpt>
      <trkpt lat="44.80352" lon="1.69484">
        <ele>279</ele>
        <time>2017-07-08T09:31:33Z</time>
      </trkpt>
      <trkpt lat="44.80349" lon="1.69486">
        <ele>279</ele>
        <time>2017-07-08T09:32:01Z</time>
      </trkpt>
      <trkpt lat="44.8035" lon="1.69486">
        <ele>278</ele>
        <time>2017-07-08T09:32:03Z</time>
      </trkpt>
    </trkseg>
  </trk>
</gpx>